PWSweather.com
Personal Weather Stations
Station Observations
KV9EWX
Winnebago, Il, Winnebago, IL 61088

Winnebago, IlWinnebago, IL 61088

Lat: 42.261175, Lon: -89.236369

Elevation: 892

Station Type: Lacrosse ws-2811

Latest ConditionsUpdated 8:56:01 PM CDT Saturday, May 28, 2016
Currently Today's Max Today's Min Today's Average
Temperature 63.3°F17.4°C 83.4°F28.6°C 59.6°F15.3°C 69.5°F20.8°C
Dew Point 35.0°F1.7°C 67.4°F19.7°C -28.1°F-33.4°C 23.9°F-4.5°C
Winds 0.4 mph SSE0.6 kmh SSE 14.7 mph SSE23.7 kmh SSE - 7.3 mph 11.7 kmh
Wind Gusts 4.4 mph7.1 kmh 25.4 mph40.9 kmh - -
Humidity 35% 66% 1% 32%
Pressure 29.47 in998.0 mb 29.51 in999.3 mb 29.41 in995.9 mb -
Precipitation - 0.38 in9.7 mm - -
Hour Temp Dew Point Humidity Winds Wind Gusts Pressure Precip Precip Rate Daily Precip Total
08:56 PM 63.3°F17.4°C 35.0°F1.7°C 35% 0.4 mph SSE0.6 kmh SSE 4.4 mph7.1 kmh 29.47 in998.0 mb 0.00 in0.0 mm 0.00 in0.0 mm 0.38 in9.7 mm
08:55 PM 63.3°F17.4°C 34.3°F1.3°C 34% 0.5 mph SSE0.8 kmh SSE 4.4 mph7.1 kmh 29.47 in998.0 mb 0.00 in0.0 mm 0.00 in0.0 mm 0.38 in9.7 mm
08:54 PM 63.3°F17.4°C 34.3°F1.3°C 34% 1.1 mph SSE1.8 kmh SSE 4.4 mph7.1 kmh 29.47 in998.0 mb 0.00 in0.0 mm 0.00 in0.0 mm 0.38 in9.7 mm
08:53 PM 63.3°F17.4°C 34.3°F1.3°C 34% 1.9 mph SSE3.1 kmh SSE 4.4 mph7.1 kmh 29.47 in998.0 mb 0.00 in0.0 mm 0.00 in0.0 mm 0.38 in9.7 mm
08:52 PM 63.3°F17.4°C 34.3°F1.3°C 34% 2.2 mph SSE3.5 kmh SSE 4.4 mph7.1 kmh 29.47 in998.0 mb 0.00 in0.0 mm 0.00 in0.0 mm 0.38 in9.7 mm
08:51 PM 63.2°F17.3°C 32.7°F0.4°C 32% 2.0 mph SSE3.2 kmh SSE 4.7 mph7.6 kmh 29.47 in998.0 mb 0.00 in0.0 mm 0.00 in0.0 mm 0.38 in9.7 mm
08:50 PM 63.5°F17.5°C 34.4°F1.3°C 34% 2.3 mph SSE3.7 kmh SSE 4.7 mph7.6 kmh 29.47 in998.0 mb 0.00 in0.0 mm 0.00 in0.0 mm 0.38 in9.7 mm
08:49 PM 63.5°F17.5°C 35.2°F1.8°C 35% 2.9 mph SE4.7 kmh SE 4.7 mph7.6 kmh 29.47 in998.0 mb 0.00 in0.0 mm 0.00 in0.0 mm 0.38 in9.7 mm
08:48 PM 63.5°F17.5°C 35.9°F2.2°C 36% 2.8 mph SE4.5 kmh SE 4.7 mph7.6 kmh 29.47 in998.0 mb 0.00 in0.0 mm 0.00 in0.0 mm 0.38 in9.7 mm
08:47 PM 63.5°F17.5°C 35.9°F2.2°C 36% 2.0 mph SSE3.2 kmh SSE 4.7 mph7.6 kmh 29.48 in998.3 mb 0.00 in0.0 mm 0.00 in0.0 mm 0.38 in9.7 mm
08:46 PM 63.3°F17.4°C 33.5°F0.8°C 33% 1.7 mph SSE2.7 kmh SSE 4.7 mph7.6 kmh 29.48 in998.3 mb 0.00 in0.0 mm 0.00 in0.0 mm 0.38 in9.7 mm
08:45 PM 63.5°F17.5°C 34.4°F1.3°C 34% 2.2 mph SE3.5 kmh SE 4.7 mph7.6 kmh 29.48 in998.3 mb 0.00 in0.0 mm 0.00 in0.0 mm 0.38 in9.7 mm
08:44 PM 63.5°F17.5°C 34.4°F1.3°C 34% 2.3 mph SSE3.7 kmh SSE 4.7 mph7.6 kmh 29.48 in998.3 mb 0.00 in0.0 mm 0.00 in0.0 mm 0.38 in9.7 mm
08:43 PM 63.5°F17.5°C 34.4°F1.3°C 34% 2.5 mph SSE4.0 kmh SSE 4.7 mph7.6 kmh 29.48 in998.3 mb 0.00 in0.0 mm 0.00 in0.0 mm 0.38 in9.7 mm
08:42 PM 63.9°F17.7°C 36.2°F2.3°C 36% 2.9 mph SSE4.7 kmh SSE 4.7 mph7.6 kmh 29.48 in998.3 mb 0.00 in0.0 mm 0.00 in0.0 mm 0.38 in9.7 mm
08:41 PM 64.1°F17.8°C 37.8°F3.2°C 38% 2.7 mph SSE4.3 kmh SSE 4.7 mph7.6 kmh 29.48 in998.3 mb 0.00 in0.0 mm 0.00 in0.0 mm 0.38 in9.7 mm
08:40 PM 63.9°F17.7°C 37.6°F3.1°C 38% 2.4 mph SE3.9 kmh SE 3.9 mph6.3 kmh 29.48 in998.3 mb 0.00 in0.0 mm 0.00 in0.0 mm 0.38 in9.7 mm
08:39 PM 64.2°F17.9°C 38.6°F3.7°C 39% 2.0 mph SSE3.2 kmh SSE 3.9 mph6.3 kmh 29.49 in998.6 mb 0.00 in0.0 mm 0.00 in0.0 mm 0.38 in9.7 mm
08:38 PM 64.1°F17.8°C 37.8°F3.2°C 38% 1.9 mph S3.1 kmh S 3.9 mph6.3 kmh 29.48 in998.3 mb 0.00 in0.0 mm 0.00 in0.0 mm 0.38 in9.7 mm
08:37 PM 64.1°F17.8°C 37.8°F3.2°C 38% 2.2 mph S3.5 kmh S 3.9 mph6.3 kmh 29.49 in998.6 mb 0.00 in0.0 mm 0.00 in0.0 mm 0.38 in9.7 mm
08:36 PM 64.1°F17.8°C 37.8°F3.2°C 38% 1.9 mph S3.1 kmh S 3.1 mph5.0 kmh 29.49 in998.6 mb 0.00 in0.0 mm 0.00 in0.0 mm 0.38 in9.7 mm
08:35 PM 63.9°F17.7°C 36.9°F2.7°C 37% 1.6 mph S2.6 kmh S 2.8 mph4.5 kmh 29.49 in998.6 mb 0.00 in0.0 mm 0.00 in0.0 mm 0.38 in9.7 mm
08:34 PM 63.9°F17.7°C 36.2°F2.3°C 36% 1.5 mph S2.4 kmh S 3.1 mph5.0 kmh 29.49 in998.6 mb 0.00 in0.0 mm 0.00 in0.0 mm 0.38 in9.7 mm
08:33 PM 63.9°F17.7°C 36.2°F2.3°C 36% 1.7 mph S2.7 kmh S 3.1 mph5.0 kmh 29.49 in998.6 mb 0.00 in0.0 mm 0.00 in0.0 mm 0.38 in9.7 mm
08:32 PM 63.9°F17.7°C 35.5°F1.9°C 35% 1.4 mph S2.3 kmh S 3.1 mph5.0 kmh 29.49 in998.6 mb 0.00 in0.0 mm 0.00 in0.0 mm 0.38 in9.7 mm
08:31 PM 63.9°F17.7°C 34.8°F1.6°C 34% 1.3 mph S2.1 kmh S 3.1 mph5.0 kmh 29.49 in998.6 mb 0.00 in0.0 mm 0.00 in0.0 mm 0.38 in9.7 mm
08:30 PM 63.9°F17.7°C 34.8°F1.6°C 34% 1.6 mph S2.6 kmh S 4.4 mph7.1 kmh 29.49 in998.6 mb 0.00 in0.0 mm 0.00 in0.0 mm 0.38 in9.7 mm
08:29 PM 64.2°F17.9°C 37.9°F3.3°C 38% 1.6 mph S2.6 kmh S 4.4 mph7.1 kmh 29.49 in998.6 mb 0.00 in0.0 mm 0.00 in0.0 mm 0.38 in9.7 mm
08:28 PM 64.4°F18.0°C 38.1°F3.4°C 38% 1.6 mph S2.6 kmh S 4.4 mph7.1 kmh 29.49 in998.6 mb 0.00 in0.0 mm 0.00 in0.0 mm 0.38 in9.7 mm
08:27 PM 64.2°F17.9°C 37.2°F2.9°C 37% 1.7 mph S2.7 kmh S 4.4 mph7.1 kmh 29.49 in998.6 mb 0.00 in0.0 mm 0.00 in0.0 mm 0.38 in9.7 mm
08:26 PM 64.4°F18.0°C 38.1°F3.4°C 38% 2.0 mph S3.2 kmh S 4.4 mph7.1 kmh 29.49 in998.6 mb 0.00 in0.0 mm 0.00 in0.0 mm 0.38 in9.7 mm
08:25 PM 64.8°F18.2°C 39.8°F4.3°C 40% 2.1 mph SSE3.4 kmh SSE 4.4 mph7.1 kmh 29.49 in998.6 mb 0.00 in0.0 mm 0.00 in0.0 mm 0.38 in9.7 mm
08:24 PM 64.8°F18.2°C 39.8°F4.3°C 40% 1.5 mph SSE2.4 kmh SSE 4.4 mph7.1 kmh 29.49 in998.6 mb 0.00 in0.0 mm 0.00 in0.0 mm 0.38 in9.7 mm
08:23 PM 64.6°F18.1°C 39.6°F4.2°C 40% 1.3 mph SSE2.1 kmh SSE 4.4 mph7.1 kmh 29.49 in998.6 mb 0.00 in0.0 mm 0.00 in0.0 mm 0.38 in9.7 mm
08:22 PM 65.0°F18.3°C 41.9°F5.5°C 43% 1.6 mph SSE2.6 kmh SSE 4.4 mph7.1 kmh 29.49 in998.6 mb 0.00 in0.0 mm 0.00 in0.0 mm 0.38 in9.7 mm
08:21 PM 64.8°F18.2°C 40.4°F4.7°C 41% 2.1 mph S3.4 kmh S 4.4 mph7.1 kmh 29.49 in998.6 mb 0.00 in0.0 mm 0.00 in0.0 mm 0.38 in9.7 mm
08:20 PM 64.8°F18.2°C 40.4°F4.7°C 41% 2.2 mph S3.5 kmh S 4.4 mph7.1 kmh 29.49 in998.6 mb 0.00 in0.0 mm 0.00 in0.0 mm 0.38 in9.7 mm
08:19 PM 65.0°F18.3°C 40.6°F4.8°C 41% 1.7 mph S2.7 kmh S 3.1 mph5.0 kmh 29.49 in998.6 mb 0.00 in0.0 mm 0.00 in0.0 mm 0.38 in9.7 mm
08:18 PM 64.6°F18.1°C 39.6°F4.2°C 40% 1.8 mph S2.9 kmh S 3.1 mph5.0 kmh 29.49 in998.6 mb 0.00 in0.0 mm 0.00 in0.0 mm 0.38 in9.7 mm
08:17 PM 64.4°F18.0°C 37.4°F3.0°C 37% 1.8 mph S2.9 kmh S 3.1 mph5.0 kmh 29.49 in998.6 mb 0.00 in0.0 mm 0.00 in0.0 mm 0.38 in9.7 mm
08:16 PM 65.0°F18.3°C 41.2°F5.1°C 42% 1.6 mph S2.6 kmh S 3.1 mph5.0 kmh 29.49 in998.6 mb 0.00 in0.0 mm 0.00 in0.0 mm 0.38 in9.7 mm
08:15 PM 65.1°F18.4°C 40.7°F4.8°C 41% 1.4 mph SSE2.3 kmh SSE 3.1 mph5.0 kmh 29.49 in998.6 mb 0.01 in0.3 mm 0.00 in0.0 mm 0.38 in9.7 mm
08:14 PM 65.1°F18.4°C 41.3°F5.2°C 42% 1.5 mph SSE2.4 kmh SSE 3.1 mph5.0 kmh 29.49 in998.6 mb 0.01 in0.3 mm 0.00 in0.0 mm 0.38 in9.7 mm
08:13 PM 65.1°F18.4°C 41.3°F5.2°C 42% 1.7 mph S2.7 kmh S 3.5 mph5.6 kmh 29.49 in998.6 mb 0.03 in0.8 mm 0.00 in0.0 mm 0.38 in9.7 mm
08:12 PM 65.1°F18.4°C 40.7°F4.8°C 41% 1.4 mph S2.3 kmh S 3.5 mph5.6 kmh 29.49 in998.6 mb 0.06 in1.5 mm 0.00 in0.0 mm 0.38 in9.7 mm
08:11 PM 65.3°F18.5°C 42.7°F5.9°C 44% 1.2 mph S1.9 kmh S 3.5 mph5.6 kmh 29.50 in999.0 mb 0.06 in1.5 mm 0.00 in0.0 mm 0.38 in9.7 mm
08:10 PM 65.5°F18.6°C 43.5°F6.4°C 45% 0.9 mph S1.4 kmh S 3.5 mph5.6 kmh 29.49 in998.6 mb 0.06 in1.5 mm 0.00 in0.0 mm 0.38 in9.7 mm
08:09 PM 65.7°F18.7°C 44.3°F6.8°C 46% 0.7 mph SSE1.1 kmh SSE 3.5 mph5.6 kmh 29.49 in998.6 mb 0.08 in2.0 mm 0.00 in0.0 mm 0.38 in9.7 mm
08:08 PM 65.7°F18.7°C 43.7°F6.5°C 45% 0.8 mph SSE1.3 kmh SSE 3.5 mph5.6 kmh 29.50 in999.0 mb 0.08 in2.0 mm 0.00 in0.0 mm 0.38 in9.7 mm
08:07 PM 65.7°F18.7°C 44.3°F6.8°C 46% 0.9 mph SSE1.4 kmh SSE 3.5 mph5.6 kmh 29.50 in999.0 mb 0.08 in2.0 mm 0.00 in0.0 mm 0.38 in9.7 mm
08:06 PM 65.7°F18.7°C 44.9°F7.2°C 47% 1.4 mph SE2.3 kmh SE 3.5 mph5.6 kmh 29.50 in999.0 mb 0.08 in2.0 mm 0.00 in0.0 mm 0.38 in9.7 mm
08:05 PM 65.9°F18.8°C 46.2°F7.9°C 49% 2.1 mph SE3.4 kmh SE 3.5 mph5.6 kmh 29.50 in999.0 mb 0.08 in2.0 mm 0.00 in0.0 mm 0.38 in9.7 mm
08:04 PM 65.9°F18.8°C 46.7°F8.2°C 50% 2.0 mph SE3.2 kmh SE 3.5 mph5.6 kmh 29.50 in999.0 mb 0.11 in2.8 mm 0.00 in0.0 mm 0.38 in9.7 mm
08:03 PM 65.9°F18.8°C 46.2°F7.9°C 49% 1.6 mph SSE2.6 kmh SSE 3.1 mph5.0 kmh 29.50 in999.0 mb 0.12 in3.0 mm 0.00 in0.0 mm 0.38 in9.7 mm
08:02 PM 65.9°F18.8°C 46.7°F8.2°C 50% 1.4 mph SSE2.3 kmh SSE 3.1 mph5.0 kmh 29.50 in999.0 mb 0.12 in3.0 mm 0.00 in0.0 mm 0.38 in9.7 mm
08:01 PM 66.0°F18.9°C 46.8°F8.2°C 50% 1.3 mph SSE2.1 kmh SSE 3.1 mph5.0 kmh 29.50 in999.0 mb 0.15 in3.8 mm 0.00 in0.0 mm 0.38 in9.7 mm
08:00 PM 66.0°F18.9°C 46.8°F8.2°C 50% 1.6 mph SSE2.6 kmh SSE 3.5 mph5.6 kmh 29.50 in999.0 mb 0.19 in4.8 mm 0.00 in0.0 mm 0.38 in9.7 mm
07:59 PM 66.0°F18.9°C 47.4°F8.6°C 51% 1.2 mph SSE1.9 kmh SSE 3.5 mph5.6 kmh 29.50 in999.0 mb 0.22 in5.6 mm 0.00 in0.0 mm 0.38 in9.7 mm
07:58 PM 66.0°F18.9°C 47.9°F8.8°C 52% 0.6 mph SSE1.0 kmh SSE 3.5 mph5.6 kmh 29.49 in998.6 mb 0.22 in5.6 mm 0.00 in0.0 mm 0.38 in9.7 mm
07:57 PM 66.0°F18.9°C 47.9°F8.8°C 52% 0.7 mph SSE1.1 kmh SSE 3.5 mph5.6 kmh 29.49 in998.6 mb 0.22 in5.6 mm 0.00 in0.0 mm 0.38 in9.7 mm
07:56 PM 66.0°F18.9°C 47.9°F8.8°C 52% 0.8 mph SSE1.3 kmh SSE 3.5 mph5.6 kmh 29.50 in999.0 mb 0.22 in5.6 mm 0.00 in0.0 mm 0.38 in9.7 mm
07:55 PM 66.0°F18.9°C 47.9°F8.8°C 52% 0.4 mph SSE0.6 kmh SSE 3.5 mph5.6 kmh 29.50 in999.0 mb 0.22 in5.6 mm 0.00 in0.0 mm 0.38 in9.7 mm
07:54 PM 66.0°F18.9°C 47.9°F8.8°C 52% 0.5 mph SSE0.8 kmh SSE 3.5 mph5.6 kmh 29.50 in999.0 mb 0.22 in5.6 mm 0.00 in0.0 mm 0.38 in9.7 mm
07:53 PM 66.0°F18.9°C 48.4°F9.1°C 53% 1.2 mph SSE1.9 kmh SSE 3.5 mph5.6 kmh 29.50 in999.0 mb 0.22 in5.6 mm 0.00 in0.0 mm 0.38 in9.7 mm
07:52 PM 66.0°F18.9°C 47.9°F8.8°C 52% 1.7 mph SSE2.7 kmh SSE 3.5 mph5.6 kmh 29.50 in999.0 mb 0.22 in5.6 mm 0.00 in0.0 mm 0.38 in9.7 mm
07:51 PM 66.0°F18.9°C 48.4°F9.1°C 53% 2.1 mph SSE3.4 kmh SSE 3.5 mph5.6 kmh 29.50 in999.0 mb 0.22 in5.6 mm 0.00 in0.0 mm 0.38 in9.7 mm
07:50 PM 66.0°F18.9°C 48.4°F9.1°C 53% 1.9 mph SE3.1 kmh SE 3.1 mph5.0 kmh 29.50 in999.0 mb 0.22 in5.6 mm 0.00 in0.0 mm 0.38 in9.7 mm
07:49 PM 66.2°F19.0°C 48.6°F9.2°C 53% 1.5 mph SE2.4 kmh SE 3.5 mph5.6 kmh 29.50 in999.0 mb 0.22 in5.6 mm 0.00 in0.0 mm 0.38 in9.7 mm
07:48 PM 66.2°F19.0°C 49.6°F9.8°C 55% 1.0 mph SE1.6 kmh SE 3.5 mph5.6 kmh 29.50 in999.0 mb 0.22 in5.6 mm 0.00 in0.0 mm 0.38 in9.7 mm
07:47 PM 66.2°F19.0°C 49.6°F9.8°C 55% 0.9 mph SSE1.4 kmh SSE 3.5 mph5.6 kmh 29.50 in999.0 mb 0.22 in5.6 mm 0.00 in0.0 mm 0.38 in9.7 mm
07:46 PM 66.2°F19.0°C 49.1°F9.5°C 54% 0.9 mph SSE1.4 kmh SSE 3.5 mph5.6 kmh 29.49 in998.6 mb 0.22 in5.6 mm 0.00 in0.0 mm 0.38 in9.7 mm
07:45 PM 66.2°F19.0°C 49.6°F9.8°C 55% 0.3 mph SSE0.5 kmh SSE 3.5 mph5.6 kmh 29.49 in998.6 mb 0.22 in5.6 mm 0.00 in0.0 mm 0.38 in9.7 mm
07:44 PM 66.2°F19.0°C 49.6°F9.8°C 55% 0.3 mph SSE0.5 kmh SSE 3.5 mph5.6 kmh 29.49 in998.6 mb 0.22 in5.6 mm 0.00 in0.0 mm 0.38 in9.7 mm
07:43 PM 66.3°F19.1°C 49.8°F9.9°C 55% 0.5 mph SSE0.8 kmh SSE 3.5 mph5.6 kmh 29.49 in998.6 mb 0.22 in5.6 mm 0.00 in0.0 mm 0.38 in9.7 mm
07:42 PM 66.3°F19.1°C 49.8°F9.9°C 55% 1.1 mph SSE1.8 kmh SSE 3.5 mph5.6 kmh 29.49 in998.6 mb 0.22 in5.6 mm 0.00 in0.0 mm 0.38 in9.7 mm
07:41 PM 66.3°F19.1°C 50.3°F10.2°C 56% 1.9 mph SSE3.1 kmh SSE 3.5 mph5.6 kmh 29.49 in998.6 mb 0.22 in5.6 mm 0.00 in0.0 mm 0.38 in9.7 mm
07:40 PM 66.3°F19.1°C 50.3°F10.2°C 56% 2.0 mph SSE3.2 kmh SSE 3.5 mph5.6 kmh 29.49 in998.6 mb 0.22 in5.6 mm 0.00 in0.0 mm 0.38 in9.7 mm
07:39 PM 66.3°F19.1°C 50.8°F10.4°C 57% 1.8 mph SSE2.9 kmh SSE 3.1 mph5.0 kmh 29.49 in998.6 mb 0.22 in5.6 mm 0.00 in0.0 mm 0.38 in9.7 mm
07:38 PM 66.3°F19.1°C 50.3°F10.2°C 56% 1.6 mph SE2.6 kmh SE 3.1 mph5.0 kmh 29.49 in998.6 mb 0.22 in5.6 mm 0.00 in0.0 mm 0.38 in9.7 mm
07:37 PM 66.3°F19.1°C 50.8°F10.4°C 57% 1.1 mph SE1.8 kmh SE 2.3 mph3.7 kmh 29.49 in998.6 mb 0.22 in5.6 mm 0.00 in0.0 mm 0.38 in9.7 mm
07:36 PM 66.3°F19.1°C 50.8°F10.4°C 57% Calm Calm 4.7 mph7.6 kmh 29.49 in998.6 mb 0.22 in5.6 mm 0.00 in0.0 mm 0.38 in9.7 mm
07:35 PM 66.5°F19.2°C 51.0°F10.6°C 57% 0.5 mph S0.8 kmh S 4.7 mph7.6 kmh 29.49 in998.6 mb 0.22 in5.6 mm 0.00 in0.0 mm 0.38 in9.7 mm
07:34 PM 66.5°F19.2°C 51.0°F10.6°C 57% 0.4 mph S0.6 kmh S 4.7 mph7.6 kmh 29.49 in998.6 mb 0.22 in5.6 mm 0.00 in0.0 mm 0.38 in9.7 mm
07:33 PM 66.5°F19.2°C 51.5°F10.8°C 58% 0.5 mph SW0.8 kmh SW 4.7 mph7.6 kmh 29.49 in998.6 mb 0.22 in5.6 mm 0.00 in0.0 mm 0.38 in9.7 mm
07:32 PM 66.5°F19.2°C 51.5°F10.8°C 58% 0.7 mph SW1.1 kmh SW 4.7 mph7.6 kmh 29.49 in998.6 mb 0.22 in5.6 mm 0.00 in0.0 mm 0.38 in9.7 mm
07:31 PM 66.5°F19.2°C 51.5°F10.8°C 58% Calm Calm 4.7 mph7.6 kmh 29.49 in998.6 mb 0.22 in5.6 mm 0.00 in0.0 mm 0.38 in9.7 mm
07:30 PM 66.5°F19.2°C 51.5°F10.8°C 58% 0.3 mph SW0.5 kmh SW 4.7 mph7.6 kmh 29.50 in999.0 mb 0.22 in5.6 mm 0.00 in0.0 mm 0.38 in9.7 mm
07:29 PM 66.5°F19.2°C 51.5°F10.8°C 58% 1.4 mph S2.3 kmh S 4.7 mph7.6 kmh 29.50 in999.0 mb 0.22 in5.6 mm 0.00 in0.0 mm 0.38 in9.7 mm
07:28 PM 66.7°F19.3°C 51.6°F10.9°C 58% 1.1 mph S1.8 kmh S 4.7 mph7.6 kmh 29.50 in999.0 mb 0.22 in5.6 mm 0.00 in0.0 mm 0.38 in9.7 mm
07:27 PM 66.7°F19.3°C 52.1°F11.2°C 59% 0.9 mph S1.4 kmh S 4.7 mph7.6 kmh 29.50 in999.0 mb 0.22 in5.6 mm 0.00 in0.0 mm 0.38 in9.7 mm
07:26 PM 66.7°F19.3°C 52.1°F11.2°C 59% 0.9 mph WSW1.4 kmh WSW 3.5 mph5.6 kmh 29.49 in998.6 mb 0.22 in5.6 mm 0.00 in0.0 mm 0.38 in9.7 mm
07:25 PM 66.7°F19.3°C 52.1°F11.2°C 59% 0.8 mph WSW1.3 kmh WSW 3.5 mph5.6 kmh 29.50 in999.0 mb 0.22 in5.6 mm 0.00 in0.0 mm 0.38 in9.7 mm
07:24 PM 66.7°F19.3°C 52.6°F11.4°C 60% 0.6 mph WSW1.0 kmh WSW 3.5 mph5.6 kmh 29.50 in999.0 mb 0.22 in5.6 mm 0.00 in0.0 mm 0.38 in9.7 mm
07:23 PM 66.7°F19.3°C 52.6°F11.4°C 60% 0.8 mph WNW1.3 kmh WNW 3.5 mph5.6 kmh 29.49 in998.6 mb 0.22 in5.6 mm 0.00 in0.0 mm 0.38 in9.7 mm
07:22 PM 66.8°F19.3°C 52.7°F11.5°C 60% 1.5 mph W2.4 kmh W 3.5 mph5.6 kmh 29.49 in998.6 mb 0.22 in5.6 mm 0.00 in0.0 mm 0.38 in9.7 mm
07:21 PM 66.8°F19.3°C 52.7°F11.5°C 60% 1.6 mph W2.6 kmh W 3.5 mph5.6 kmh 29.49 in998.6 mb 0.22 in5.6 mm 0.00 in0.0 mm 0.38 in9.7 mm
07:20 PM 67.0°F19.4°C 52.4°F11.3°C 59% 1.8 mph WSW2.9 kmh WSW 3.5 mph5.6 kmh 29.49 in998.6 mb 0.22 in5.6 mm 0.00 in0.0 mm 0.38 in9.7 mm
07:19 PM 67.0°F19.4°C 53.3°F11.8°C 61% 1.8 mph WSW2.9 kmh WSW 3.5 mph5.6 kmh 29.49 in998.6 mb 0.22 in5.6 mm 0.00 in0.0 mm 0.38 in9.7 mm
07:18 PM 67.0°F19.4°C 53.3°F11.8°C 61% 1.6 mph WSW2.6 kmh WSW 3.1 mph5.0 kmh 29.50 in999.0 mb 0.22 in5.6 mm 0.00 in0.0 mm 0.38 in9.7 mm
07:17 PM 67.2°F19.6°C 53.0°F11.7°C 60% 1.5 mph W2.4 kmh W 3.1 mph5.0 kmh 29.50 in999.0 mb 0.22 in5.6 mm 0.60 in15.2 mm 0.38 in9.7 mm
07:16 PM 67.4°F19.7°C 53.7°F12.1°C 61% 1.0 mph WSW1.6 kmh WSW 3.1 mph5.0 kmh 29.50 in999.0 mb 0.21 in5.3 mm 0.00 in0.0 mm 0.37 in9.4 mm
07:15 PM 67.4°F19.7°C 54.1°F12.3°C 62% 0.7 mph SW1.1 kmh SW 3.1 mph5.0 kmh 29.50 in999.0 mb 0.21 in5.3 mm 0.00 in0.0 mm 0.37 in9.4 mm
07:14 PM 67.4°F19.7°C 54.6°F12.6°C 63% 1.1 mph SSE1.8 kmh SSE 3.5 mph5.6 kmh 29.51 in999.3 mb 0.21 in5.3 mm 1.20 in30.5 mm 0.37 in9.4 mm
07:13 PM 67.4°F19.7°C 55.0°F12.8°C 64% 1.1 mph SSE1.8 kmh SSE 3.9 mph6.3 kmh 29.51 in999.3 mb 0.19 in4.8 mm 1.80 in45.7 mm 0.35 in8.9 mm
07:12 PM 67.4°F19.7°C 55.0°F12.8°C 64% 0.7 mph S1.1 kmh S 3.9 mph6.3 kmh 29.51 in999.3 mb 0.16 in4.1 mm 0.00 in0.0 mm 0.33 in8.4 mm
07:11 PM 67.6°F19.8°C 55.2°F12.9°C 64% 0.7 mph SW1.1 kmh SW 7.0 mph11.3 kmh 29.51 in999.3 mb 0.16 in4.1 mm 1.20 in30.5 mm 0.33 in8.4 mm
07:10 PM 67.7°F19.8°C 55.3°F12.9°C 64% 1.5 mph WSW2.4 kmh WSW 13.7 mph22.0 kmh 29.51 in999.3 mb 0.14 in3.6 mm 0.00 in0.0 mm 0.31 in7.9 mm
07:09 PM 67.7°F19.8°C 54.8°F12.7°C 63% 1.4 mph W2.3 kmh W 16.8 mph27.0 kmh 29.51 in999.3 mb 0.14 in3.6 mm 0.00 in0.0 mm 0.31 in7.9 mm
07:08 PM 67.9°F19.9°C 55.5°F13.1°C 64% 0.9 mph WSW1.4 kmh WSW 16.8 mph27.0 kmh 29.51 in999.3 mb 0.14 in3.6 mm 0.00 in0.0 mm 0.31 in7.9 mm
07:07 PM 68.1°F20.1°C 56.1°F13.4°C 65% 1.5 mph WNW2.4 kmh WNW 16.8 mph27.0 kmh 29.51 in999.3 mb 0.14 in3.6 mm 0.00 in0.0 mm 0.31 in7.9 mm
07:06 PM 68.3°F20.2°C 56.3°F13.5°C 65% 2.1 mph WNW3.4 kmh WNW 16.8 mph27.0 kmh 29.50 in999.0 mb 0.14 in3.6 mm 1.20 in30.5 mm 0.31 in7.9 mm
07:05 PM 68.5°F20.3°C 56.4°F13.6°C 65% 2.3 mph WSW3.7 kmh WSW 16.8 mph27.0 kmh 29.50 in999.0 mb 0.12 in3.0 mm 0.60 in15.2 mm 0.29 in7.4 mm
07:04 PM 68.8°F20.4°C 56.3°F13.5°C 64% 1.8 mph SW2.9 kmh SW 16.8 mph27.0 kmh 29.51 in999.3 mb 0.11 in2.8 mm 0.60 in15.2 mm 0.28 in7.1 mm
07:03 PM 69.0°F20.6°C 56.9°F13.8°C 65% 2.4 mph SSW3.9 kmh SSW 16.8 mph27.0 kmh 29.51 in999.3 mb 0.10 in2.5 mm 0.60 in15.2 mm 0.26 in6.6 mm
07:02 PM 69.4°F20.8°C 57.3°F14.1°C 65% 4.0 mph SW6.4 kmh SW 16.8 mph27.0 kmh 29.50 in999.0 mb 0.09 in2.3 mm 1.20 in30.5 mm 0.25 in6.4 mm
07:01 PM 69.6°F20.9°C 58.0°F14.4°C 66% 6.3 mph WSW10.1 kmh WSW 16.8 mph27.0 kmh 29.50 in999.0 mb 0.07 in1.8 mm 2.40 in61.0 mm 0.23 in5.8 mm
07:00 PM 70.2°F21.2°C 58.1°F14.5°C 65% 7.6 mph W12.2 kmh W 16.8 mph27.0 kmh 29.50 in999.0 mb 0.03 in0.8 mm 0.03 in0.8 mm 0.20 in5.1 mm
06:59 PM 70.5°F21.4°C 58.8°F14.9°C 66% 6.1 mph WSW9.8 kmh WSW 16.8 mph27.0 kmh 29.50 in999.0 mb 0.00 in0.0 mm 0.00 in0.0 mm 0.16 in4.1 mm
06:58 PM 70.9°F21.6°C 59.2°F15.1°C 66% 5.2 mph SW8.4 kmh SW 16.4 mph26.4 kmh 29.51 in999.3 mb 0.00 in0.0 mm 0.00 in0.0 mm 0.16 in4.1 mm
06:57 PM 71.1°F21.7°C 59.4°F15.2°C 66% 5.4 mph WSW8.7 kmh WSW 16.4 mph26.4 kmh 29.50 in999.0 mb 0.00 in0.0 mm 0.00 in0.0 mm 0.16 in4.1 mm
06:56 PM 71.2°F21.8°C 59.5°F15.3°C 66% 5.1 mph WSW8.2 kmh WSW 16.4 mph26.4 kmh 29.50 in999.0 mb 0.00 in0.0 mm 0.00 in0.0 mm 0.16 in4.1 mm
06:55 PM 71.6°F22.0°C 59.8°F15.4°C 66% 6.3 mph WSW10.1 kmh WSW 16.4 mph26.4 kmh 29.49 in998.6 mb 0.00 in0.0 mm 0.00 in0.0 mm 0.16 in4.1 mm
06:54 PM 71.6°F22.0°C 59.8°F15.4°C 66% 6.9 mph SW11.1 kmh SW 16.4 mph26.4 kmh 29.49 in998.6 mb 0.00 in0.0 mm 0.00 in0.0 mm 0.16 in4.1 mm
06:53 PM 72.0°F22.2°C 59.8°F15.4°C 65% 7.0 mph SW11.3 kmh SW 16.4 mph26.4 kmh 29.49 in998.6 mb 0.00 in0.0 mm 0.00 in0.0 mm 0.16 in4.1 mm
06:52 PM 72.1°F22.3°C 59.9°F15.5°C 65% 7.1 mph WSW11.4 kmh WSW 16.4 mph26.4 kmh 29.49 in998.6 mb 0.00 in0.0 mm 0.00 in0.0 mm 0.16 in4.1 mm
06:51 PM 72.5°F22.5°C 59.8°F15.4°C 64% 7.6 mph W12.2 kmh W 16.4 mph26.4 kmh 29.49 in998.6 mb 0.00 in0.0 mm 0.00 in0.0 mm 0.16 in4.1 mm
06:50 PM 72.7°F22.6°C 60.0°F15.6°C 64% 6.3 mph W10.1 kmh W 16.4 mph26.4 kmh 29.48 in998.3 mb 0.00 in0.0 mm 0.00 in0.0 mm 0.16 in4.1 mm
06:49 PM 72.9°F22.7°C 59.8°F15.4°C 63% 4.0 mph WSW6.4 kmh WSW 13.3 mph21.4 kmh 29.48 in998.3 mb 0.00 in0.0 mm 0.00 in0.0 mm 0.16 in4.1 mm
06:48 PM 73.3°F22.9°C 59.7°F15.4°C 62% 4.6 mph SW7.4 kmh SW 13.3 mph21.4 kmh 29.48 in998.3 mb 0.00 in0.0 mm 0.00 in0.0 mm 0.16 in4.1 mm
06:47 PM 73.8°F23.2°C 60.2°F15.7°C 62% 5.5 mph WSW8.9 kmh WSW 13.3 mph21.4 kmh 29.48 in998.3 mb 0.00 in0.0 mm 0.00 in0.0 mm 0.16 in4.1 mm
06:46 PM 74.2°F23.4°C 60.1°F15.6°C 61% 6.7 mph WSW10.8 kmh WSW 13.3 mph21.4 kmh 29.48 in998.3 mb 0.00 in0.0 mm 0.00 in0.0 mm 0.16 in4.1 mm
06:45 PM 74.6°F23.7°C 60.0°F15.6°C 60% 6.7 mph SW10.8 kmh SW 13.3 mph21.4 kmh 29.48 in998.3 mb 0.00 in0.0 mm 0.00 in0.0 mm 0.16 in4.1 mm
06:44 PM 75.1°F23.9°C 60.0°F15.6°C 59% 4.1 mph S6.6 kmh S 11.7 mph18.8 kmh 29.48 in998.3 mb 0.00 in0.0 mm 0.00 in0.0 mm 0.16 in4.1 mm
06:43 PM 75.8°F24.3°C 60.1°F15.6°C 58% 2.2 mph SE3.5 kmh SE 12.6 mph20.3 kmh 29.48 in998.3 mb 0.00 in0.0 mm 0.00 in0.0 mm 0.16 in4.1 mm
06:42 PM 75.8°F24.3°C 59.6°F15.3°C 57% 3.1 mph SW5.0 kmh SW 12.6 mph20.3 kmh 29.47 in998.0 mb 0.00 in0.0 mm 0.00 in0.0 mm 0.16 in4.1 mm
06:41 PM 76.3°F24.6°C 59.7°F15.4°C 56% 4.3 mph SW6.9 kmh SW 12.6 mph20.3 kmh 29.47 in998.0 mb 0.00 in0.0 mm 0.00 in0.0 mm 0.16 in4.1 mm
06:40 PM 76.8°F24.9°C 60.1°F15.6°C 56% 5.6 mph SW9.0 kmh SW 12.6 mph20.3 kmh 29.47 in998.0 mb 0.00 in0.0 mm 0.00 in0.0 mm 0.16 in4.1 mm
06:39 PM 77.3°F25.2°C 60.1°F15.6°C 55% 5.6 mph WSW9.0 kmh WSW 12.6 mph20.3 kmh 29.47 in998.0 mb 0.00 in0.0 mm 0.00 in0.0 mm 0.16 in4.1 mm
06:38 PM 77.9°F25.5°C 60.6°F15.9°C 55% 4.3 mph SW6.9 kmh SW 12.6 mph20.3 kmh 29.47 in998.0 mb 0.00 in0.0 mm 0.00 in0.0 mm 0.16 in4.1 mm
06:37 PM 78.2°F25.7°C 60.9°F16.1°C 55% 5.5 mph W8.9 kmh W 12.6 mph20.3 kmh 29.47 in998.0 mb 0.00 in0.0 mm 0.00 in0.0 mm 0.16 in4.1 mm
06:36 PM 78.4°F25.8°C 61.6°F16.4°C 56% 5.1 mph W8.2 kmh W 12.6 mph20.3 kmh 29.47 in998.0 mb 0.00 in0.0 mm 0.00 in0.0 mm 0.16 in4.1 mm
06:35 PM 78.6°F25.9°C 61.8°F16.6°C 56% 4.2 mph SW6.8 kmh SW 12.6 mph20.3 kmh 29.46 in997.6 mb 0.00 in0.0 mm 0.00 in0.0 mm 0.16 in4.1 mm
06:34 PM 78.6°F25.9°C 61.8°F16.6°C 56% 4.6 mph S7.4 kmh S 12.6 mph20.3 kmh 29.45 in997.3 mb 0.00 in0.0 mm 0.00 in0.0 mm 0.16 in4.1 mm
06:33 PM 78.6°F25.9°C 61.8°F16.6°C 56% 4.0 mph S6.4 kmh S 13.3 mph21.4 kmh 29.45 in997.3 mb 0.00 in0.0 mm 0.00 in0.0 mm 0.16 in4.1 mm
06:32 PM 78.8°F26.0°C 61.9°F16.6°C 56% 5.5 mph SSE8.9 kmh SSE 13.3 mph21.4 kmh 29.45 in997.3 mb 0.00 in0.0 mm 0.00 in0.0 mm 0.16 in4.1 mm
06:31 PM 78.8°F26.0°C 61.9°F16.6°C 56% 5.6 mph SSE9.0 kmh SSE 13.3 mph21.4 kmh 29.45 in997.3 mb 0.00 in0.0 mm 0.00 in0.0 mm 0.16 in4.1 mm
06:30 PM 78.8°F26.0°C 61.9°F16.6°C 56% 4.8 mph SSE7.7 kmh SSE 13.3 mph21.4 kmh 29.45 in997.3 mb 0.00 in0.0 mm 0.00 in0.0 mm 0.16 in4.1 mm
06:29 PM 79.0°F26.1°C 61.6°F16.4°C 55% 5.3 mph SSE8.5 kmh SSE 13.3 mph21.4 kmh 29.45 in997.3 mb 0.00 in0.0 mm 0.00 in0.0 mm 0.16 in4.1 mm
06:28 PM 79.0°F26.1°C 61.6°F16.4°C 55% 6.7 mph S10.8 kmh S 13.3 mph21.4 kmh 29.45 in997.3 mb 0.00 in0.0 mm 0.00 in0.0 mm 0.16 in4.1 mm
06:27 PM 79.1°F26.2°C 61.7°F16.5°C 55% 5.6 mph S9.0 kmh S 14.9 mph24.0 kmh 29.45 in997.3 mb 0.00 in0.0 mm 0.00 in0.0 mm 0.16 in4.1 mm
06:26 PM 79.1°F26.2°C 61.7°F16.5°C 55% 4.2 mph S6.8 kmh S 14.9 mph24.0 kmh 29.45 in997.3 mb 0.00 in0.0 mm 0.00 in0.0 mm 0.16 in4.1 mm
06:25 PM 79.1°F26.2°C 61.7°F16.5°C 55% 6.6 mph S10.6 kmh S 14.9 mph24.0 kmh 29.45 in997.3 mb 0.00 in0.0 mm 0.00 in0.0 mm 0.16 in4.1 mm
06:24 PM 79.2°F26.2°C 61.3°F16.3°C 54% 6.8 mph S10.9 kmh S 14.9 mph24.0 kmh 29.45 in997.3 mb 0.00 in0.0 mm 0.00 in0.0 mm 0.16 in4.1 mm
06:23 PM 79.2°F26.2°C 61.3°F16.3°C 54% 5.4 mph SSE8.7 kmh SSE 14.9 mph24.0 kmh 29.45 in997.3 mb 0.00 in0.0 mm 0.00 in0.0 mm 0.16 in4.1 mm
06:22 PM 79.2°F26.2°C 61.3°F16.3°C 54% 6.4 mph SSE10.3 kmh SSE 15.6 mph25.1 kmh 29.45 in997.3 mb 0.00 in0.0 mm 0.00 in0.0 mm 0.16 in4.1 mm
06:21 PM 79.4°F26.3°C 61.5°F16.4°C 54% 6.8 mph SSE10.9 kmh SSE 15.6 mph25.1 kmh 29.45 in997.3 mb 0.00 in0.0 mm 0.00 in0.0 mm 0.16 in4.1 mm
06:20 PM 79.4°F26.3°C 61.5°F16.4°C 54% 7.1 mph SSE11.4 kmh SSE 15.6 mph25.1 kmh 29.45 in997.3 mb 0.00 in0.0 mm 0.00 in0.0 mm 0.16 in4.1 mm
06:19 PM 79.6°F26.4°C 61.2°F16.2°C 53% 8.7 mph SSE14.0 kmh SSE 17.1 mph27.5 kmh 29.45 in997.3 mb 0.00 in0.0 mm 0.00 in0.0 mm 0.16 in4.1 mm
06:18 PM 79.6°F26.4°C 61.2°F16.2°C 53% 9.3 mph SSE15.0 kmh SSE 17.1 mph27.5 kmh 29.45 in997.3 mb 0.00 in0.0 mm 0.00 in0.0 mm 0.16 in4.1 mm
06:17 PM 79.6°F26.4°C 61.2°F16.2°C 53% 8.3 mph S13.4 kmh S 17.1 mph27.5 kmh 29.45 in997.3 mb 0.00 in0.0 mm 0.00 in0.0 mm 0.16 in4.1 mm
06:16 PM 79.9°F26.6°C 61.4°F16.3°C 53% 6.9 mph S11.1 kmh S 17.1 mph27.5 kmh 29.45 in997.3 mb 0.00 in0.0 mm 0.00 in0.0 mm 0.16 in4.1 mm
06:15 PM 79.9°F26.6°C 61.4°F16.3°C 53% 5.5 mph SSE8.9 kmh SSE 17.1 mph27.5 kmh 29.45 in997.3 mb 0.00 in0.0 mm 0.00 in0.0 mm 0.16 in4.1 mm
06:14 PM 79.9°F26.6°C 61.4°F16.3°C 53% 7.8 mph SE12.6 kmh SE 17.1 mph27.5 kmh 29.44 in997.0 mb 0.00 in0.0 mm 0.00 in0.0 mm 0.16 in4.1 mm
06:13 PM 80.1°F26.7°C 61.6°F16.4°C 53% 9.8 mph SE15.8 kmh SE 17.1 mph27.5 kmh 29.44 in997.0 mb 0.00 in0.0 mm 0.00 in0.0 mm 0.16 in4.1 mm
06:12 PM 80.1°F26.7°C 61.6°F16.4°C 53% 8.1 mph SE13.0 kmh SE 17.1 mph27.5 kmh 29.44 in997.0 mb 0.00 in0.0 mm 0.00 in0.0 mm 0.16 in4.1 mm
06:11 PM 80.3°F26.8°C 61.8°F16.6°C 53% 7.3 mph SSE11.7 kmh SSE 18.0 mph29.0 kmh 29.44 in997.0 mb 0.00 in0.0 mm 0.00 in0.0 mm 0.16 in4.1 mm
06:10 PM 80.3°F26.8°C 61.8°F16.6°C 53% 6.8 mph S10.9 kmh S 18.0 mph29.0 kmh 29.44 in997.0 mb 0.00 in0.0 mm 0.00 in0.0 mm 0.16 in4.1 mm
06:09 PM 80.5°F26.9°C 62.5°F16.9°C 54% 6.0 mph S9.7 kmh S 18.0 mph29.0 kmh 29.44 in997.0 mb 0.00 in0.0 mm 0.00 in0.0 mm 0.16 in4.1 mm
06:08 PM 80.5°F26.9°C 62.5°F16.9°C 54% 5.4 mph S8.7 kmh S 18.0 mph29.0 kmh 29.44 in997.0 mb 0.00 in0.0 mm 0.00 in0.0 mm 0.16 in4.1 mm
06:07 PM 80.7°F27.1°C 62.1°F16.7°C 53% 5.2 mph S8.4 kmh S 18.0 mph29.0 kmh 29.44 in997.0 mb 0.00 in0.0 mm 0.00 in0.0 mm 0.16 in4.1 mm
06:06 PM 80.7°F27.1°C 62.1°F16.7°C 53% 6.8 mph S10.9 kmh S 18.0 mph29.0 kmh 29.45 in997.3 mb 0.00 in0.0 mm 0.00 in0.0 mm 0.16 in4.1 mm
06:05 PM 80.8°F27.1°C 62.2°F16.8°C 53% 6.4 mph SSE10.3 kmh SSE 18.4 mph29.6 kmh 29.44 in997.0 mb 0.00 in0.0 mm 0.00 in0.0 mm 0.16 in4.1 mm
06:04 PM 81.0°F27.2°C 62.4°F16.9°C 53% 5.5 mph SSE8.9 kmh SSE 18.4 mph29.6 kmh 29.44 in997.0 mb 0.00 in0.0 mm 0.00 in0.0 mm 0.16 in4.1 mm
06:03 PM 81.0°F27.2°C 62.4°F16.9°C 53% 7.3 mph SSE11.7 kmh SSE 18.4 mph29.6 kmh 29.44 in997.0 mb 0.00 in0.0 mm 0.00 in0.0 mm 0.16 in4.1 mm
06:02 PM 81.2°F27.3°C 62.0°F16.7°C 52% 9.8 mph S15.8 kmh S 18.4 mph29.6 kmh 29.44 in997.0 mb 0.00 in0.0 mm 0.00 in0.0 mm 0.16 in4.1 mm
06:01 PM 81.4°F27.4°C 62.2°F16.8°C 52% 10.1 mph S16.3 kmh S 18.4 mph29.6 kmh 29.44 in997.0 mb 0.00 in0.0 mm 0.00 in0.0 mm 0.16 in4.1 mm
06:00 PM 81.4°F27.4°C 62.2°F16.8°C 52% 8.7 mph S14.0 kmh S 18.4 mph29.6 kmh 29.44 in997.0 mb 0.00 in0.0 mm 0.00 in0.0 mm 0.16 in4.1 mm
05:59 PM 81.6°F27.6°C 63.0°F17.2°C 53% 8.5 mph SSE13.7 kmh SSE 18.4 mph29.6 kmh 29.44 in997.0 mb 0.00 in0.0 mm 0.00 in0.0 mm 0.16 in4.1 mm
05:58 PM 81.7°F27.6°C 61.9°F16.6°C 51% 9.7 mph SSE15.6 kmh SSE 18.4 mph29.6 kmh 29.44 in997.0 mb 0.00 in0.0 mm 0.00 in0.0 mm 0.16 in4.1 mm
05:57 PM 81.9°F27.7°C 62.1°F16.7°C 51% 11.8 mph SSE19.0 kmh SSE 18.4 mph29.6 kmh 29.44 in997.0 mb 0.00 in0.0 mm 0.00 in0.0 mm 0.16 in4.1 mm
05:56 PM 82.1°F27.8°C 62.3°F16.8°C 51% 10.7 mph SE17.2 kmh SE 18.4 mph29.6 kmh 29.44 in997.0 mb 0.00 in0.0 mm 0.00 in0.0 mm 0.16 in4.1 mm
05:55 PM 82.3°F27.9°C 62.5°F16.9°C 51% 7.5 mph SSE12.1 kmh SSE 18.4 mph29.6 kmh 29.44 in997.0 mb 0.00 in0.0 mm 0.00 in0.0 mm 0.16 in4.1 mm
05:54 PM 82.4°F28.0°C 62.6°F17.0°C 51% 8.2 mph S13.2 kmh S 16.1 mph25.9 kmh 29.44 in997.0 mb 0.00 in0.0 mm 0.00 in0.0 mm 0.16 in4.1 mm
05:53 PM 82.5°F28.1°C 62.7°F17.1°C 51% 10.1 mph S16.3 kmh S 16.1 mph25.9 kmh 29.44 in997.0 mb 0.00 in0.0 mm 0.00 in0.0 mm 0.16 in4.1 mm
05:52 PM 82.7°F28.2°C 62.9°F17.2°C 51% 10.8 mph SSE17.4 kmh SSE 16.1 mph25.9 kmh 29.44 in997.0 mb 0.00 in0.0 mm 0.00 in0.0 mm 0.16 in4.1 mm
05:51 PM 82.7°F28.2°C 62.9°F17.2°C 51% 10.8 mph SSE17.4 kmh SSE 16.1 mph25.9 kmh 29.44 in997.0 mb 0.00 in0.0 mm 0.00 in0.0 mm 0.16 in4.1 mm
05:50 PM 82.9°F28.3°C 63.1°F17.3°C 51% 9.6 mph S15.4 kmh S 17.1 mph27.5 kmh 29.44 in997.0 mb 0.00 in0.0 mm 0.00 in0.0 mm 0.16 in4.1 mm
05:49 PM 82.9°F28.3°C 63.1°F17.3°C 51% 9.9 mph S15.9 kmh S 17.1 mph27.5 kmh 29.44 in997.0 mb 0.00 in0.0 mm 0.00 in0.0 mm 0.16 in4.1 mm
05:48 PM 82.9°F28.3°C 63.1°F17.3°C 51% 11.5 mph SSE18.5 kmh SSE 17.1 mph27.5 kmh 29.44 in997.0 mb 0.00 in0.0 mm 0.00 in0.0 mm 0.16 in4.1 mm
05:47 PM 82.9°F28.3°C 63.1°F17.3°C 51% 12.0 mph SE19.3 kmh SE 17.1 mph27.5 kmh 29.44 in997.0 mb 0.00 in0.0 mm 0.00 in0.0 mm 0.16 in4.1 mm
05:46 PM 82.9°F28.3°C 63.7°F17.6°C 52% 11.0 mph SSE17.7 kmh SSE 17.1 mph27.5 kmh 29.44 in997.0 mb 0.00 in0.0 mm 0.00 in0.0 mm 0.16 in4.1 mm
05:45 PM 82.9°F28.3°C 63.7°F17.6°C 52% 9.0 mph S14.5 kmh S 17.1 mph27.5 kmh 29.44 in997.0 mb 0.00 in0.0 mm 0.00 in0.0 mm 0.16 in4.1 mm
05:44 PM 82.9°F28.3°C 63.7°F17.6°C 52% 7.6 mph S12.2 kmh S 17.1 mph27.5 kmh 29.44 in997.0 mb 0.00 in0.0 mm 0.00 in0.0 mm 0.16 in4.1 mm
05:43 PM 82.9°F28.3°C 63.7°F17.6°C 52% 7.4 mph S11.9 kmh S 17.1 mph27.5 kmh 29.44 in997.0 mb 0.00 in0.0 mm 0.00 in0.0 mm 0.16 in4.1 mm
05:42 PM 82.9°F28.3°C 63.7°F17.6°C 52% 10.2 mph SE16.4 kmh SE 17.1 mph27.5 kmh 29.44 in997.0 mb 0.00 in0.0 mm 0.00 in0.0 mm 0.16 in4.1 mm
05:41 PM 82.7°F28.2°C 62.9°F17.2°C 51% 12.4 mph SE20.0 kmh SE 19.9 mph32.0 kmh 29.44 in997.0 mb 0.00 in0.0 mm 0.00 in0.0 mm 0.16 in4.1 mm
05:40 PM 82.7°F28.2°C 63.5°F17.5°C 52% 11.0 mph SE17.7 kmh SE 19.9 mph32.0 kmh 29.44 in997.0 mb 0.00 in0.0 mm 0.00 in0.0 mm 0.16 in4.1 mm
05:39 PM 82.9°F28.3°C 63.7°F17.6°C 52% 8.5 mph SSE13.7 kmh SSE 19.9 mph32.0 kmh 29.44 in997.0 mb 0.00 in0.0 mm 0.00 in0.0 mm 0.16 in4.1 mm
05:38 PM 82.7°F28.2°C 63.5°F17.5°C 52% 6.8 mph S10.9 kmh S 22.4 mph36.0 kmh 29.44 in997.0 mb 0.00 in0.0 mm 0.00 in0.0 mm 0.16 in4.1 mm
05:37 PM 82.7°F28.2°C 63.5°F17.5°C 52% 7.0 mph SSE11.3 kmh SSE 22.4 mph36.0 kmh 29.44 in997.0 mb 0.00 in0.0 mm 0.00 in0.0 mm 0.16 in4.1 mm
05:36 PM 82.7°F28.2°C 63.5°F17.5°C 52% 10.1 mph S16.3 kmh S 22.4 mph36.0 kmh 29.44 in997.0 mb 0.00 in0.0 mm 0.00 in0.0 mm 0.16 in4.1 mm
05:35 PM 82.7°F28.2°C 62.9°F17.2°C 51% 10.8 mph S17.4 kmh S 22.4 mph36.0 kmh 29.44 in997.0 mb 0.00 in0.0 mm 0.00 in0.0 mm 0.16 in4.1 mm
05:34 PM 82.7°F28.2°C 62.9°F17.2°C 51% 9.3 mph SSE15.0 kmh SSE 22.4 mph36.0 kmh 29.44 in997.0 mb 0.00 in0.0 mm 0.00 in0.0 mm 0.16 in4.1 mm
05:33 PM 82.7°F28.2°C 62.9°F17.2°C 51% 11.4 mph SSE18.3 kmh SSE 22.4 mph36.0 kmh 29.44 in997.0 mb 0.00 in0.0 mm 0.00 in0.0 mm 0.16 in4.1 mm
05:32 PM 82.9°F28.3°C 63.1°F17.3°C 51% 13.5 mph SSE21.7 kmh SSE 22.4 mph36.0 kmh 29.44 in997.0 mb 0.00 in0.0 mm 0.00 in0.0 mm 0.16 in4.1 mm
05:31 PM 83.1°F28.4°C 63.3°F17.4°C 51% 11.6 mph S18.7 kmh S 22.4 mph36.0 kmh 29.44 in997.0 mb 0.00 in0.0 mm 0.00 in0.0 mm 0.16 in4.1 mm
05:30 PM 83.1°F28.4°C 63.3°F17.4°C 51% 11.2 mph S18.0 kmh S 22.4 mph36.0 kmh 29.44 in997.0 mb 0.00 in0.0 mm 0.00 in0.0 mm 0.16 in4.1 mm
05:29 PM 83.1°F28.4°C 64.4°F18.0°C 53% 10.8 mph SSE17.4 kmh SSE 22.4 mph36.0 kmh 29.44 in997.0 mb 0.00 in0.0 mm 0.00 in0.0 mm 0.16 in4.1 mm
05:28 PM 83.1°F28.4°C 64.4°F18.0°C 53% 8.3 mph SSE13.4 kmh SSE 22.4 mph36.0 kmh 29.44 in997.0 mb 0.00 in0.0 mm 0.00 in0.0 mm 0.16 in4.1 mm
05:27 PM 83.1°F28.4°C 65.0°F18.3°C 54% 5.6 mph S9.0 kmh S 20.8 mph33.5 kmh 29.44 in997.0 mb 0.00 in0.0 mm 0.00 in0.0 mm 0.16 in4.1 mm
05:26 PM 83.1°F28.4°C 65.0°F18.3°C 54% 5.3 mph S8.5 kmh S 20.8 mph33.5 kmh 29.44 in997.0 mb 0.00 in0.0 mm 0.00 in0.0 mm 0.16 in4.1 mm
05:25 PM 82.9°F28.3°C 64.8°F18.2°C 54% 6.8 mph S10.9 kmh S 20.8 mph33.5 kmh 29.44 in997.0 mb 0.00 in0.0 mm 0.00 in0.0 mm 0.16 in4.1 mm
05:24 PM 82.9°F28.3°C 64.2°F17.9°C 53% 8.3 mph S13.4 kmh S 20.8 mph33.5 kmh 29.44 in997.0 mb 0.00 in0.0 mm 0.00 in0.0 mm 0.16 in4.1 mm
05:23 PM 82.9°F28.3°C 64.2°F17.9°C 53% 10.7 mph SSE17.2 kmh SSE 20.8 mph33.5 kmh 29.44 in997.0 mb 0.00 in0.0 mm 0.00 in0.0 mm 0.16 in4.1 mm
05:22 PM 82.7°F28.2°C 63.5°F17.5°C 52% 12.3 mph SE19.8 kmh SE 20.8 mph33.5 kmh 29.44 in997.0 mb 0.00 in0.0 mm 0.00 in0.0 mm 0.16 in4.1 mm
05:21 PM 82.7°F28.2°C 62.9°F17.2°C 51% 12.3 mph SSE19.8 kmh SSE 20.8 mph33.5 kmh 29.44 in997.0 mb 0.00 in0.0 mm 0.00 in0.0 mm 0.16 in4.1 mm
05:20 PM 82.7°F28.2°C 63.5°F17.5°C 52% 12.0 mph SE19.3 kmh SE 20.8 mph33.5 kmh 29.44 in997.0 mb 0.00 in0.0 mm 0.00 in0.0 mm 0.16 in4.1 mm
05:19 PM 82.7°F28.2°C 63.5°F17.5°C 52% 8.8 mph SSE14.2 kmh SSE 20.8 mph33.5 kmh 29.44 in997.0 mb 0.00 in0.0 mm 0.00 in0.0 mm 0.16 in4.1 mm
05:18 PM 82.7°F28.2°C 64.0°F17.8°C 53% 7.7 mph SE12.4 kmh SE 20.8 mph33.5 kmh 29.44 in997.0 mb 0.00 in0.0 mm 0.00 in0.0 mm 0.16 in4.1 mm
05:17 PM 82.7°F28.2°C 64.0°F17.8°C 53% 10.2 mph SE16.4 kmh SE 20.8 mph33.5 kmh 29.44 in997.0 mb 0.00 in0.0 mm 0.00 in0.0 mm 0.16 in4.1 mm
05:16 PM 82.7°F28.2°C 64.0°F17.8°C 53% 11.4 mph SE18.3 kmh SE 20.8 mph33.5 kmh 29.44 in997.0 mb 0.00 in0.0 mm 0.00 in0.0 mm 0.16 in4.1 mm
05:15 PM 82.7°F28.2°C 64.6°F18.1°C 54% 10.2 mph SE16.4 kmh SE 20.8 mph33.5 kmh 29.44 in997.0 mb 0.00 in0.0 mm 0.00 in0.0 mm 0.16 in4.1 mm
05:14 PM 82.7°F28.2°C 64.6°F18.1°C 54% 9.2 mph SE14.8 kmh SE 20.8 mph33.5 kmh 29.44 in997.0 mb 0.00 in0.0 mm 0.00 in0.0 mm 0.16 in4.1 mm
05:13 PM 82.5°F28.1°C 63.9°F17.7°C 53% 8.7 mph SE14.0 kmh SE 21.2 mph34.1 kmh 29.44 in997.0 mb 0.00 in0.0 mm 0.00 in0.0 mm 0.16 in4.1 mm
05:12 PM 82.5°F28.1°C 64.4°F18.0°C 54% 9.5 mph SE15.3 kmh SE 21.2 mph34.1 kmh 29.44 in997.0 mb 0.00 in0.0 mm 0.00 in0.0 mm 0.16 in4.1 mm
05:11 PM 82.5°F28.1°C 64.4°F18.0°C 54% 10.3 mph SE16.6 kmh SE 21.2 mph34.1 kmh 29.44 in997.0 mb 0.00 in0.0 mm 0.00 in0.0 mm 0.16 in4.1 mm
05:10 PM 82.4°F28.0°C 64.9°F18.3°C 55% 8.8 mph SSE14.2 kmh SSE 21.2 mph34.1 kmh 29.44 in997.0 mb 0.00 in0.0 mm 0.00 in0.0 mm 0.16 in4.1 mm
05:09 PM 82.4°F28.0°C 64.3°F17.9°C 54% 11.6 mph SSE18.7 kmh SSE 21.2 mph34.1 kmh 29.44 in997.0 mb 0.00 in0.0 mm 0.00 in0.0 mm 0.16 in4.1 mm
05:08 PM 82.4°F28.0°C 64.3°F17.9°C 54% 11.1 mph SSE17.9 kmh SSE 21.2 mph34.1 kmh 29.44 in997.0 mb 0.00 in0.0 mm 0.00 in0.0 mm 0.16 in4.1 mm
05:07 PM 82.4°F28.0°C 64.3°F17.9°C 54% 8.7 mph SSE14.0 kmh SSE 21.2 mph34.1 kmh 29.44 in997.0 mb 0.00 in0.0 mm 0.00 in0.0 mm 0.16 in4.1 mm
05:06 PM 82.5°F28.1°C 64.4°F18.0°C 54% 9.7 mph SSE15.6 kmh SSE 22.4 mph36.0 kmh 29.44 in997.0 mb 0.00 in0.0 mm 0.00 in0.0 mm 0.16 in4.1 mm
05:05 PM 82.5°F28.1°C 63.9°F17.7°C 53% 12.3 mph SSE19.8 kmh SSE 22.4 mph36.0 kmh 29.44 in997.0 mb 0.00 in0.0 mm 0.00 in0.0 mm 0.16 in4.1 mm
05:04 PM 82.5°F28.1°C 63.3°F17.4°C 52% 13.2 mph S21.2 kmh S 22.4 mph36.0 kmh 29.44 in997.0 mb 0.00 in0.0 mm 0.00 in0.0 mm 0.16 in4.1 mm
05:03 PM 82.5°F28.1°C 64.4°F18.0°C 54% 11.2 mph S18.0 kmh S 22.4 mph36.0 kmh 29.44 in997.0 mb 0.00 in0.0 mm 0.00 in0.0 mm 0.16 in4.1 mm
05:02 PM 82.7°F28.2°C 64.6°F18.1°C 54% 10.6 mph S17.1 kmh S 22.4 mph36.0 kmh 29.44 in997.0 mb 0.00 in0.0 mm 0.00 in0.0 mm 0.16 in4.1 mm
05:01 PM 82.5°F28.1°C 64.4°F18.0°C 54% 10.6 mph SE17.1 kmh SE 22.4 mph36.0 kmh 29.44 in997.0 mb 0.00 in0.0 mm 0.00 in0.0 mm 0.16 in4.1 mm
05:00 PM 82.5°F28.1°C 64.4°F18.0°C 54% 10.2 mph SSE16.4 kmh SSE 22.4 mph36.0 kmh 29.44 in997.0 mb 0.00 in0.0 mm 0.00 in0.0 mm 0.16 in4.1 mm
04:59 PM 82.4°F28.0°C 64.3°F17.9°C 54% 10.1 mph SSE16.3 kmh SSE 22.4 mph36.0 kmh 29.44 in997.0 mb 0.00 in0.0 mm 0.00 in0.0 mm 0.16 in4.1 mm
04:58 PM 82.4°F28.0°C 64.3°F17.9°C 54% 11.3 mph S18.2 kmh S 22.4 mph36.0 kmh 29.44 in997.0 mb 0.00 in0.0 mm 0.00 in0.0 mm 0.16 in4.1 mm
04:57 PM 82.4°F28.0°C 63.8°F17.7°C 53% 13.6 mph S21.9 kmh S 22.4 mph36.0 kmh 29.44 in997.0 mb 0.00 in0.0 mm 0.00 in0.0 mm 0.16 in4.1 mm
04:56 PM 82.4°F28.0°C 63.8°F17.7°C 53% 13.1 mph SE21.1 kmh SE 22.4 mph36.0 kmh 29.44 in997.0 mb 0.00 in0.0 mm 0.00 in0.0 mm 0.16 in4.1 mm
04:55 PM 82.5°F28.1°C 64.4°F18.0°C 54% 11.4 mph SSE18.3 kmh SSE 19.9 mph32.0 kmh 29.44 in997.0 mb 0.00 in0.0 mm 0.00 in0.0 mm 0.16 in4.1 mm
04:54 PM 82.4°F28.0°C 63.8°F17.7°C 53% 11.9 mph S19.2 kmh S 19.9 mph32.0 kmh 29.44 in997.0 mb 0.00 in0.0 mm 0.00 in0.0 mm 0.16 in4.1 mm
04:53 PM 82.4°F28.0°C 64.3°F17.9°C 54% 11.8 mph SSE19.0 kmh SSE 19.9 mph32.0 kmh 29.44 in997.0 mb 0.00 in0.0 mm 0.00 in0.0 mm 0.16 in4.1 mm
04:52 PM 82.5°F28.1°C 64.4°F18.0°C 54% 10.6 mph SSE17.1 kmh SSE 19.9 mph32.0 kmh 29.45 in997.3 mb 0.00 in0.0 mm 0.00 in0.0 mm 0.16 in4.1 mm
04:51 PM 82.5°F28.1°C 63.9°F17.7°C 53% 12.5 mph SSE20.1 kmh SSE 19.9 mph32.0 kmh 29.44 in997.0 mb 0.00 in0.0 mm 0.00 in0.0 mm 0.16 in4.1 mm
04:50 PM 82.5°F28.1°C 63.9°F17.7°C 53% 13.6 mph S21.9 kmh S 19.9 mph32.0 kmh 29.44 in997.0 mb 0.00 in0.0 mm 0.00 in0.0 mm 0.16 in4.1 mm
04:49 PM 82.7°F28.2°C 64.0°F17.8°C 53% 12.1 mph S19.5 kmh S 19.9 mph32.0 kmh 29.45 in997.3 mb 0.00 in0.0 mm 0.00 in0.0 mm 0.16 in4.1 mm
04:48 PM 82.7°F28.2°C 64.0°F17.8°C 53% 10.6 mph S17.1 kmh S 21.2 mph34.1 kmh 29.45 in997.3 mb 0.00 in0.0 mm 0.00 in0.0 mm 0.16 in4.1 mm
04:47 PM 82.7°F28.2°C 64.6°F18.1°C 54% 8.0 mph S12.9 kmh S 21.2 mph34.1 kmh 29.45 in997.3 mb 0.00 in0.0 mm 0.00 in0.0 mm 0.16 in4.1 mm
04:46 PM 82.7°F28.2°C 64.6°F18.1°C 54% 8.1 mph SSE13.0 kmh SSE 21.2 mph34.1 kmh 29.45 in997.3 mb 0.00 in0.0 mm 0.00 in0.0 mm 0.16 in4.1 mm
04:45 PM 82.7°F28.2°C 64.0°F17.8°C 53% 10.7 mph SSE17.2 kmh SSE 21.2 mph34.1 kmh 29.45 in997.3 mb 0.00 in0.0 mm 0.00 in0.0 mm 0.16 in4.1 mm
04:44 PM 82.7°F28.2°C 64.0°F17.8°C 53% 10.5 mph SSE16.9 kmh SSE 21.2 mph34.1 kmh 29.45 in997.3 mb 0.00 in0.0 mm 0.00 in0.0 mm 0.16 in4.1 mm
04:43 PM 82.7°F28.2°C 64.6°F18.1°C 54% 9.7 mph SSE15.6 kmh SSE 21.2 mph34.1 kmh 29.45 in997.3 mb 0.00 in0.0 mm 0.00 in0.0 mm 0.16 in4.1 mm
04:42 PM 82.7°F28.2°C 64.6°F18.1°C 54% 11.7 mph SSE18.8 kmh SSE 21.2 mph34.1 kmh 29.45 in997.3 mb 0.00 in0.0 mm 0.00 in0.0 mm 0.16 in4.1 mm
04:41 PM 82.7°F28.2°C 64.0°F17.8°C 53% 12.1 mph SSE19.5 kmh SSE 21.2 mph34.1 kmh 29.45 in997.3 mb 0.00 in0.0 mm 0.00 in0.0 mm 0.16 in4.1 mm
04:40 PM 82.7°F28.2°C 64.0°F17.8°C 53% 12.8 mph SE20.6 kmh SE 21.2 mph34.1 kmh 29.45 in997.3 mb 0.00 in0.0 mm 0.00 in0.0 mm 0.16 in4.1 mm
04:39 PM 82.7°F28.2°C 64.0°F17.8°C 53% 13.3 mph SE21.4 kmh SE 21.2 mph34.1 kmh 29.45 in997.3 mb 0.00 in0.0 mm 0.00 in0.0 mm 0.16 in4.1 mm
04:38 PM 82.7°F28.2°C 64.0°F17.8°C 53% 13.9 mph SSE22.4 kmh SSE 21.2 mph34.1 kmh 29.45 in997.3 mb 0.00 in0.0 mm 0.00 in0.0 mm 0.16 in4.1 mm
04:37 PM 82.9°F28.3°C 64.2°F17.9°C 53% 11.5 mph SSE18.5 kmh SSE 21.2 mph34.1 kmh 29.45 in997.3 mb 0.00 in0.0 mm 0.00 in0.0 mm 0.16 in4.1 mm
04:36 PM 82.9°F28.3°C 64.8°F18.2°C 54% 7.3 mph S11.7 kmh S 18.7 mph30.1 kmh 29.45 in997.3 mb 0.00 in0.0 mm 0.00 in0.0 mm 0.16 in4.1 mm
04:35 PM 82.9°F28.3°C 65.3°F18.5°C 55% 6.4 mph SSE10.3 kmh SSE 18.7 mph30.1 kmh 29.45 in997.3 mb 0.00 in0.0 mm 0.00 in0.0 mm 0.16 in4.1 mm
04:34 PM 82.7°F28.2°C 65.1°F18.4°C 55% 9.0 mph SSE14.5 kmh SSE 18.7 mph30.1 kmh 29.46 in997.6 mb 0.00 in0.0 mm 0.00 in0.0 mm 0.16 in4.1 mm
04:33 PM 82.7°F28.2°C 64.6°F18.1°C 54% 9.1 mph SSE14.6 kmh SSE 18.7 mph30.1 kmh 29.46 in997.6 mb 0.00 in0.0 mm 0.00 in0.0 mm 0.16 in4.1 mm
04:32 PM 82.7°F28.2°C 64.6°F18.1°C 54% 9.6 mph SSE15.4 kmh SSE 18.7 mph30.1 kmh 29.45 in997.3 mb 0.00 in0.0 mm 0.00 in0.0 mm 0.16 in4.1 mm
04:31 PM 82.5°F28.1°C 64.4°F18.0°C 54% 9.2 mph SSE14.8 kmh SSE 21.2 mph34.1 kmh 29.45 in997.3 mb 0.00 in0.0 mm 0.00 in0.0 mm 0.16 in4.1 mm
04:30 PM 82.5°F28.1°C 65.0°F18.3°C 55% 8.9 mph SSE14.3 kmh SSE 21.2 mph34.1 kmh 29.46 in997.6 mb 0.00 in0.0 mm 0.00 in0.0 mm 0.16 in4.1 mm
04:29 PM 82.4°F28.0°C 64.9°F18.3°C 55% 8.5 mph SSE13.7 kmh SSE 21.2 mph34.1 kmh 29.45 in997.3 mb 0.00 in0.0 mm 0.00 in0.0 mm 0.16 in4.1 mm
04:28 PM 82.4°F28.0°C 64.9°F18.3°C 55% 8.4 mph S13.5 kmh S 21.2 mph34.1 kmh 29.45 in997.3 mb 0.00 in0.0 mm 0.00 in0.0 mm 0.16 in4.1 mm
04:27 PM 82.4°F28.0°C 64.3°F17.9°C 54% 12.0 mph S19.3 kmh S 21.2 mph34.1 kmh 29.46 in997.6 mb 0.00 in0.0 mm 0.00 in0.0 mm 0.16 in4.1 mm
04:26 PM 82.4°F28.0°C 64.3°F17.9°C 54% 12.9 mph S20.8 kmh S 21.2 mph34.1 kmh 29.46 in997.6 mb 0.00 in0.0 mm 0.00 in0.0 mm 0.16 in4.1 mm
04:25 PM 82.5°F28.1°C 64.4°F18.0°C 54% 11.4 mph S18.3 kmh S 21.5 mph34.6 kmh 29.46 in997.6 mb 0.00 in0.0 mm 0.00 in0.0 mm 0.16 in4.1 mm
04:24 PM 82.5°F28.1°C 64.4°F18.0°C 54% 12.0 mph S19.3 kmh S 21.5 mph34.6 kmh 29.46 in997.6 mb 0.00 in0.0 mm 0.00 in0.0 mm 0.16 in4.1 mm
04:23 PM 82.5°F28.1°C 64.4°F18.0°C 54% 12.1 mph SE19.5 kmh SE 21.5 mph34.6 kmh 29.46 in997.6 mb 0.00 in0.0 mm 0.00 in0.0 mm 0.16 in4.1 mm
04:22 PM 82.7°F28.2°C 64.6°F18.1°C 54% 10.7 mph SSE17.2 kmh SSE 21.5 mph34.6 kmh 29.46 in997.6 mb 0.00 in0.0 mm 0.00 in0.0 mm 0.16 in4.1 mm
04:21 PM 82.7°F28.2°C 64.6°F18.1°C 54% 10.0 mph S16.1 kmh S 21.5 mph34.6 kmh 29.46 in997.6 mb 0.00 in0.0 mm 0.00 in0.0 mm 0.16 in4.1 mm
04:20 PM 82.7°F28.2°C 64.0°F17.8°C 53% 9.6 mph S15.4 kmh S 21.5 mph34.6 kmh 29.46 in997.6 mb 0.00 in0.0 mm 0.00 in0.0 mm 0.16 in4.1 mm
04:19 PM 82.7°F28.2°C 64.0°F17.8°C 53% 10.4 mph SSE16.7 kmh SSE 21.5 mph34.6 kmh 29.46 in997.6 mb 0.00 in0.0 mm 0.00 in0.0 mm 0.16 in4.1 mm
04:18 PM 82.9°F28.3°C 64.2°F17.9°C 53% 12.0 mph S19.3 kmh S 21.5 mph34.6 kmh 29.46 in997.6 mb 0.00 in0.0 mm 0.00 in0.0 mm 0.16 in4.1 mm
04:17 PM 82.9°F28.3°C 64.2°F17.9°C 53% 13.5 mph S21.7 kmh S 21.5 mph34.6 kmh 29.46 in997.6 mb 0.00 in0.0 mm 0.00 in0.0 mm 0.16 in4.1 mm
04:16 PM 83.1°F28.4°C 64.4°F18.0°C 53% 12.4 mph SSE20.0 kmh SSE 21.5 mph34.6 kmh 29.46 in997.6 mb 0.00 in0.0 mm 0.00 in0.0 mm 0.16 in4.1 mm
04:15 PM 83.1°F28.4°C 65.0°F18.3°C 54% 9.7 mph SSE15.6 kmh SSE 18.4 mph29.6 kmh 29.46 in997.6 mb 0.00 in0.0 mm 0.00 in0.0 mm 0.16 in4.1 mm
04:14 PM 83.3°F28.5°C 64.6°F18.1°C 53% 11.0 mph S17.7 kmh S 18.4 mph29.6 kmh 29.45 in997.3 mb 0.00 in0.0 mm 0.00 in0.0 mm 0.16 in4.1 mm
04:13 PM 83.3°F28.5°C 64.6°F18.1°C 53% 11.3 mph SSE18.2 kmh SSE 18.4 mph29.6 kmh 29.46 in997.6 mb 0.00 in0.0 mm 0.00 in0.0 mm 0.16 in4.1 mm
04:12 PM 83.4°F28.6°C 65.2°F18.4°C 54% 8.8 mph SE14.2 kmh SE 18.4 mph29.6 kmh 29.46 in997.6 mb 0.00 in0.0 mm 0.00 in0.0 mm 0.16 in4.1 mm
04:11 PM 83.4°F28.6°C 65.2°F18.4°C 54% 10.7 mph S17.2 kmh S 18.4 mph29.6 kmh 29.46 in997.6 mb 0.00 in0.0 mm 0.00 in0.0 mm 0.16 in4.1 mm
04:10 PM 83.4°F28.6°C 65.2°F18.4°C 54% 11.4 mph S18.3 kmh S 18.4 mph29.6 kmh 29.46 in997.6 mb 0.00 in0.0 mm 0.00 in0.0 mm 0.16 in4.1 mm
04:09 PM 83.4°F28.6°C 65.8°F18.8°C 55% 8.3 mph S13.4 kmh S 18.4 mph29.6 kmh 29.45 in997.3 mb 0.00 in0.0 mm 0.00 in0.0 mm 0.16 in4.1 mm
04:08 PM 83.3°F28.5°C 65.7°F18.7°C 55% 6.5 mph SSE10.5 kmh SSE 18.4 mph29.6 kmh 29.45 in997.3 mb 0.00 in0.0 mm 0.00 in0.0 mm 0.16 in4.1 mm
04:07 PM 83.1°F28.4°C 65.5°F18.6°C 55% 7.0 mph SE11.3 kmh SE 17.1 mph27.5 kmh 29.45 in997.3 mb 0.00 in0.0 mm 0.00 in0.0 mm 0.16 in4.1 mm
04:06 PM 83.1°F28.4°C 65.5°F18.6°C 55% 7.5 mph SE12.1 kmh SE 18.4 mph29.6 kmh 29.46 in997.6 mb 0.00 in0.0 mm 0.00 in0.0 mm 0.16 in4.1 mm
04:05 PM 82.9°F28.3°C 65.3°F18.5°C 55% 7.1 mph SSE11.4 kmh SSE 18.4 mph29.6 kmh 29.46 in997.6 mb 0.00 in0.0 mm 0.00 in0.0 mm 0.16 in4.1 mm
04:04 PM 82.9°F28.3°C 65.3°F18.5°C 55% 7.6 mph SSE12.2 kmh SSE 18.4 mph29.6 kmh 29.46 in997.6 mb 0.00 in0.0 mm 0.00 in0.0 mm 0.16 in4.1 mm
04:03 PM 82.7°F28.2°C 65.1°F18.4°C 55% 8.2 mph S13.2 kmh S 18.4 mph29.6 kmh 29.46 in997.6 mb 0.00 in0.0 mm 0.00 in0.0 mm 0.16 in4.1 mm
04:02 PM 82.7°F28.2°C 65.1°F18.4°C 55% 9.5 mph S15.3 kmh S 18.4 mph29.6 kmh 29.46 in997.6 mb 0.00 in0.0 mm 0.00 in0.0 mm 0.16 in4.1 mm
04:01 PM 82.5°F28.1°C 64.4°F18.0°C 54% 9.1 mph SSE14.6 kmh SSE 18.4 mph29.6 kmh 29.46 in997.6 mb 0.00 in0.0 mm 0.00 in0.0 mm 0.16 in4.1 mm
04:00 PM 82.5°F28.1°C 65.0°F18.3°C 55% 8.6 mph SE13.8 kmh SE 18.4 mph29.6 kmh 29.46 in997.6 mb 0.00 in0.0 mm 0.00 in0.0 mm 0.16 in4.1 mm
03:59 PM 82.5°F28.1°C 64.4°F18.0°C 54% 10.9 mph SSE17.5 kmh SSE 18.4 mph29.6 kmh 29.46 in997.6 mb 0.00 in0.0 mm 0.00 in0.0 mm 0.16 in4.1 mm
03:58 PM 82.5°F28.1°C 63.9°F17.7°C 53% 12.4 mph SSE20.0 kmh SSE 18.4 mph29.6 kmh 29.46 in997.6 mb 0.00 in0.0 mm 0.00 in0.0 mm 0.16 in4.1 mm
03:57 PM 82.5°F28.1°C 64.4°F18.0°C 54% 11.5 mph SSE18.5 kmh SSE 18.4 mph29.6 kmh 29.46 in997.6 mb 0.00 in0.0 mm 0.00 in0.0 mm 0.16 in4.1 mm
03:56 PM 82.7°F28.2°C 64.0°F17.8°C 53% 9.2 mph S14.8 kmh S 16.8 mph27.0 kmh 29.46 in997.6 mb 0.00 in0.0 mm 0.00 in0.0 mm 0.16 in4.1 mm
03:55 PM 82.7°F28.2°C 64.6°F18.1°C 54% 9.4 mph S15.1 kmh S 16.8 mph27.0 kmh 29.46 in997.6 mb 0.00 in0.0 mm 0.00 in0.0 mm 0.16 in4.1 mm
03:54 PM 82.7°F28.2°C 64.6°F18.1°C 54% 9.4 mph SSE15.1 kmh SSE 16.8 mph27.0 kmh 29.46 in997.6 mb 0.00 in0.0 mm 0.00 in0.0 mm 0.16 in4.1 mm
03:53 PM 82.7°F28.2°C 65.1°F18.4°C 55% 9.1 mph SSE14.6 kmh SSE 16.8 mph27.0 kmh 29.46 in997.6 mb 0.00 in0.0 mm 0.00 in0.0 mm 0.16 in4.1 mm
03:52 PM 82.7°F28.2°C 64.6°F18.1°C 54% 10.8 mph S17.4 kmh S 16.8 mph27.0 kmh 29.46 in997.6 mb 0.00 in0.0 mm 0.00 in0.0 mm 0.16 in4.1 mm
03:51 PM 82.9°F28.3°C 64.8°F18.2°C 54% 10.5 mph S16.9 kmh S 16.8 mph27.0 kmh 29.46 in997.6 mb 0.00 in0.0 mm 0.00 in0.0 mm 0.16 in4.1 mm
03:50 PM 82.9°F28.3°C 64.8°F18.2°C 54% 9.6 mph SE15.4 kmh SE 16.8 mph27.0 kmh 29.46 in997.6 mb 0.00 in0.0 mm 0.00 in0.0 mm 0.16 in4.1 mm
03:49 PM 82.9°F28.3°C 65.3°F18.5°C 55% 10.8 mph SE17.4 kmh SE 16.8 mph27.0 kmh 29.46 in997.6 mb 0.00 in0.0 mm 0.00 in0.0 mm 0.16 in4.1 mm
03:48 PM 82.9°F28.3°C 64.8°F18.2°C 54% 11.1 mph S17.9 kmh S 19.9 mph32.0 kmh 29.46 in997.6 mb 0.00 in0.0 mm 0.00 in0.0 mm 0.16 in4.1 mm
03:47 PM 82.7°F28.2°C 65.1°F18.4°C 55% 9.8 mph S15.8 kmh S 19.9 mph32.0 kmh 29.46 in997.6 mb 0.00 in0.0 mm 0.00 in0.0 mm 0.16 in4.1 mm
03:46 PM 82.9°F28.3°C 65.8°F18.8°C 56% 8.4 mph S13.5 kmh S 19.9 mph32.0 kmh 29.46 in997.6 mb 0.00 in0.0 mm 0.00 in0.0 mm 0.16 in4.1 mm
03:45 PM 82.7°F28.2°C 65.1°F18.4°C 55% 8.5 mph SSE13.7 kmh SSE 19.9 mph32.0 kmh 29.46 in997.6 mb 0.00 in0.0 mm 0.00 in0.0 mm 0.16 in4.1 mm
03:44 PM 82.7°F28.2°C 65.7°F18.7°C 56% 10.1 mph SSE16.3 kmh SSE 19.9 mph32.0 kmh 29.46 in997.6 mb 0.00 in0.0 mm 0.00 in0.0 mm 0.16 in4.1 mm
03:43 PM 82.5°F28.1°C 65.5°F18.6°C 56% 9.4 mph S15.1 kmh S 19.9 mph32.0 kmh 29.46 in997.6 mb 0.00 in0.0 mm 0.00 in0.0 mm 0.16 in4.1 mm
03:42 PM 82.5°F28.1°C 65.5°F18.6°C 56% 7.2 mph S11.6 kmh S 19.9 mph32.0 kmh 29.46 in997.6 mb 0.00 in0.0 mm 0.00 in0.0 mm 0.16 in4.1 mm
03:41 PM 82.4°F28.0°C 65.9°F18.8°C 57% 6.4 mph S10.3 kmh S 19.9 mph32.0 kmh 29.46 in997.6 mb 0.00 in0.0 mm 0.00 in0.0 mm 0.16 in4.1 mm
03:40 PM 82.3°F27.9°C 65.2°F18.4°C 56% 10.3 mph SE16.6 kmh SE 19.9 mph32.0 kmh 29.46 in997.6 mb 0.00 in0.0 mm 0.00 in0.0 mm 0.16 in4.1 mm
03:39 PM 82.3°F27.9°C 65.2°F18.4°C 56% 11.7 mph SSE18.8 kmh SSE 19.9 mph32.0 kmh 29.46 in997.6 mb 0.00 in0.0 mm 0.00 in0.0 mm 0.16 in4.1 mm
03:38 PM 82.3°F27.9°C 65.2°F18.4°C 56% 11.1 mph SSE17.9 kmh SSE 19.9 mph32.0 kmh 29.46 in997.6 mb 0.00 in0.0 mm 0.00 in0.0 mm 0.16 in4.1 mm
03:37 PM 82.1°F27.8°C 65.0°F18.3°C 56% 11.7 mph SSE18.8 kmh SSE 19.9 mph32.0 kmh 29.46 in997.6 mb 0.00 in0.0 mm 0.00 in0.0 mm 0.16 in4.1 mm
03:36 PM 82.1°F27.8°C 65.0°F18.3°C 56% 11.4 mph SSE18.3 kmh SSE 19.9 mph32.0 kmh 29.46 in997.6 mb 0.00 in0.0 mm 0.00 in0.0 mm 0.16 in4.1 mm
03:35 PM 82.1°F27.8°C 65.0°F18.3°C 56% 11.5 mph S18.5 kmh S 19.9 mph32.0 kmh 29.46 in997.6 mb 0.00 in0.0 mm 0.00 in0.0 mm 0.16 in4.1 mm
03:34 PM 82.1°F27.8°C 65.0°F18.3°C 56% 12.4 mph S20.0 kmh S 19.9 mph32.0 kmh 29.46 in997.6 mb 0.00 in0.0 mm 0.00 in0.0 mm 0.16 in4.1 mm
03:33 PM 82.1°F27.8°C 64.0°F17.8°C 54% 12.5 mph S20.1 kmh S 19.9 mph32.0 kmh 29.46 in997.6 mb 0.00 in0.0 mm 0.00 in0.0 mm 0.16 in4.1 mm
03:32 PM 82.1°F27.8°C 64.0°F17.8°C 54% 12.5 mph S20.1 kmh S 19.9 mph32.0 kmh 29.46 in997.6 mb 0.00 in0.0 mm 0.00 in0.0 mm 0.16 in4.1 mm
03:31 PM 82.1°F27.8°C 64.0°F17.8°C 54% 12.4 mph S20.0 kmh S 19.9 mph32.0 kmh 29.46 in997.6 mb 0.00 in0.0 mm 0.00 in0.0 mm 0.16 in4.1 mm
03:30 PM 82.1°F27.8°C 64.0°F17.8°C 54% 12.5 mph S20.1 kmh S 19.9 mph32.0 kmh 29.46 in997.6 mb 0.00 in0.0 mm 0.00 in0.0 mm 0.16 in4.1 mm
03:29 PM 82.1°F27.8°C 64.0°F17.8°C 54% 11.3 mph S18.2 kmh S 19.9 mph32.0 kmh 29.47 in998.0 mb 0.00 in0.0 mm 0.00 in0.0 mm 0.16 in4.1 mm
03:28 PM 82.1°F27.8°C 64.5°F18.1°C 55% 9.9 mph SSE15.9 kmh SSE 19.9 mph32.0 kmh 29.46 in997.6 mb 0.00 in0.0 mm 0.00 in0.0 mm 0.16 in4.1 mm
03:27 PM 82.1°F27.8°C 65.0°F18.3°C 56% 10.5 mph SSE16.9 kmh SSE 19.9 mph32.0 kmh 29.46 in997.6 mb 0.00 in0.0 mm 0.00 in0.0 mm 0.16 in4.1 mm
03:26 PM 82.1°F27.8°C 65.5°F18.6°C 57% 9.7 mph S15.6 kmh S 19.9 mph32.0 kmh 29.46 in997.6 mb 0.00 in0.0 mm 0.00 in0.0 mm 0.16 in4.1 mm
03:25 PM 82.1°F27.8°C 66.1°F18.9°C 58% 7.9 mph S12.7 kmh S 20.3 mph32.7 kmh 29.47 in998.0 mb 0.00 in0.0 mm 0.00 in0.0 mm 0.16 in4.1 mm
03:24 PM 82.1°F27.8°C 65.0°F18.3°C 56% 9.4 mph SW15.1 kmh SW 20.3 mph32.7 kmh 29.46 in997.6 mb 0.00 in0.0 mm 0.00 in0.0 mm 0.16 in4.1 mm
03:23 PM 81.7°F27.6°C 65.7°F18.7°C 58% 8.5 mph SW13.7 kmh SW 20.3 mph32.7 kmh 29.46 in997.6 mb 0.00 in0.0 mm 0.00 in0.0 mm 0.16 in4.1 mm
03:22 PM 81.7°F27.6°C 65.7°F18.7°C 58% 8.3 mph SSE13.4 kmh SSE 20.3 mph32.7 kmh 29.47 in998.0 mb 0.00 in0.0 mm 0.00 in0.0 mm 0.16 in4.1 mm
03:21 PM 81.6°F27.6°C 65.6°F18.7°C 58% 10.4 mph SE16.7 kmh SE 20.3 mph32.7 kmh 29.47 in998.0 mb 0.00 in0.0 mm 0.00 in0.0 mm 0.16 in4.1 mm
03:20 PM 81.6°F27.6°C 65.1°F18.4°C 57% 10.8 mph SSE17.4 kmh SSE 20.3 mph32.7 kmh 29.47 in998.0 mb 0.00 in0.0 mm 0.00 in0.0 mm 0.16 in4.1 mm
03:19 PM 81.4°F27.4°C 64.9°F18.3°C 57% 11.2 mph SSE18.0 kmh SSE 20.3 mph32.7 kmh 29.47 in998.0 mb 0.00 in0.0 mm 0.00 in0.0 mm 0.16 in4.1 mm
03:18 PM 81.4°F27.4°C 65.4°F18.6°C 58% 11.2 mph SE18.0 kmh SE 20.3 mph32.7 kmh 29.47 in998.0 mb 0.00 in0.0 mm 0.00 in0.0 mm 0.16 in4.1 mm
03:17 PM 81.4°F27.4°C 64.9°F18.3°C 57% 11.5 mph SSE18.5 kmh SSE 20.3 mph32.7 kmh 29.47 in998.0 mb 0.00 in0.0 mm 0.00 in0.0 mm 0.16 in4.1 mm
03:16 PM 81.4°F27.4°C 64.9°F18.3°C 57% 10.8 mph SSE17.4 kmh SSE 20.3 mph32.7 kmh 29.47 in998.0 mb 0.00 in0.0 mm 0.00 in0.0 mm 0.16 in4.1 mm
03:15 PM 81.2°F27.3°C 65.2°F18.4°C 58% 8.8 mph ESE14.2 kmh ESE 17.1 mph27.5 kmh 29.46 in997.6 mb 0.00 in0.0 mm 0.00 in0.0 mm 0.16 in4.1 mm
03:14 PM 81.2°F27.3°C 65.7°F18.7°C 59% 9.6 mph ESE15.4 kmh ESE 17.1 mph27.5 kmh 29.47 in998.0 mb 0.00 in0.0 mm 0.00 in0.0 mm 0.16 in4.1 mm
03:13 PM 81.0°F27.2°C 65.6°F18.7°C 59% 8.9 mph SE14.3 kmh SE 19.6 mph31.5 kmh 29.47 in998.0 mb 0.00 in0.0 mm 0.00 in0.0 mm 0.16 in4.1 mm
03:12 PM 80.8°F27.1°C 64.9°F18.3°C 58% 7.8 mph SE12.6 kmh SE 19.6 mph31.5 kmh 29.47 in998.0 mb 0.00 in0.0 mm 0.00 in0.0 mm 0.16 in4.1 mm
03:11 PM 80.7°F27.1°C 64.8°F18.2°C 58% 8.8 mph SE14.2 kmh SE 19.6 mph31.5 kmh 29.47 in998.0 mb 0.00 in0.0 mm 0.00 in0.0 mm 0.16 in4.1 mm
03:10 PM 80.7°F27.1°C 65.3°F18.5°C 59% 7.8 mph SSE12.6 kmh SSE 19.6 mph31.5 kmh 29.46 in997.6 mb 0.00 in0.0 mm 0.00 in0.0 mm 0.16 in4.1 mm
03:09 PM 80.7°F27.1°C 64.8°F18.2°C 58% 8.4 mph S13.5 kmh S 19.6 mph31.5 kmh 29.47 in998.0 mb 0.00 in0.0 mm 0.00 in0.0 mm 0.16 in4.1 mm
03:08 PM 80.5°F26.9°C 64.6°F18.1°C 58% 10.0 mph SSE16.1 kmh SSE 19.6 mph31.5 kmh 29.47 in998.0 mb 0.00 in0.0 mm 0.00 in0.0 mm 0.16 in4.1 mm
03:07 PM 80.3°F26.8°C 64.4°F18.0°C 58% 9.5 mph SSE15.3 kmh SSE 19.6 mph31.5 kmh 29.47 in998.0 mb 0.00 in0.0 mm 0.00 in0.0 mm 0.16 in4.1 mm
03:06 PM 80.3°F26.8°C 64.4°F18.0°C 58% 8.9 mph S14.3 kmh S 19.6 mph31.5 kmh 29.47 in998.0 mb 0.00 in0.0 mm 0.00 in0.0 mm 0.16 in4.1 mm
03:05 PM 80.3°F26.8°C 64.9°F18.3°C 59% 9.9 mph SSE15.9 kmh SSE 19.6 mph31.5 kmh 29.47 in998.0 mb 0.00 in0.0 mm 0.00 in0.0 mm 0.16 in4.1 mm
03:04 PM 80.5°F26.9°C 64.6°F18.1°C 58% 11.8 mph S19.0 kmh S 19.6 mph31.5 kmh 29.47 in998.0 mb 0.00 in0.0 mm 0.00 in0.0 mm 0.16 in4.1 mm
03:03 PM 80.3°F26.8°C 64.4°F18.0°C 58% 11.7 mph S18.8 kmh S 19.6 mph31.5 kmh 29.47 in998.0 mb 0.00 in0.0 mm 0.00 in0.0 mm 0.16 in4.1 mm
03:02 PM 80.3°F26.8°C 64.9°F18.3°C 59% 9.9 mph SE15.9 kmh SE 18.4 mph29.6 kmh 29.47 in998.0 mb 0.00 in0.0 mm 0.00 in0.0 mm 0.16 in4.1 mm
03:01 PM 80.3°F26.8°C 64.9°F18.3°C 59% 10.1 mph SE16.3 kmh SE 18.4 mph29.6 kmh 29.47 in998.0 mb 0.00 in0.0 mm 0.00 in0.0 mm 0.16 in4.1 mm
03:00 PM 80.3°F26.8°C 64.4°F18.0°C 58% 11.2 mph SSE18.0 kmh SSE 18.4 mph29.6 kmh 29.47 in998.0 mb 0.00 in0.0 mm 0.00 in0.0 mm 0.16 in4.1 mm
02:59 PM 80.3°F26.8°C 63.9°F17.7°C 57% 10.9 mph S17.5 kmh S 18.4 mph29.6 kmh 29.47 in998.0 mb 0.00 in0.0 mm 0.00 in0.0 mm 0.16 in4.1 mm
02:58 PM 80.5°F26.9°C 64.1°F17.8°C 57% 10.5 mph SSE16.9 kmh SSE 18.4 mph29.6 kmh 29.47 in998.0 mb 0.00 in0.0 mm 0.00 in0.0 mm 0.16 in4.1 mm
02:57 PM 80.7°F27.1°C 64.3°F17.9°C 57% 9.1 mph SSE14.6 kmh SSE 17.7 mph28.5 kmh 29.47 in998.0 mb 0.00 in0.0 mm 0.00 in0.0 mm 0.16 in4.1 mm
02:56 PM 80.8°F27.1°C 64.4°F18.0°C 57% 8.3 mph SSE13.4 kmh SSE 17.7 mph28.5 kmh 29.47 in998.0 mb 0.00 in0.0 mm 0.00 in0.0 mm 0.16 in4.1 mm
02:55 PM 80.8°F27.1°C 64.4°F18.0°C 57% 9.9 mph SE15.9 kmh SE 17.7 mph28.5 kmh 29.47 in998.0 mb 0.00 in0.0 mm 0.00 in0.0 mm 0.16 in4.1 mm
02:54 PM 81.0°F27.2°C 65.1°F18.4°C 58% 10.1 mph SE16.3 kmh SE 19.3 mph31.1 kmh 29.47 in998.0 mb 0.00 in0.0 mm 0.00 in0.0 mm 0.16 in4.1 mm
02:53 PM 81.0°F27.2°C 65.1°F18.4°C 58% 9.1 mph SSE14.6 kmh SSE 19.3 mph31.1 kmh 29.47 in998.0 mb 0.00 in0.0 mm 0.00 in0.0 mm 0.16 in4.1 mm
02:52 PM 81.2°F27.3°C 65.2°F18.4°C 58% 8.6 mph S13.8 kmh S 19.3 mph31.1 kmh 29.47 in998.0 mb 0.00 in0.0 mm 0.00 in0.0 mm 0.16 in4.1 mm
02:51 PM 81.4°F27.4°C 65.4°F18.6°C 58% 8.9 mph SE14.3 kmh SE 19.3 mph31.1 kmh 29.47 in998.0 mb 0.00 in0.0 mm 0.00 in0.0 mm 0.16 in4.1 mm
02:50 PM 81.4°F27.4°C 65.9°F18.8°C 59% 9.6 mph SE15.4 kmh SE 19.3 mph31.1 kmh 29.47 in998.0 mb 0.00 in0.0 mm 0.00 in0.0 mm 0.16 in4.1 mm
02:49 PM 81.4°F27.4°C 65.9°F18.8°C 59% 10.4 mph SSE16.7 kmh SSE 19.3 mph31.1 kmh 29.47 in998.0 mb 0.00 in0.0 mm 0.00 in0.0 mm 0.16 in4.1 mm
02:48 PM 81.6°F27.6°C 65.6°F18.7°C 58% 9.8 mph SSE15.8 kmh SSE 19.3 mph31.1 kmh 29.47 in998.0 mb 0.00 in0.0 mm 0.00 in0.0 mm 0.16 in4.1 mm
02:47 PM 81.6°F27.6°C 66.1°F18.9°C 59% 9.7 mph SE15.6 kmh SE 19.3 mph31.1 kmh 29.47 in998.0 mb 0.00 in0.0 mm 0.00 in0.0 mm 0.16 in4.1 mm
02:46 PM 81.6°F27.6°C 66.1°F18.9°C 59% 12.7 mph SE20.4 kmh SE 19.3 mph31.1 kmh 29.47 in998.0 mb 0.00 in0.0 mm 0.00 in0.0 mm 0.16 in4.1 mm
02:45 PM 81.6°F27.6°C 66.1°F18.9°C 59% 11.3 mph SE18.2 kmh SE 19.3 mph31.1 kmh 29.47 in998.0 mb 0.00 in0.0 mm 0.00 in0.0 mm 0.16 in4.1 mm
02:44 PM 81.7°F27.6°C 66.2°F19.0°C 59% 9.0 mph SE14.5 kmh SE 18.4 mph29.6 kmh 29.47 in998.0 mb 0.00 in0.0 mm 0.00 in0.0 mm 0.16 in4.1 mm
02:43 PM 81.4°F27.4°C 66.4°F19.1°C 60% 9.1 mph SSE14.6 kmh SSE 18.4 mph29.6 kmh 29.47 in998.0 mb 0.00 in0.0 mm 0.00 in0.0 mm 0.16 in4.1 mm
02:42 PM 81.4°F27.4°C 66.4°F19.1°C 60% 8.7 mph S14.0 kmh S 18.4 mph29.6 kmh 29.47 in998.0 mb 0.00 in0.0 mm 0.00 in0.0 mm 0.16 in4.1 mm
02:41 PM 81.2°F27.3°C 66.2°F19.0°C 60% 7.6 mph S12.2 kmh S 18.4 mph29.6 kmh 29.47 in998.0 mb 0.00 in0.0 mm 0.00 in0.0 mm 0.16 in4.1 mm
02:40 PM 81.0°F27.2°C 66.0°F18.9°C 60% 6.8 mph S10.9 kmh S 18.4 mph29.6 kmh 29.47 in998.0 mb 0.00 in0.0 mm 0.00 in0.0 mm 0.16 in4.1 mm
02:39 PM 80.8°F27.1°C 65.4°F18.6°C 59% 8.8 mph S14.2 kmh S 18.4 mph29.6 kmh 29.47 in998.0 mb 0.00 in0.0 mm 0.00 in0.0 mm 0.16 in4.1 mm
02:38 PM 80.7°F27.1°C 64.8°F18.2°C 58% 11.4 mph SSE18.3 kmh SSE 18.4 mph29.6 kmh 29.47 in998.0 mb 0.00 in0.0 mm 0.00 in0.0 mm 0.16 in4.1 mm
02:37 PM 80.8°F27.1°C 64.9°F18.3°C 58% 9.6 mph S15.4 kmh S 18.4 mph29.6 kmh 29.47 in998.0 mb 0.00 in0.0 mm 0.00 in0.0 mm 0.16 in4.1 mm
02:36 PM 80.8°F27.1°C 64.9°F18.3°C 58% 8.9 mph S14.3 kmh S 17.1 mph27.5 kmh 29.47 in998.0 mb 0.00 in0.0 mm 0.00 in0.0 mm 0.16 in4.1 mm
02:35 PM 81.0°F27.2°C 65.6°F18.7°C 59% 11.6 mph S18.7 kmh S 17.1 mph27.5 kmh 29.47 in998.0 mb 0.00 in0.0 mm 0.00 in0.0 mm 0.16 in4.1 mm
02:34 PM 81.0°F27.2°C 65.1°F18.4°C 58% 10.5 mph S16.9 kmh S 17.1 mph27.5 kmh 29.48 in998.3 mb 0.00 in0.0 mm 0.00 in0.0 mm 0.16 in4.1 mm
02:33 PM 81.2°F27.3°C 65.7°F18.7°C 59% 8.4 mph S13.5 kmh S 14.9 mph24.0 kmh 29.47 in998.0 mb 0.00 in0.0 mm 0.00 in0.0 mm 0.16 in4.1 mm
02:32 PM 81.4°F27.4°C 65.9°F18.8°C 59% 9.8 mph S15.8 kmh S 19.3 mph31.1 kmh 29.48 in998.3 mb 0.00 in0.0 mm 0.00 in0.0 mm 0.16 in4.1 mm
02:31 PM 81.6°F27.6°C 66.1°F18.9°C 59% 11.1 mph S17.9 kmh S 19.3 mph31.1 kmh 29.47 in998.0 mb 0.00 in0.0 mm 0.00 in0.0 mm 0.16 in4.1 mm
02:30 PM 81.6°F27.6°C 65.6°F18.7°C 58% 9.5 mph S15.3 kmh S 19.3 mph31.1 kmh 29.47 in998.0 mb 0.00 in0.0 mm 0.00 in0.0 mm 0.16 in4.1 mm
02:29 PM 81.7°F27.6°C 66.2°F19.0°C 59% 7.5 mph SE12.1 kmh SE 19.3 mph31.1 kmh 29.48 in998.3 mb 0.00 in0.0 mm 0.00 in0.0 mm 0.16 in4.1 mm
02:28 PM 81.7°F27.6°C 66.2°F19.0°C 59% 8.3 mph SE13.4 kmh SE 19.3 mph31.1 kmh 29.48 in998.3 mb 0.00 in0.0 mm 0.00 in0.0 mm 0.16 in4.1 mm
02:27 PM 81.9°F27.7°C 66.4°F19.1°C 59% 7.7 mph SE12.4 kmh SE 19.3 mph31.1 kmh 29.48 in998.3 mb 0.00 in0.0 mm 0.00 in0.0 mm 0.16 in4.1 mm
02:26 PM 82.1°F27.8°C 66.6°F19.2°C 59% 7.3 mph S11.7 kmh S 19.3 mph31.1 kmh 29.48 in998.3 mb 0.00 in0.0 mm 0.00 in0.0 mm 0.16 in4.1 mm
02:25 PM 82.3°F27.9°C 66.2°F19.0°C 58% 8.4 mph S13.5 kmh S 19.3 mph31.1 kmh 29.48 in998.3 mb 0.00 in0.0 mm 0.00 in0.0 mm 0.16 in4.1 mm
02:24 PM 82.3°F27.9°C 66.2°F19.0°C 58% 10.1 mph S16.3 kmh S 19.3 mph31.1 kmh 29.48 in998.3 mb 0.00 in0.0 mm 0.00 in0.0 mm 0.16 in4.1 mm
02:23 PM 82.4°F28.0°C 66.4°F19.1°C 58% 11.2 mph SSE18.0 kmh SSE 19.3 mph31.1 kmh 29.48 in998.3 mb 0.00 in0.0 mm 0.00 in0.0 mm 0.16 in4.1 mm
02:22 PM 82.4°F28.0°C 66.9°F19.4°C 59% 10.1 mph SSE16.3 kmh SSE 19.3 mph31.1 kmh 29.48 in998.3 mb 0.00 in0.0 mm 0.00 in0.0 mm 0.16 in4.1 mm
02:21 PM 82.4°F28.0°C 67.4°F19.7°C 60% 8.8 mph SSE14.2 kmh SSE 13.7 mph22.0 kmh 29.48 in998.3 mb 0.00 in0.0 mm 0.00 in0.0 mm 0.16 in4.1 mm
02:20 PM 82.4°F28.0°C 66.9°F19.4°C 59% 6.5 mph SSE10.5 kmh SSE 14.5 mph23.3 kmh 29.48 in998.3 mb 0.00 in0.0 mm 0.00 in0.0 mm 0.16 in4.1 mm
02:19 PM 82.4°F28.0°C 66.9°F19.4°C 59% 6.9 mph SE11.1 kmh SE 14.5 mph23.3 kmh 29.48 in998.3 mb 0.00 in0.0 mm 0.00 in0.0 mm 0.16 in4.1 mm
02:18 PM 82.3°F27.9°C 66.7°F19.3°C 59% 7.7 mph SE12.4 kmh SE 14.5 mph23.3 kmh 29.48 in998.3 mb 0.00 in0.0 mm 0.00 in0.0 mm 0.16 in4.1 mm
02:17 PM 82.3°F27.9°C 66.7°F19.3°C 59% 7.5 mph SE12.1 kmh SE 14.5 mph23.3 kmh 29.48 in998.3 mb 0.00 in0.0 mm 0.00 in0.0 mm 0.16 in4.1 mm
02:16 PM 82.1°F27.8°C 66.1°F18.9°C 58% 8.4 mph SE13.5 kmh SE 14.5 mph23.3 kmh 29.48 in998.3 mb 0.00 in0.0 mm 0.00 in0.0 mm 0.16 in4.1 mm
02:15 PM 82.1°F27.8°C 66.1°F18.9°C 58% 8.7 mph S14.0 kmh S 14.5 mph23.3 kmh 29.48 in998.3 mb 0.00 in0.0 mm 0.00 in0.0 mm 0.16 in4.1 mm
02:14 PM 82.1°F27.8°C 66.6°F19.2°C 59% 9.3 mph S15.0 kmh S 14.5 mph23.3 kmh 29.48 in998.3 mb 0.00 in0.0 mm 0.00 in0.0 mm 0.16 in4.1 mm
02:13 PM 82.1°F27.8°C 66.6°F19.2°C 59% 9.2 mph S14.8 kmh S 14.5 mph23.3 kmh 29.48 in998.3 mb 0.00 in0.0 mm 0.00 in0.0 mm 0.16 in4.1 mm
02:12 PM 81.9°F27.7°C 66.4°F19.1°C 59% 9.3 mph S15.0 kmh S 14.5 mph23.3 kmh 29.48 in998.3 mb 0.00 in0.0 mm 0.00 in0.0 mm 0.16 in4.1 mm
02:11 PM 81.7°F27.6°C 66.7°F19.3°C 60% 9.2 mph SSE14.8 kmh SSE 18.7 mph30.1 kmh 29.48 in998.3 mb 0.00 in0.0 mm 0.00 in0.0 mm 0.16 in4.1 mm
02:10 PM 81.7°F27.6°C 67.2°F19.6°C 61% 9.0 mph SSE14.5 kmh SSE 18.7 mph30.1 kmh 29.48 in998.3 mb 0.00 in0.0 mm 0.00 in0.0 mm 0.16 in4.1 mm
02:09 PM 81.6°F27.6°C 67.1°F19.5°C 61% 8.9 mph S14.3 kmh S 18.7 mph30.1 kmh 29.48 in998.3 mb 0.00 in0.0 mm 0.00 in0.0 mm 0.16 in4.1 mm
02:08 PM 81.4°F27.4°C 66.9°F19.4°C 61% 7.5 mph SSE12.1 kmh SSE 18.7 mph30.1 kmh 29.48 in998.3 mb 0.00 in0.0 mm 0.00 in0.0 mm 0.16 in4.1 mm
02:07 PM 81.4°F27.4°C 66.9°F19.4°C 61% 6.0 mph SSE9.7 kmh SSE 18.7 mph30.1 kmh 29.48 in998.3 mb 0.00 in0.0 mm 0.00 in0.0 mm 0.16 in4.1 mm
02:06 PM 81.4°F27.4°C 67.4°F19.7°C 62% 5.1 mph SSE8.2 kmh SSE 18.7 mph30.1 kmh 29.48 in998.3 mb 0.00 in0.0 mm 0.00 in0.0 mm 0.16 in4.1 mm
02:05 PM 81.2°F27.3°C 66.7°F19.3°C 61% 6.5 mph SSE10.5 kmh SSE 18.7 mph30.1 kmh 29.49 in998.6 mb 0.00 in0.0 mm 0.00 in0.0 mm 0.16 in4.1 mm
02:04 PM 81.2°F27.3°C 67.2°F19.6°C 62% 7.6 mph SE12.2 kmh SE 18.7 mph30.1 kmh 29.49 in998.6 mb 0.00 in0.0 mm 0.00 in0.0 mm 0.16 in4.1 mm
02:03 PM 81.2°F27.3°C 66.7°F19.3°C 61% 10.4 mph SSE16.7 kmh SSE 18.7 mph30.1 kmh 29.48 in998.3 mb 0.00 in0.0 mm 0.00 in0.0 mm 0.16 in4.1 mm
02:02 PM 81.2°F27.3°C 66.7°F19.3°C 61% 11.0 mph SSE17.7 kmh SSE 18.7 mph30.1 kmh 29.49 in998.6 mb 0.00 in0.0 mm 0.00 in0.0 mm 0.16 in4.1 mm
02:01 PM 81.0°F27.2°C 67.0°F19.4°C 62% 9.3 mph SE15.0 kmh SE 18.7 mph30.1 kmh 29.49 in998.6 mb 0.00 in0.0 mm 0.00 in0.0 mm 0.16 in4.1 mm
02:00 PM 81.0°F27.2°C 67.0°F19.4°C 62% 8.0 mph S12.9 kmh S 18.7 mph30.1 kmh 29.49 in998.6 mb 0.00 in0.0 mm 0.00 in0.0 mm 0.16 in4.1 mm
01:59 PM 81.0°F27.2°C 66.5°F19.2°C 61% 7.8 mph S12.6 kmh S 18.7 mph30.1 kmh 29.49 in998.6 mb 0.00 in0.0 mm 0.00 in0.0 mm 0.16 in4.1 mm
01:58 PM 80.8°F27.1°C 66.3°F19.1°C 61% 8.7 mph S14.0 kmh S 18.7 mph30.1 kmh 29.49 in998.6 mb 0.00 in0.0 mm 0.00 in0.0 mm 0.16 in4.1 mm
01:57 PM 80.7°F27.1°C 66.7°F19.3°C 62% 8.9 mph SSW14.3 kmh SSW 18.7 mph30.1 kmh 29.49 in998.6 mb 0.00 in0.0 mm 0.00 in0.0 mm 0.16 in4.1 mm
01:56 PM 80.7°F27.1°C 66.7°F19.3°C 62% 7.9 mph S12.7 kmh S 18.7 mph30.1 kmh 29.49 in998.6 mb 0.00 in0.0 mm 0.00 in0.0 mm 0.16 in4.1 mm
01:55 PM 80.5°F26.9°C 66.5°F19.2°C 62% 8.1 mph SSE13.0 kmh SSE 18.7 mph30.1 kmh 29.49 in998.6 mb 0.00 in0.0 mm 0.00 in0.0 mm 0.16 in4.1 mm
01:54 PM 80.3°F26.8°C 65.4°F18.6°C 60% 8.9 mph SSE14.3 kmh SSE 18.7 mph30.1 kmh 29.49 in998.6 mb 0.00 in0.0 mm 0.00 in0.0 mm 0.16 in4.1 mm
01:53 PM 80.3°F26.8°C 65.4°F18.6°C 60% 9.5 mph SE15.3 kmh SE 18.7 mph30.1 kmh 29.49 in998.6 mb 0.00 in0.0 mm 0.00 in0.0 mm 0.16 in4.1 mm
01:52 PM 80.1°F26.7°C 66.2°F19.0°C 62% 10.0 mph SSE16.1 kmh SSE 18.7 mph30.1 kmh 29.49 in998.6 mb 0.00 in0.0 mm 0.00 in0.0 mm 0.16 in4.1 mm
01:51 PM 79.9°F26.6°C 65.5°F18.6°C 61% 8.2 mph S13.2 kmh S 18.7 mph30.1 kmh 29.49 in998.6 mb 0.00 in0.0 mm 0.00 in0.0 mm 0.16 in4.1 mm
01:50 PM 79.9°F26.6°C 66.0°F18.9°C 62% 8.2 mph SSE13.2 kmh SSE 18.7 mph30.1 kmh 29.49 in998.6 mb 0.00 in0.0 mm 0.00 in0.0 mm 0.16 in4.1 mm
01:49 PM 79.9°F26.6°C 65.5°F18.6°C 61% 10.8 mph SSE17.4 kmh SSE 18.7 mph30.1 kmh 29.49 in998.6 mb 0.00 in0.0 mm 0.00 in0.0 mm 0.16 in4.1 mm
01:48 PM 79.9°F26.6°C 65.5°F18.6°C 61% 12.9 mph SE20.8 kmh SE 18.7 mph30.1 kmh 29.49 in998.6 mb 0.00 in0.0 mm 0.00 in0.0 mm 0.16 in4.1 mm
01:47 PM 79.9°F26.6°C 65.5°F18.6°C 61% 11.6 mph SE18.7 kmh SE 18.7 mph30.1 kmh 29.49 in998.6 mb 0.00 in0.0 mm 0.00 in0.0 mm 0.16 in4.1 mm
01:46 PM 80.1°F26.7°C 65.7°F18.7°C 61% 9.8 mph S15.8 kmh S 20.3 mph32.7 kmh 29.49 in998.6 mb 0.00 in0.0 mm 0.00 in0.0 mm 0.16 in4.1 mm
01:45 PM 80.3°F26.8°C 65.9°F18.8°C 61% 10.4 mph SSE16.7 kmh SSE 20.3 mph32.7 kmh 29.49 in998.6 mb 0.00 in0.0 mm 0.00 in0.0 mm 0.16 in4.1 mm
01:44 PM 80.5°F26.9°C 66.1°F18.9°C 61% 9.2 mph SSE14.8 kmh SSE 20.3 mph32.7 kmh 29.49 in998.6 mb 0.00 in0.0 mm 0.00 in0.0 mm 0.16 in4.1 mm
01:43 PM 80.5°F26.9°C 66.1°F18.9°C 61% 6.6 mph SSE10.6 kmh SSE 20.3 mph32.7 kmh 29.49 in998.6 mb 0.00 in0.0 mm 0.00 in0.0 mm 0.16 in4.1 mm
01:42 PM 80.3°F26.8°C 65.9°F18.8°C 61% 6.3 mph S10.1 kmh S 20.3 mph32.7 kmh 29.49 in998.6 mb 0.00 in0.0 mm 0.00 in0.0 mm 0.16 in4.1 mm
01:41 PM 80.3°F26.8°C 65.9°F18.8°C 61% 6.7 mph SSE10.8 kmh SSE 20.3 mph32.7 kmh 29.49 in998.6 mb 0.00 in0.0 mm 0.00 in0.0 mm 0.16 in4.1 mm
01:40 PM 80.3°F26.8°C 65.9°F18.8°C 61% 7.3 mph SSE11.7 kmh SSE 20.3 mph32.7 kmh 29.49 in998.6 mb 0.00 in0.0 mm 0.00 in0.0 mm 0.16 in4.1 mm
01:39 PM 80.3°F26.8°C 65.9°F18.8°C 61% 9.1 mph SSE14.6 kmh SSE 20.3 mph32.7 kmh 29.49 in998.6 mb 0.00 in0.0 mm 0.00 in0.0 mm 0.16 in4.1 mm
01:38 PM 80.1°F26.7°C 65.7°F18.7°C 61% 10.3 mph SSE16.6 kmh SSE 20.3 mph32.7 kmh 29.49 in998.6 mb 0.00 in0.0 mm 0.00 in0.0 mm 0.16 in4.1 mm
01:37 PM 80.1°F26.7°C 65.7°F18.7°C 61% 12.9 mph S20.8 kmh S 20.3 mph32.7 kmh 29.49 in998.6 mb 0.00 in0.0 mm 0.00 in0.0 mm 0.16 in4.1 mm
01:36 PM 79.9°F26.6°C 66.0°F18.9°C 62% 12.1 mph S19.5 kmh S 20.3 mph32.7 kmh 29.49 in998.6 mb 0.00 in0.0 mm 0.00 in0.0 mm 0.16 in4.1 mm
01:35 PM 79.9°F26.6°C 66.0°F18.9°C 62% 9.5 mph SE15.3 kmh SE 15.6 mph25.1 kmh 29.49 in998.6 mb 0.00 in0.0 mm 0.00 in0.0 mm 0.16 in4.1 mm
01:34 PM 79.8°F26.6°C 65.9°F18.8°C 62% 7.9 mph SE12.7 kmh SE 13.3 mph21.4 kmh 29.49 in998.6 mb 0.00 in0.0 mm 0.00 in0.0 mm 0.16 in4.1 mm
01:33 PM 79.8°F26.6°C 65.9°F18.8°C 62% 5.3 mph S8.5 kmh S 13.3 mph21.4 kmh 29.50 in999.0 mb 0.00 in0.0 mm 0.00 in0.0 mm 0.16 in4.1 mm
01:32 PM 79.6°F26.4°C 65.7°F18.7°C 62% 6.1 mph S9.8 kmh S 13.3 mph21.4 kmh 29.49 in998.6 mb 0.00 in0.0 mm 0.00 in0.0 mm 0.16 in4.1 mm
01:31 PM 79.6°F26.4°C 65.7°F18.7°C 62% 8.2 mph S13.2 kmh S 15.6 mph25.1 kmh 29.50 in999.0 mb 0.00 in0.0 mm 0.00 in0.0 mm 0.16 in4.1 mm
01:30 PM 79.6°F26.4°C 65.7°F18.7°C 62% 7.1 mph SSW11.4 kmh SSW 15.6 mph25.1 kmh 29.50 in999.0 mb 0.00 in0.0 mm 0.00 in0.0 mm 0.16 in4.1 mm
01:29 PM 79.6°F26.4°C 65.7°F18.7°C 62% 6.1 mph S9.8 kmh S 15.6 mph25.1 kmh 29.50 in999.0 mb 0.00 in0.0 mm 0.00 in0.0 mm 0.16 in4.1 mm
01:28 PM 79.6°F26.4°C 65.7°F18.7°C 62% 6.8 mph S10.9 kmh S 15.6 mph25.1 kmh 29.50 in999.0 mb 0.00 in0.0 mm 0.00 in0.0 mm 0.16 in4.1 mm
01:27 PM 79.6°F26.4°C 65.7°F18.7°C 62% 7.4 mph S11.9 kmh S 16.1 mph25.9 kmh 29.50 in999.0 mb 0.00 in0.0 mm 0.00 in0.0 mm 0.16 in4.1 mm
01:26 PM 79.6°F26.4°C 65.2°F18.4°C 61% 8.1 mph SSE13.0 kmh SSE 16.1 mph25.9 kmh 29.50 in999.0 mb 0.00 in0.0 mm 0.00 in0.0 mm 0.16 in4.1 mm
01:25 PM 79.6°F26.4°C 65.7°F18.7°C 62% 7.9 mph SSE12.7 kmh SSE 16.1 mph25.9 kmh 29.50 in999.0 mb 0.00 in0.0 mm 0.00 in0.0 mm 0.16 in4.1 mm
01:24 PM 79.6°F26.4°C 65.7°F18.7°C 62% 7.6 mph SSE12.2 kmh SSE 16.1 mph25.9 kmh 29.50 in999.0 mb 0.00 in0.0 mm 0.00 in0.0 mm 0.16 in4.1 mm
01:23 PM 79.6°F26.4°C 65.2°F18.4°C 61% 8.7 mph S14.0 kmh S 16.1 mph25.9 kmh 29.50 in999.0 mb 0.00 in0.0 mm 0.00 in0.0 mm 0.16 in4.1 mm
01:22 PM 79.6°F26.4°C 65.7°F18.7°C 62% 10.0 mph SSE16.1 kmh SSE 16.1 mph25.9 kmh 29.50 in999.0 mb 0.00 in0.0 mm 0.00 in0.0 mm 0.16 in4.1 mm
01:21 PM 79.6°F26.4°C 65.7°F18.7°C 62% 9.4 mph S15.1 kmh S 16.1 mph25.9 kmh 29.50 in999.0 mb 0.00 in0.0 mm 0.00 in0.0 mm 0.16 in4.1 mm
01:20 PM 79.6°F26.4°C 65.7°F18.7°C 62% 8.9 mph S14.3 kmh S 16.1 mph25.9 kmh 29.50 in999.0 mb 0.00 in0.0 mm 0.00 in0.0 mm 0.16 in4.1 mm
01:19 PM 79.6°F26.4°C 65.7°F18.7°C 62% 10.2 mph SSE16.4 kmh SSE 16.1 mph25.9 kmh 29.50 in999.0 mb 0.00 in0.0 mm 0.00 in0.0 mm 0.16 in4.1 mm
01:18 PM 79.6°F26.4°C 65.7°F18.7°C 62% 8.6 mph SE13.8 kmh SE 16.1 mph25.9 kmh 29.50 in999.0 mb 0.00 in0.0 mm 0.00 in0.0 mm 0.16 in4.1 mm
01:17 PM 79.6°F26.4°C 65.7°F18.7°C 62% 7.0 mph SE11.3 kmh SE 16.1 mph25.9 kmh 29.50 in999.0 mb 0.00 in0.0 mm 0.00 in0.0 mm 0.16 in4.1 mm
01:16 PM 79.6°F26.4°C 65.7°F18.7°C 62% 4.7 mph SSE7.6 kmh SSE 12.1 mph19.5 kmh 29.50 in999.0 mb 0.00 in0.0 mm 0.00 in0.0 mm 0.16 in4.1 mm
01:15 PM 79.6°F26.4°C 65.7°F18.7°C 62% 4.8 mph S7.7 kmh S 12.1 mph19.5 kmh 29.50 in999.0 mb 0.00 in0.0 mm 0.00 in0.0 mm 0.16 in4.1 mm
01:14 PM 79.6°F26.4°C 65.7°F18.7°C 62% 7.1 mph S11.4 kmh S 17.1 mph27.5 kmh 29.50 in999.0 mb 0.00 in0.0 mm 0.00 in0.0 mm 0.16 in4.1 mm
01:13 PM 79.4°F26.3°C 65.1°F18.4°C 61% 7.3 mph S11.7 kmh S 17.1 mph27.5 kmh 29.50 in999.0 mb 0.00 in0.0 mm 0.00 in0.0 mm 0.16 in4.1 mm
01:12 PM 79.6°F26.4°C 65.7°F18.7°C 62% 7.2 mph S11.6 kmh S 19.9 mph32.0 kmh 29.50 in999.0 mb 0.00 in0.0 mm 0.00 in0.0 mm 0.16 in4.1 mm
01:11 PM 79.4°F26.3°C 65.5°F18.6°C 62% 5.6 mph S9.0 kmh S 19.9 mph32.0 kmh 29.50 in999.0 mb 0.00 in0.0 mm 0.00 in0.0 mm 0.16 in4.1 mm
01:10 PM 79.2°F26.2°C 65.8°F18.8°C 63% 4.3 mph S6.9 kmh S 19.9 mph32.0 kmh 29.50 in999.0 mb 0.00 in0.0 mm 0.00 in0.0 mm 0.16 in4.1 mm
01:09 PM 79.2°F26.2°C 65.8°F18.8°C 63% 4.2 mph S6.8 kmh S 19.9 mph32.0 kmh 29.50 in999.0 mb 0.00 in0.0 mm 0.00 in0.0 mm 0.16 in4.1 mm
01:08 PM 79.0°F26.1°C 65.5°F18.6°C 63% 5.0 mph S8.0 kmh S 19.9 mph32.0 kmh 29.50 in999.0 mb 0.00 in0.0 mm 0.00 in0.0 mm 0.16 in4.1 mm
01:07 PM 78.8°F26.0°C 65.3°F18.5°C 63% 6.1 mph S9.8 kmh S 19.9 mph32.0 kmh 29.50 in999.0 mb 0.00 in0.0 mm 0.00 in0.0 mm 0.16 in4.1 mm
01:06 PM 78.6°F25.9°C 65.2°F18.4°C 63% 8.0 mph SSE12.9 kmh SSE 19.9 mph32.0 kmh 29.50 in999.0 mb 0.00 in0.0 mm 0.00 in0.0 mm 0.16 in4.1 mm
01:05 PM 78.6°F25.9°C 65.2°F18.4°C 63% 10.6 mph SE17.1 kmh SE 19.9 mph32.0 kmh 29.50 in999.0 mb 0.00 in0.0 mm 0.00 in0.0 mm 0.16 in4.1 mm
01:04 PM 78.4°F25.8°C 65.0°F18.3°C 63% 10.8 mph SE17.4 kmh SE 19.9 mph32.0 kmh 29.50 in999.0 mb 0.00 in0.0 mm 0.00 in0.0 mm 0.16 in4.1 mm
01:03 PM 78.4°F25.8°C 65.0°F18.3°C 63% 10.8 mph SE17.4 kmh SE 19.9 mph32.0 kmh 29.50 in999.0 mb 0.00 in0.0 mm 0.00 in0.0 mm 0.16 in4.1 mm
01:02 PM 78.2°F25.7°C 64.8°F18.2°C 63% 9.4 mph SSE15.1 kmh SSE 19.9 mph32.0 kmh 29.50 in999.0 mb 0.00 in0.0 mm 0.00 in0.0 mm 0.16 in4.1 mm
01:01 PM 78.2°F25.7°C 64.8°F18.2°C 63% 8.9 mph SSE14.3 kmh SSE 14.9 mph24.0 kmh 29.50 in999.0 mb 0.00 in0.0 mm 0.00 in0.0 mm 0.16 in4.1 mm
01:00 PM 78.2°F25.7°C 64.8°F18.2°C 63% 9.7 mph SSE15.6 kmh SSE 16.4 mph26.4 kmh 29.50 in999.0 mb 0.00 in0.0 mm 0.00 in0.0 mm 0.16 in4.1 mm
12:59 PM 78.2°F25.7°C 64.3°F17.9°C 62% 9.0 mph SSE14.5 kmh SSE 16.8 mph27.0 kmh 29.50 in999.0 mb 0.00 in0.0 mm 0.00 in0.0 mm 0.16 in4.1 mm
12:58 PM 78.2°F25.7°C 64.8°F18.2°C 63% 7.9 mph S12.7 kmh S 16.8 mph27.0 kmh 29.50 in999.0 mb 0.00 in0.0 mm 0.00 in0.0 mm 0.16 in4.1 mm
12:57 PM 78.2°F25.7°C 64.8°F18.2°C 63% 8.0 mph S12.9 kmh S 16.8 mph27.0 kmh 29.50 in999.0 mb 0.00 in0.0 mm 0.00 in0.0 mm 0.16 in4.1 mm
12:56 PM 78.2°F25.7°C 64.8°F18.2°C 63% 9.2 mph SE14.8 kmh SE 16.8 mph27.0 kmh 29.50 in999.0 mb 0.00 in0.0 mm 0.00 in0.0 mm 0.16 in4.1 mm
12:55 PM 78.4°F25.8°C 65.0°F18.3°C 63% 9.3 mph SE15.0 kmh SE 16.8 mph27.0 kmh 29.50 in999.0 mb 0.00 in0.0 mm 0.00 in0.0 mm 0.16 in4.1 mm
12:54 PM 78.4°F25.8°C 64.5°F18.1°C 62% 7.9 mph SSE12.7 kmh SSE 16.8 mph27.0 kmh 29.50 in999.0 mb 0.00 in0.0 mm 0.00 in0.0 mm 0.16 in4.1 mm
12:53 PM 78.6°F25.9°C 65.2°F18.4°C 63% 7.7 mph SSW12.4 kmh SSW 16.8 mph27.0 kmh 29.50 in999.0 mb 0.00 in0.0 mm 0.00 in0.0 mm 0.16 in4.1 mm
12:52 PM 78.6°F25.9°C 64.7°F18.2°C 62% 10.0 mph S16.1 kmh S 16.8 mph27.0 kmh 29.50 in999.0 mb 0.00 in0.0 mm 0.00 in0.0 mm 0.16 in4.1 mm
12:51 PM 78.6°F25.9°C 64.7°F18.2°C 62% 11.1 mph SSE17.9 kmh SSE 16.8 mph27.0 kmh 29.50 in999.0 mb 0.00 in0.0 mm 0.00 in0.0 mm 0.16 in4.1 mm
12:50 PM 78.8°F26.0°C 65.3°F18.5°C 63% 8.2 mph SSE13.2 kmh SSE 16.8 mph27.0 kmh 29.50 in999.0 mb 0.00 in0.0 mm 0.00 in0.0 mm 0.16 in4.1 mm
12:49 PM 78.6°F25.9°C 65.2°F18.4°C 63% 7.5 mph SW12.1 kmh SW 15.2 mph24.5 kmh 29.50 in999.0 mb 0.00 in0.0 mm 0.00 in0.0 mm 0.16 in4.1 mm
12:48 PM 78.6°F25.9°C 65.2°F18.4°C 63% 7.9 mph SW12.7 kmh SW 15.2 mph24.5 kmh 29.50 in999.0 mb 0.00 in0.0 mm 0.00 in0.0 mm 0.16 in4.1 mm
12:47 PM 78.4°F25.8°C 65.0°F18.3°C 63% 8.1 mph S13.0 kmh S 14.5 mph23.3 kmh 29.50 in999.0 mb 0.00 in0.0 mm 0.00 in0.0 mm 0.16 in4.1 mm
12:46 PM 78.4°F25.8°C 65.0°F18.3°C 63% 9.1 mph S14.6 kmh S 14.5 mph23.3 kmh 29.50 in999.0 mb 0.00 in0.0 mm 0.00 in0.0 mm 0.16 in4.1 mm
12:45 PM 78.2°F25.7°C 64.8°F18.2°C 63% 8.0 mph SSE12.9 kmh SSE 14.9 mph24.0 kmh 29.50 in999.0 mb 0.00 in0.0 mm 0.00 in0.0 mm 0.16 in4.1 mm
12:44 PM 78.2°F25.7°C 64.8°F18.2°C 63% 6.5 mph S10.5 kmh S 18.4 mph29.6 kmh 29.50 in999.0 mb 0.00 in0.0 mm 0.00 in0.0 mm 0.16 in4.1 mm
12:43 PM 78.2°F25.7°C 64.8°F18.2°C 63% 6.2 mph S10.0 kmh S 18.4 mph29.6 kmh 29.50 in999.0 mb 0.00 in0.0 mm 0.00 in0.0 mm 0.16 in4.1 mm
12:42 PM 78.1°F25.6°C 64.7°F18.2°C 63% 7.4 mph S11.9 kmh S 18.4 mph29.6 kmh 29.50 in999.0 mb 0.00 in0.0 mm 0.00 in0.0 mm 0.16 in4.1 mm
12:41 PM 77.9°F25.5°C 64.5°F18.1°C 63% 6.7 mph S10.8 kmh S 18.4 mph29.6 kmh 29.50 in999.0 mb 0.00 in0.0 mm 0.00 in0.0 mm 0.16 in4.1 mm
12:40 PM 77.7°F25.4°C 64.3°F17.9°C 63% 4.8 mph SSW7.7 kmh SSW 18.4 mph29.6 kmh 29.50 in999.0 mb 0.00 in0.0 mm 0.00 in0.0 mm 0.16 in4.1 mm
12:39 PM 77.7°F25.4°C 64.3°F17.9°C 63% 5.3 mph S8.5 kmh S 18.4 mph29.6 kmh 29.50 in999.0 mb 0.00 in0.0 mm 0.00 in0.0 mm 0.16 in4.1 mm
12:38 PM 77.5°F25.3°C 64.1°F17.8°C 63% 5.8 mph S9.3 kmh S 18.4 mph29.6 kmh 29.50 in999.0 mb 0.00 in0.0 mm 0.00 in0.0 mm 0.16 in4.1 mm
12:37 PM 77.7°F25.4°C 64.3°F17.9°C 63% 7.9 mph SSE12.7 kmh SSE 18.4 mph29.6 kmh 29.50 in999.0 mb 0.00 in0.0 mm 0.00 in0.0 mm 0.16 in4.1 mm
12:36 PM 77.5°F25.3°C 64.1°F17.8°C 63% 10.7 mph SSE17.2 kmh SSE 18.4 mph29.6 kmh 29.50 in999.0 mb 0.00 in0.0 mm 0.00 in0.0 mm 0.16 in4.1 mm
12:35 PM 77.7°F25.4°C 64.3°F17.9°C 63% 10.6 mph SSE17.1 kmh SSE 18.4 mph29.6 kmh 29.50 in999.0 mb 0.00 in0.0 mm 0.00 in0.0 mm 0.16 in4.1 mm
12:34 PM 77.7°F25.4°C 64.8°F18.2°C 64% 9.3 mph S15.0 kmh S 18.0 mph29.0 kmh 29.50 in999.0 mb 0.00 in0.0 mm 0.00 in0.0 mm 0.16 in4.1 mm
12:33 PM 77.5°F25.3°C 64.1°F17.8°C 63% 8.8 mph SSE14.2 kmh SSE 18.0 mph29.0 kmh 29.50 in999.0 mb 0.00 in0.0 mm 0.00 in0.0 mm 0.16 in4.1 mm
12:32 PM 77.5°F25.3°C 64.1°F17.8°C 63% 10.1 mph SSE16.3 kmh SSE 18.0 mph29.0 kmh 29.50 in999.0 mb 0.00 in0.0 mm 0.00 in0.0 mm 0.16 in4.1 mm
12:31 PM 77.5°F25.3°C 63.7°F17.6°C 62% 9.4 mph S15.1 kmh S 18.0 mph29.0 kmh 29.50 in999.0 mb 0.00 in0.0 mm 0.00 in0.0 mm 0.16 in4.1 mm
12:30 PM 77.3°F25.2°C 64.0°F17.8°C 63% 7.0 mph S11.3 kmh S 18.0 mph29.0 kmh 29.50 in999.0 mb 0.00 in0.0 mm 0.00 in0.0 mm 0.16 in4.1 mm
12:29 PM 77.2°F25.1°C 63.9°F17.7°C 63% 8.6 mph SSE13.8 kmh SSE 18.0 mph29.0 kmh 29.51 in999.3 mb 0.00 in0.0 mm 0.00 in0.0 mm 0.16 in4.1 mm
12:28 PM 77.2°F25.1°C 62.5°F16.9°C 60% 7.4 mph SSE11.9 kmh SSE 18.0 mph29.0 kmh 29.51 in999.3 mb 0.00 in0.0 mm 0.00 in0.0 mm 0.16 in4.1 mm
12:27 PM 77.2°F25.1°C 63.9°F17.7°C 63% 5.9 mph SSE9.5 kmh SSE 18.0 mph29.0 kmh 29.50 in999.0 mb 0.00 in0.0 mm 0.00 in0.0 mm 0.16 in4.1 mm
12:26 PM 77.0°F25.0°C 63.2°F17.3°C 62% 9.3 mph S15.0 kmh S 18.0 mph29.0 kmh 29.51 in999.3 mb 0.00 in0.0 mm 0.00 in0.0 mm 0.16 in4.1 mm
12:25 PM 77.0°F25.0°C 63.2°F17.3°C 62% 8.7 mph S14.0 kmh S 18.0 mph29.0 kmh 29.51 in999.3 mb 0.00 in0.0 mm 0.00 in0.0 mm 0.16 in4.1 mm
12:24 PM 77.0°F25.0°C 63.2°F17.3°C 62% 8.0 mph S12.9 kmh S 18.0 mph29.0 kmh 29.51 in999.3 mb 0.00 in0.0 mm 0.00 in0.0 mm 0.16 in4.1 mm
12:23 PM 77.0°F25.0°C 63.7°F17.6°C 63% 9.0 mph S14.5 kmh S 18.0 mph29.0 kmh 29.50 in999.0 mb 0.00 in0.0 mm 0.00 in0.0 mm 0.16 in4.1 mm
12:22 PM 76.8°F24.9°C 63.0°F17.2°C 62% 9.2 mph SSE14.8 kmh SSE 20.8 mph33.5 kmh 29.51 in999.3 mb 0.00 in0.0 mm 0.00 in0.0 mm 0.16 in4.1 mm
12:21 PM 76.8°F24.9°C 63.0°F17.2°C 62% 9.0 mph SSE14.5 kmh SSE 20.8 mph33.5 kmh 29.51 in999.3 mb 0.00 in0.0 mm 0.00 in0.0 mm 0.16 in4.1 mm
12:20 PM 76.8°F24.9°C 63.0°F17.2°C 62% 8.7 mph S14.0 kmh S 20.8 mph33.5 kmh 29.51 in999.3 mb 0.00 in0.0 mm 0.00 in0.0 mm 0.16 in4.1 mm
12:19 PM 76.4°F24.7°C 62.7°F17.1°C 62% 10.9 mph S17.5 kmh S 20.8 mph33.5 kmh 29.51 in999.3 mb 0.00 in0.0 mm 0.00 in0.0 mm 0.16 in4.1 mm
12:18 PM 76.4°F24.7°C 62.7°F17.1°C 62% 11.6 mph SSE18.7 kmh SSE 20.8 mph33.5 kmh 29.51 in999.3 mb 0.00 in0.0 mm 0.00 in0.0 mm 0.16 in4.1 mm
12:17 PM 76.4°F24.7°C 62.7°F17.1°C 62% 9.6 mph S15.4 kmh S 20.8 mph33.5 kmh 29.51 in999.3 mb 0.00 in0.0 mm 0.00 in0.0 mm 0.16 in4.1 mm
12:16 PM 76.3°F24.6°C 63.5°F17.5°C 64% 6.9 mph S11.1 kmh S 20.8 mph33.5 kmh 29.51 in999.3 mb 0.00 in0.0 mm 0.00 in0.0 mm 0.16 in4.1 mm
12:15 PM 76.1°F24.5°C 62.4°F16.9°C 62% 5.9 mph S9.5 kmh S 20.8 mph33.5 kmh 29.51 in999.3 mb 0.00 in0.0 mm 0.00 in0.0 mm 0.16 in4.1 mm
12:14 PM 76.0°F24.4°C 62.2°F16.8°C 62% 7.5 mph S12.1 kmh S 20.8 mph33.5 kmh 29.51 in999.3 mb 0.00 in0.0 mm 0.00 in0.0 mm 0.16 in4.1 mm
12:13 PM 76.0°F24.4°C 62.7°F17.1°C 63% 12.2 mph SE19.6 kmh SE 20.8 mph33.5 kmh 29.51 in999.3 mb 0.00 in0.0 mm 0.00 in0.0 mm 0.16 in4.1 mm
12:12 PM 76.0°F24.4°C 62.7°F17.1°C 63% 13.4 mph SE21.6 kmh SE 20.8 mph33.5 kmh 29.51 in999.3 mb 0.00 in0.0 mm 0.00 in0.0 mm 0.16 in4.1 mm
12:11 PM 76.0°F24.4°C 62.7°F17.1°C 63% 11.5 mph SSE18.5 kmh SSE 18.7 mph30.1 kmh 29.51 in999.3 mb 0.00 in0.0 mm 0.00 in0.0 mm 0.16 in4.1 mm
12:10 PM 76.1°F24.5°C 62.9°F17.2°C 63% 11.8 mph S19.0 kmh S 18.7 mph30.1 kmh 29.51 in999.3 mb 0.00 in0.0 mm 0.00 in0.0 mm 0.16 in4.1 mm
12:09 PM 76.1°F24.5°C 62.9°F17.2°C 63% 11.6 mph S18.7 kmh S 18.7 mph30.1 kmh 29.51 in999.3 mb 0.00 in0.0 mm 0.00 in0.0 mm 0.16 in4.1 mm
12:08 PM 76.1°F24.5°C 62.9°F17.2°C 63% 11.6 mph SSE18.7 kmh SSE 18.0 mph29.0 kmh 29.51 in999.3 mb 0.00 in0.0 mm 0.00 in0.0 mm 0.16 in4.1 mm
12:07 PM 76.1°F24.5°C 62.4°F16.9°C 62% 13.0 mph SSE20.9 kmh SSE 18.0 mph29.0 kmh 29.51 in999.3 mb 0.00 in0.0 mm 0.00 in0.0 mm 0.16 in4.1 mm
12:06 PM 76.0°F24.4°C 61.7°F16.5°C 61% 11.6 mph SSE18.7 kmh SSE 18.0 mph29.0 kmh 29.51 in999.3 mb 0.00 in0.0 mm 0.00 in0.0 mm 0.16 in4.1 mm
12:05 PM 76.0°F24.4°C 61.3°F16.3°C 60% 10.2 mph SSE16.4 kmh SSE 18.0 mph29.0 kmh 29.51 in999.3 mb 0.00 in0.0 mm 0.00 in0.0 mm 0.16 in4.1 mm
12:04 PM 75.8°F24.3°C 61.1°F16.2°C 60% 9.1 mph SSE14.6 kmh SSE 19.9 mph32.0 kmh 29.51 in999.3 mb 0.00 in0.0 mm 0.00 in0.0 mm 0.16 in4.1 mm
12:03 PM 75.6°F24.2°C 61.4°F16.3°C 61% 9.1 mph S14.6 kmh S 19.9 mph32.0 kmh 29.51 in999.3 mb 0.00 in0.0 mm 0.00 in0.0 mm 0.16 in4.1 mm
12:02 PM 75.3°F24.1°C 61.1°F16.2°C 61% 10.1 mph S16.3 kmh S 19.9 mph32.0 kmh 29.51 in999.3 mb 0.00 in0.0 mm 0.00 in0.0 mm 0.16 in4.1 mm
12:01 PM 75.3°F24.1°C 60.6°F15.9°C 60% 7.0 mph S11.3 kmh S 19.9 mph32.0 kmh 29.51 in999.3 mb 0.00 in0.0 mm 0.00 in0.0 mm 0.16 in4.1 mm
12:00 PM 75.1°F23.9°C 60.5°F15.8°C 60% 8.9 mph SSE14.3 kmh SSE 19.9 mph32.0 kmh 29.51 in999.3 mb 0.00 in0.0 mm 0.00 in0.0 mm 0.16 in4.1 mm
11:59 AM 74.7°F23.7°C 60.1°F15.6°C 60% 10.3 mph SSE16.6 kmh SSE 19.9 mph32.0 kmh 29.51 in999.3 mb 0.00 in0.0 mm 0.00 in0.0 mm 0.16 in4.1 mm
11:58 AM 74.7°F23.7°C 60.1°F15.6°C 60% 8.9 mph S14.3 kmh S 19.9 mph32.0 kmh 29.51 in999.3 mb 0.00 in0.0 mm 0.00 in0.0 mm 0.16 in4.1 mm
11:57 AM 74.7°F23.7°C 60.6°F15.9°C 61% 9.4 mph S15.1 kmh S 19.9 mph32.0 kmh 29.51 in999.3 mb 0.00 in0.0 mm 0.00 in0.0 mm 0.16 in4.1 mm
11:56 AM 74.6°F23.7°C 60.5°F15.8°C 61% 10.4 mph SSE16.7 kmh SSE 19.9 mph32.0 kmh 29.50 in999.0 mb 0.00 in0.0 mm 0.00 in0.0 mm 0.16 in4.1 mm
11:55 AM 74.6°F23.7°C 60.0°F15.6°C 60% 10.7 mph SSE17.2 kmh SSE 19.9 mph32.0 kmh 29.51 in999.3 mb 0.00 in0.0 mm 0.00 in0.0 mm 0.16 in4.1 mm
11:54 AM 74.6°F23.7°C 60.9°F16.1°C 62% 12.1 mph SE19.5 kmh SE 19.3 mph31.1 kmh 29.51 in999.3 mb 0.00 in0.0 mm 0.00 in0.0 mm 0.16 in4.1 mm
11:53 AM 74.7°F23.7°C 60.6°F15.9°C 61% 11.1 mph SSE17.9 kmh SSE 19.3 mph31.1 kmh 29.51 in999.3 mb 0.00 in0.0 mm 0.00 in0.0 mm 0.16 in4.1 mm
11:52 AM 74.7°F23.7°C 60.1°F15.6°C 60% 8.3 mph SSE13.4 kmh SSE 21.2 mph34.1 kmh 29.51 in999.3 mb 0.00 in0.0 mm 0.00 in0.0 mm 0.16 in4.1 mm
11:51 AM 74.7°F23.7°C 60.6°F15.9°C 61% 8.7 mph S14.0 kmh S 21.2 mph34.1 kmh 29.51 in999.3 mb 0.00 in0.0 mm 0.00 in0.0 mm 0.16 in4.1 mm
11:50 AM 74.7°F23.7°C 60.6°F15.9°C 61% 10.8 mph S17.4 kmh S 23.4 mph37.7 kmh 29.51 in999.3 mb 0.00 in0.0 mm 0.00 in0.0 mm 0.16 in4.1 mm
11:49 AM 74.9°F23.8°C 60.7°F15.9°C 61% 11.3 mph SSE18.2 kmh SSE 23.4 mph37.7 kmh 29.50 in999.0 mb 0.00 in0.0 mm 0.00 in0.0 mm 0.16 in4.1 mm
11:48 AM 74.9°F23.8°C 60.3°F15.7°C 60% 8.3 mph SSE13.4 kmh SSE 23.4 mph37.7 kmh 29.50 in999.0 mb 0.00 in0.0 mm 0.00 in0.0 mm 0.16 in4.1 mm
11:47 AM 74.9°F23.8°C 60.7°F15.9°C 61% 7.6 mph SSE12.2 kmh SSE 23.4 mph37.7 kmh 29.50 in999.0 mb 0.00 in0.0 mm 0.00 in0.0 mm 0.16 in4.1 mm
11:46 AM 74.9°F23.8°C 60.7°F15.9°C 61% 10.4 mph S16.7 kmh S 25.4 mph40.9 kmh 29.50 in999.0 mb 0.00 in0.0 mm 0.00 in0.0 mm 0.16 in4.1 mm
11:45 AM 74.9°F23.8°C 60.7°F15.9°C 61% 11.6 mph S18.7 kmh S 25.4 mph40.9 kmh 29.50 in999.0 mb 0.00 in0.0 mm 0.00 in0.0 mm 0.16 in4.1 mm
11:44 AM 75.1°F23.9°C 61.4°F16.3°C 62% 11.8 mph SSE19.0 kmh SSE 25.4 mph40.9 kmh 29.50 in999.0 mb 0.00 in0.0 mm 0.00 in0.0 mm 0.16 in4.1 mm
11:43 AM 75.1°F23.9°C 60.9°F16.1°C 61% 12.0 mph S19.3 kmh S 25.4 mph40.9 kmh 29.50 in999.0 mb 0.00 in0.0 mm 0.00 in0.0 mm 0.16 in4.1 mm
11:42 AM 75.3°F24.1°C 61.1°F16.2°C 61% 12.0 mph S19.3 kmh S 25.4 mph40.9 kmh 29.50 in999.0 mb 0.00 in0.0 mm 0.00 in0.0 mm 0.16 in4.1 mm
11:41 AM 75.5°F24.2°C 61.8°F16.6°C 62% 10.9 mph SSE17.5 kmh SSE 25.4 mph40.9 kmh 29.50 in999.0 mb 0.00 in0.0 mm 0.00 in0.0 mm 0.16 in4.1 mm
11:40 AM 75.5°F24.2°C 61.3°F16.3°C 61% 10.3 mph S16.6 kmh S 25.4 mph40.9 kmh 29.50 in999.0 mb 0.00 in0.0 mm 0.00 in0.0 mm 0.16 in4.1 mm
11:39 AM 75.6°F24.2°C 61.4°F16.3°C 61% 11.4 mph S18.3 kmh S 25.4 mph40.9 kmh 29.50 in999.0 mb 0.00 in0.0 mm 0.00 in0.0 mm 0.16 in4.1 mm
11:38 AM 75.8°F24.3°C 61.6°F16.4°C 61% 14.1 mph SSE22.7 kmh SSE 25.4 mph40.9 kmh 29.50 in999.0 mb 0.00 in0.0 mm 0.00 in0.0 mm 0.16 in4.1 mm
11:37 AM 75.6°F24.2°C 61.4°F16.3°C 61% 12.6 mph S20.3 kmh S 25.4 mph40.9 kmh 29.50 in999.0 mb 0.00 in0.0 mm 0.00 in0.0 mm 0.16 in4.1 mm
11:36 AM 75.6°F24.2°C 60.4°F15.8°C 59% 9.2 mph SSE14.8 kmh SSE 23.1 mph37.2 kmh 29.50 in999.0 mb 0.00 in0.0 mm 0.00 in0.0 mm 0.16 in4.1 mm
11:35 AM 75.6°F24.2°C 60.9°F16.1°C 60% 8.7 mph SSE14.0 kmh SSE 23.1 mph37.2 kmh 29.50 in999.0 mb 0.00 in0.0 mm 0.00 in0.0 mm 0.16 in4.1 mm
11:34 AM 75.6°F24.2°C 60.9°F16.1°C 60% 6.9 mph S11.1 kmh S 23.1 mph37.2 kmh 29.50 in999.0 mb 0.00 in0.0 mm 0.00 in0.0 mm 0.16 in4.1 mm
11:33 AM 75.5°F24.2°C 60.8°F16.0°C 60% 8.1 mph S13.0 kmh S 23.1 mph37.2 kmh 29.50 in999.0 mb 0.00 in0.0 mm 0.00 in0.0 mm 0.16 in4.1 mm
11:32 AM 75.5°F24.2°C 59.8°F15.4°C 58% 10.2 mph S16.4 kmh S 23.1 mph37.2 kmh 29.50 in999.0 mb 0.00 in0.0 mm 0.00 in0.0 mm 0.16 in4.1 mm
11:31 AM 75.3°F24.1°C 59.7°F15.4°C 58% 11.1 mph S17.9 kmh S 23.1 mph37.2 kmh 29.50 in999.0 mb 0.00 in0.0 mm 0.00 in0.0 mm 0.16 in4.1 mm
11:30 AM 75.3°F24.1°C 59.7°F15.4°C 58% 11.9 mph S19.2 kmh S 23.1 mph37.2 kmh 29.50 in999.0 mb 0.00 in0.0 mm 0.00 in0.0 mm 0.16 in4.1 mm
11:29 AM 75.1°F23.9°C 59.5°F15.3°C 58% 11.2 mph S18.0 kmh S 23.1 mph37.2 kmh 29.50 in999.0 mb 0.00 in0.0 mm 0.00 in0.0 mm 0.16 in4.1 mm
11:28 AM 75.1°F23.9°C 59.5°F15.3°C 58% 12.9 mph S20.8 kmh S 23.1 mph37.2 kmh 29.50 in999.0 mb 0.00 in0.0 mm 0.00 in0.0 mm 0.16 in4.1 mm
11:27 AM 74.9°F23.8°C 59.8°F15.4°C 59% 11.1 mph SSE17.9 kmh SSE 23.1 mph37.2 kmh 29.50 in999.0 mb 0.00 in0.0 mm 0.00 in0.0 mm 0.16 in4.1 mm
11:26 AM 74.7°F23.7°C 59.1°F15.1°C 58% 7.8 mph SSE12.6 kmh SSE 21.2 mph34.1 kmh 29.50 in999.0 mb 0.00 in0.0 mm 0.00 in0.0 mm 0.16 in4.1 mm
11:25 AM 74.7°F23.7°C 58.1°F14.5°C 56% 8.3 mph SSE13.4 kmh SSE 22.4 mph36.0 kmh 29.50 in999.0 mb 0.00 in0.0 mm 0.00 in0.0 mm 0.16 in4.1 mm
11:24 AM 74.4°F23.6°C 57.8°F14.3°C 56% 6.5 mph SSE10.5 kmh SSE 22.4 mph36.0 kmh 29.50 in999.0 mb 0.00 in0.0 mm 0.00 in0.0 mm 0.16 in4.1 mm
11:23 AM 74.4°F23.6°C 58.4°F14.7°C 57% 7.8 mph SSE12.6 kmh SSE 22.4 mph36.0 kmh 29.50 in999.0 mb 0.00 in0.0 mm 0.00 in0.0 mm 0.16 in4.1 mm
11:22 AM 74.4°F23.6°C 58.4°F14.7°C 57% 9.1 mph SSE14.6 kmh SSE 22.4 mph36.0 kmh 29.50 in999.0 mb 0.00 in0.0 mm 0.00 in0.0 mm 0.16 in4.1 mm
11:21 AM 74.4°F23.6°C 58.4°F14.7°C 57% 9.0 mph SSE14.5 kmh SSE 22.4 mph36.0 kmh 29.50 in999.0 mb 0.00 in0.0 mm 0.00 in0.0 mm 0.16 in4.1 mm
11:20 AM 74.4°F23.6°C 58.4°F14.7°C 57% 10.5 mph SSE16.9 kmh SSE 22.4 mph36.0 kmh 29.50 in999.0 mb 0.00 in0.0 mm 0.00 in0.0 mm 0.16 in4.1 mm
11:19 AM 74.4°F23.6°C 58.8°F14.9°C 58% 10.7 mph SSE17.2 kmh SSE 22.4 mph36.0 kmh 29.50 in999.0 mb 0.00 in0.0 mm 0.00 in0.0 mm 0.16 in4.1 mm
11:18 AM 74.4°F23.6°C 58.4°F14.7°C 57% 8.2 mph S13.2 kmh S 22.4 mph36.0 kmh 29.50 in999.0 mb 0.00 in0.0 mm 0.00 in0.0 mm 0.16 in4.1 mm
11:17 AM 74.4°F23.6°C 58.8°F14.9°C 58% 12.4 mph S20.0 kmh S 22.4 mph36.0 kmh 29.50 in999.0 mb 0.00 in0.0 mm 0.00 in0.0 mm 0.16 in4.1 mm
11:16 AM 74.4°F23.6°C 58.8°F14.9°C 58% 13.4 mph SSE21.6 kmh SSE 22.4 mph36.0 kmh 29.50 in999.0 mb 0.00 in0.0 mm 0.00 in0.0 mm 0.16 in4.1 mm
11:15 AM 74.4°F23.6°C 57.8°F14.3°C 56% 9.6 mph SSE15.4 kmh SSE 22.4 mph36.0 kmh 29.50 in999.0 mb 0.00 in0.0 mm 0.00 in0.0 mm 0.16 in4.1 mm
11:14 AM 74.2°F23.4°C 56.1°F13.4°C 53% 7.9 mph SE12.7 kmh SE 20.3 mph32.7 kmh 29.50 in999.0 mb 0.00 in0.0 mm 0.00 in0.0 mm 0.16 in4.1 mm
11:13 AM 74.0°F23.3°C 55.4°F13.0°C 52% 7.9 mph SSE12.7 kmh SSE 20.3 mph32.7 kmh 29.50 in999.0 mb 0.00 in0.0 mm 0.00 in0.0 mm 0.16 in4.1 mm
11:12 AM 74.0°F23.3°C 55.4°F13.0°C 52% 7.6 mph S12.2 kmh S 20.3 mph32.7 kmh 29.50 in999.0 mb 0.00 in0.0 mm 0.00 in0.0 mm 0.16 in4.1 mm
11:11 AM 73.7°F23.2°C 55.1°F12.8°C 52% 7.5 mph S12.1 kmh S 20.3 mph32.7 kmh 29.50 in999.0 mb 0.00 in0.0 mm 0.00 in0.0 mm 0.16 in4.1 mm
11:10 AM 73.7°F23.2°C 56.2°F13.4°C 54% 7.9 mph SSE12.7 kmh SSE 20.3 mph32.7 kmh 29.50 in999.0 mb 0.00 in0.0 mm 0.00 in0.0 mm 0.16 in4.1 mm
11:09 AM 73.3°F22.9°C 56.3°F13.5°C 55% 9.0 mph SSE14.5 kmh SSE 20.3 mph32.7 kmh 29.50 in999.0 mb 0.00 in0.0 mm 0.00 in0.0 mm 0.16 in4.1 mm
11:08 AM 73.5°F23.1°C 56.5°F13.6°C 55% 10.3 mph SSE16.6 kmh SSE 20.3 mph32.7 kmh 29.50 in999.0 mb 0.00 in0.0 mm 0.00 in0.0 mm 0.16 in4.1 mm
11:07 AM 73.5°F23.1°C 56.5°F13.6°C 55% 11.4 mph S18.3 kmh S 20.3 mph32.7 kmh 29.50 in999.0 mb 0.00 in0.0 mm 0.00 in0.0 mm 0.16 in4.1 mm
11:06 AM 73.5°F23.1°C 56.5°F13.6°C 55% 13.1 mph S21.1 kmh S 20.3 mph32.7 kmh 29.49 in998.6 mb 0.00 in0.0 mm 0.00 in0.0 mm 0.16 in4.1 mm
11:05 AM 73.7°F23.2°C 56.2°F13.4°C 54% 13.8 mph S22.2 kmh S 20.3 mph32.7 kmh 29.49 in998.6 mb 0.00 in0.0 mm 0.00 in0.0 mm 0.16 in4.1 mm
11:04 AM 73.7°F23.2°C 56.2°F13.4°C 54% 13.1 mph S21.1 kmh S 20.3 mph32.7 kmh 29.49 in998.6 mb 0.00 in0.0 mm 0.00 in0.0 mm 0.16 in4.1 mm
11:03 AM 73.7°F23.2°C 55.6°F13.1°C 53% 12.2 mph SSE19.6 kmh SSE 16.1 mph25.9 kmh 29.50 in999.0 mb 0.00 in0.0 mm 0.00 in0.0 mm 0.16 in4.1 mm
11:02 AM 73.7°F23.2°C 54.6°F12.6°C 51% 10.6 mph SSE17.1 kmh SSE 16.1 mph25.9 kmh 29.50 in999.0 mb 0.00 in0.0 mm 0.00 in0.0 mm 0.16 in4.1 mm
11:01 AM 73.7°F23.2°C 55.1°F12.8°C 52% 8.4 mph S13.5 kmh S 12.1 mph19.5 kmh 29.50 in999.0 mb 0.00 in0.0 mm 0.00 in0.0 mm 0.16 in4.1 mm
11:00 AM 73.7°F23.2°C 55.1°F12.8°C 52% 8.0 mph SSW12.9 kmh SSW 16.8 mph27.0 kmh 29.50 in999.0 mb 0.00 in0.0 mm 0.00 in0.0 mm 0.16 in4.1 mm
10:59 AM 73.7°F23.2°C 55.1°F12.8°C 52% 7.5 mph S12.1 kmh S 16.8 mph27.0 kmh 29.49 in998.6 mb 0.00 in0.0 mm 0.00 in0.0 mm 0.16 in4.1 mm
10:58 AM 73.7°F23.2°C 55.1°F12.8°C 52% 7.5 mph SSE12.1 kmh SSE 17.1 mph27.5 kmh 29.49 in998.6 mb 0.00 in0.0 mm 0.00 in0.0 mm 0.16 in4.1 mm
10:57 AM 73.7°F23.2°C 55.6°F13.1°C 53% 7.3 mph SSE11.7 kmh SSE 17.1 mph27.5 kmh 29.49 in998.6 mb 0.00 in0.0 mm 0.00 in0.0 mm 0.16 in4.1 mm
10:56 AM 73.7°F23.2°C 55.6°F13.1°C 53% 7.7 mph S12.4 kmh S 17.1 mph27.5 kmh 29.49 in998.6 mb 0.00 in0.0 mm 0.00 in0.0 mm 0.16 in4.1 mm
10:55 AM 73.7°F23.2°C 55.6°F13.1°C 53% 8.1 mph S13.0 kmh S 17.1 mph27.5 kmh 29.49 in998.6 mb 0.00 in0.0 mm 0.00 in0.0 mm 0.16 in4.1 mm
10:54 AM 73.7°F23.2°C 55.6°F13.1°C 53% 7.2 mph S11.6 kmh S 17.1 mph27.5 kmh 29.49 in998.6 mb 0.00 in0.0 mm 0.00 in0.0 mm 0.16 in4.1 mm
10:53 AM 73.7°F23.2°C 55.6°F13.1°C 53% 6.8 mph S10.9 kmh S 17.1 mph27.5 kmh 29.49 in998.6 mb 0.00 in0.0 mm 0.00 in0.0 mm 0.16 in4.1 mm
10:52 AM 73.7°F23.2°C 56.2°F13.4°C 54% 8.3 mph SSE13.4 kmh SSE 18.0 mph29.0 kmh 29.49 in998.6 mb 0.00 in0.0 mm 0.00 in0.0 mm 0.16 in4.1 mm
10:51 AM 73.7°F23.2°C 56.2°F13.4°C 54% 9.8 mph SSE15.8 kmh SSE 18.0 mph29.0 kmh 29.49 in998.6 mb 0.00 in0.0 mm 0.00 in0.0 mm 0.16 in4.1 mm
10:50 AM 73.7°F23.2°C 55.6°F13.1°C 53% 9.0 mph SSE14.5 kmh SSE 18.0 mph29.0 kmh 29.49 in998.6 mb 0.00 in0.0 mm 0.00 in0.0 mm 0.16 in4.1 mm
10:49 AM 73.7°F23.2°C 55.6°F13.1°C 53% 9.6 mph S15.4 kmh S 18.0 mph29.0 kmh 29.49 in998.6 mb 0.00 in0.0 mm 0.00 in0.0 mm 0.16 in4.1 mm
10:48 AM 73.7°F23.2°C 56.2°F13.4°C 54% 10.9 mph S17.5 kmh S 18.0 mph29.0 kmh 29.49 in998.6 mb 0.00 in0.0 mm 0.00 in0.0 mm 0.16 in4.1 mm
10:47 AM 73.7°F23.2°C 56.2°F13.4°C 54% 9.0 mph S14.5 kmh S 18.0 mph29.0 kmh 29.49 in998.6 mb 0.00 in0.0 mm 0.00 in0.0 mm 0.16 in4.1 mm
10:46 AM 73.7°F23.2°C 54.6°F12.6°C 51% 9.8 mph SSE15.8 kmh SSE 18.0 mph29.0 kmh 29.49 in998.6 mb 0.00 in0.0 mm 0.00 in0.0 mm 0.16 in4.1 mm
10:45 AM 73.7°F23.2°C 54.6°F12.6°C 51% 11.2 mph SSE18.0 kmh SSE 18.0 mph29.0 kmh 29.49 in998.6 mb 0.00 in0.0 mm 0.00 in0.0 mm 0.16 in4.1 mm
10:44 AM 73.5°F23.1°C 54.9°F12.7°C 52% 11.1 mph SSE17.9 kmh SSE 18.0 mph29.0 kmh 29.49 in998.6 mb 0.00 in0.0 mm 0.00 in0.0 mm 0.16 in4.1 mm
10:43 AM 73.3°F22.9°C 54.7°F12.6°C 52% 11.8 mph SSE19.0 kmh SSE 18.0 mph29.0 kmh 29.49 in998.6 mb 0.00 in0.0 mm 0.00 in0.0 mm 0.16 in4.1 mm
10:42 AM 73.5°F23.1°C 54.9°F12.7°C 52% 10.2 mph S16.4 kmh S 18.0 mph29.0 kmh 29.49 in998.6 mb 0.00 in0.0 mm 0.00 in0.0 mm 0.16 in4.1 mm
10:41 AM 73.3°F22.9°C 54.2°F12.3°C 51% 7.1 mph S11.4 kmh S 17.7 mph28.5 kmh 29.49 in998.6 mb 0.00 in0.0 mm 0.00 in0.0 mm 0.16 in4.1 mm
10:40 AM 73.5°F23.1°C 56.0°F13.3°C 54% 6.9 mph S11.1 kmh S 17.7 mph28.5 kmh 29.49 in998.6 mb 0.00 in0.0 mm 0.00 in0.0 mm 0.16 in4.1 mm
10:39 AM 73.5°F23.1°C 54.9°F12.7°C 52% 8.3 mph S13.4 kmh S 17.7 mph28.5 kmh 29.49 in998.6 mb 0.00 in0.0 mm 0.00 in0.0 mm 0.16 in4.1 mm
10:38 AM 73.5°F23.1°C 54.9°F12.7°C 52% 10.3 mph S16.6 kmh S 17.7 mph28.5 kmh 29.49 in998.6 mb 0.00 in0.0 mm 0.00 in0.0 mm 0.16 in4.1 mm
10:37 AM 73.7°F23.2°C 55.6°F13.1°C 53% 10.5 mph S16.9 kmh S 17.7 mph28.5 kmh 29.49 in998.6 mb 0.00 in0.0 mm 0.00 in0.0 mm 0.16 in4.1 mm
10:36 AM 73.7°F23.2°C 54.6°F12.6°C 51% 10.8 mph SSE17.4 kmh SSE 17.7 mph28.5 kmh 29.49 in998.6 mb 0.00 in0.0 mm 0.00 in0.0 mm 0.16 in4.1 mm
10:35 AM 73.7°F23.2°C 54.6°F12.6°C 51% 9.8 mph SE15.8 kmh SE 17.7 mph28.5 kmh 29.49 in998.6 mb 0.00 in0.0 mm 0.00 in0.0 mm 0.16 in4.1 mm
10:34 AM 73.7°F23.2°C 52.8°F11.6°C 48% 8.8 mph SE14.2 kmh SE 17.7 mph28.5 kmh 29.49 in998.6 mb 0.00 in0.0 mm 0.00 in0.0 mm 0.16 in4.1 mm
10:33 AM 73.7°F23.2°C 54.0°F12.2°C 50% 10.5 mph SSE16.9 kmh SSE 19.9 mph32.0 kmh 29.49 in998.6 mb 0.00 in0.0 mm 0.00 in0.0 mm 0.16 in4.1 mm
10:32 AM 73.7°F23.2°C 55.1°F12.8°C 52% 9.8 mph SSE15.8 kmh SSE 19.9 mph32.0 kmh 29.49 in998.6 mb 0.00 in0.0 mm 0.00 in0.0 mm 0.16 in4.1 mm
10:31 AM 73.5°F23.1°C 53.3°F11.8°C 49% 7.9 mph SSE12.7 kmh SSE 19.9 mph32.0 kmh 29.48 in998.3 mb 0.00 in0.0 mm 0.00 in0.0 mm 0.16 in4.1 mm
10:30 AM 73.3°F22.9°C 51.9°F11.1°C 47% 8.7 mph SSE14.0 kmh SSE 19.9 mph32.0 kmh 29.49 in998.6 mb 0.00 in0.0 mm 0.00 in0.0 mm 0.16 in4.1 mm
10:29 AM 73.3°F22.9°C 52.5°F11.4°C 48% 10.1 mph SSE16.3 kmh SSE 19.9 mph32.0 kmh 29.49 in998.6 mb 0.00 in0.0 mm 0.00 in0.0 mm 0.16 in4.1 mm
10:28 AM 73.3°F22.9°C 51.3°F10.7°C 46% 9.2 mph SSE14.8 kmh SSE 19.9 mph32.0 kmh 29.49 in998.6 mb 0.00 in0.0 mm 0.00 in0.0 mm 0.16 in4.1 mm
10:27 AM 73.3°F22.9°C 50.7°F10.4°C 45% 7.7 mph SSE12.4 kmh SSE 19.9 mph32.0 kmh 29.49 in998.6 mb 0.00 in0.0 mm 0.00 in0.0 mm 0.16 in4.1 mm
10:26 AM 73.1°F22.8°C 48.6°F9.2°C 42% 8.1 mph S13.0 kmh S 19.9 mph32.0 kmh 29.49 in998.6 mb 0.00 in0.0 mm 0.00 in0.0 mm 0.16 in4.1 mm
10:25 AM 73.1°F22.8°C 47.9°F8.8°C 41% 10.7 mph S17.2 kmh S 19.9 mph32.0 kmh 29.49 in998.6 mb 0.00 in0.0 mm 0.00 in0.0 mm 0.16 in4.1 mm
10:24 AM 72.8°F22.7°C 48.3°F9.1°C 42% 13.5 mph SSE21.7 kmh SSE 19.9 mph32.0 kmh 29.49 in998.6 mb 0.00 in0.0 mm 0.00 in0.0 mm 0.16 in4.1 mm
10:23 AM 72.7°F22.6°C 50.1°F10.1°C 45% 13.5 mph SE21.7 kmh SE 19.9 mph32.0 kmh 29.48 in998.3 mb 0.00 in0.0 mm 0.00 in0.0 mm 0.16 in4.1 mm
10:22 AM 72.3°F22.4°C 42.9°F6.1°C 35% 9.3 mph SSE15.0 kmh SSE 15.6 mph25.1 kmh 29.49 in998.6 mb 0.00 in0.0 mm 0.00 in0.0 mm 0.16 in4.1 mm
10:21 AM 72.1°F22.3°C 42.7°F5.9°C 35% 6.7 mph SSE10.8 kmh SSE 14.5 mph23.3 kmh 29.49 in998.6 mb 0.00 in0.0 mm 0.00 in0.0 mm 0.16 in4.1 mm
10:20 AM 72.0°F22.2°C 43.4°F6.3°C 36% 5.0 mph SSE8.0 kmh SSE 13.3 mph21.4 kmh 29.49 in998.6 mb 0.00 in0.0 mm 0.00 in0.0 mm 0.16 in4.1 mm
10:19 AM 72.0°F22.2°C 44.1°F6.7°C 37% 4.0 mph S6.4 kmh S 13.3 mph21.4 kmh 29.48 in998.3 mb 0.00 in0.0 mm 0.00 in0.0 mm 0.16 in4.1 mm
10:18 AM 71.6°F22.0°C 43.8°F6.6°C 37% 5.6 mph S9.0 kmh S 13.3 mph21.4 kmh 29.48 in998.3 mb 0.00 in0.0 mm 0.00 in0.0 mm 0.16 in4.1 mm
10:17 AM 71.6°F22.0°C 43.8°F6.6°C 37% 7.9 mph S12.7 kmh S 13.3 mph21.4 kmh 29.49 in998.6 mb 0.00 in0.0 mm 0.00 in0.0 mm 0.16 in4.1 mm
10:16 AM 71.6°F22.0°C 43.1°F6.2°C 36% 8.7 mph S14.0 kmh S 13.3 mph21.4 kmh 29.49 in998.6 mb 0.00 in0.0 mm 0.00 in0.0 mm 0.16 in4.1 mm
10:15 AM 71.4°F21.9°C 42.1°F5.6°C 35% 7.1 mph S11.4 kmh S 12.1 mph19.5 kmh 29.48 in998.3 mb 0.00 in0.0 mm 0.00 in0.0 mm 0.16 in4.1 mm
10:14 AM 71.2°F21.8°C 41.2°F5.1°C 34% 7.5 mph S12.1 kmh S 12.1 mph19.5 kmh 29.49 in998.6 mb 0.00 in0.0 mm 0.00 in0.0 mm 0.16 in4.1 mm
10:13 AM 71.1°F21.7°C 40.3°F4.6°C 33% 8.3 mph S13.4 kmh S 12.1 mph19.5 kmh 29.48 in998.3 mb 0.00 in0.0 mm 0.00 in0.0 mm 0.16 in4.1 mm
10:12 AM 71.1°F21.7°C 40.3°F4.6°C 33% 8.5 mph SSE13.7 kmh SSE 15.6 mph25.1 kmh 29.48 in998.3 mb 0.00 in0.0 mm 0.00 in0.0 mm 0.16 in4.1 mm
10:11 AM 70.9°F21.6°C 40.2°F4.6°C 33% 7.1 mph S11.4 kmh S 15.6 mph25.1 kmh 29.48 in998.3 mb 0.00 in0.0 mm 0.00 in0.0 mm 0.16 in4.1 mm
10:10 AM 70.5°F21.4°C 37.4°F3.0°C 30% 5.8 mph SSE9.3 kmh SSE 15.6 mph25.1 kmh 29.48 in998.3 mb 0.00 in0.0 mm 0.00 in0.0 mm 0.16 in4.1 mm
10:09 AM 70.3°F21.3°C 37.2°F2.9°C 30% 5.5 mph S8.9 kmh S 15.6 mph25.1 kmh 29.48 in998.3 mb 0.00 in0.0 mm 0.00 in0.0 mm 0.16 in4.1 mm
10:08 AM 70.2°F21.2°C 36.3°F2.4°C 29% 5.4 mph S8.7 kmh S 15.6 mph25.1 kmh 29.48 in998.3 mb 0.00 in0.0 mm 0.00 in0.0 mm 0.16 in4.1 mm
10:07 AM 70.2°F21.2°C 37.1°F2.8°C 30% 7.3 mph S11.7 kmh S 15.6 mph25.1 kmh 29.48 in998.3 mb 0.00 in0.0 mm 0.00 in0.0 mm 0.16 in4.1 mm
10:06 AM 70.2°F21.2°C 38.0°F3.3°C 31% 8.8 mph S14.2 kmh S 15.6 mph25.1 kmh 29.48 in998.3 mb 0.00 in0.0 mm 0.00 in0.0 mm 0.16 in4.1 mm
10:05 AM 70.0°F21.1°C 37.0°F2.8°C 30% 8.0 mph SSE12.9 kmh SSE 15.6 mph25.1 kmh 29.48 in998.3 mb 0.00 in0.0 mm 0.00 in0.0 mm 0.16 in4.1 mm
10:04 AM 69.8°F21.0°C 36.8°F2.7°C 30% 7.8 mph S12.6 kmh S 15.6 mph25.1 kmh 29.48 in998.3 mb 0.00 in0.0 mm 0.00 in0.0 mm 0.16 in4.1 mm
10:03 AM 69.6°F20.9°C 35.8°F2.1°C 29% 8.0 mph SSW12.9 kmh SSW 15.6 mph25.1 kmh 29.48 in998.3 mb 0.00 in0.0 mm 0.00 in0.0 mm 0.16 in4.1 mm
10:02 AM 69.5°F20.8°C 33.8°F1.0°C 27% 6.7 mph SSW10.8 kmh SSW 13.3 mph21.4 kmh 29.48 in998.3 mb 0.00 in0.0 mm 0.00 in0.0 mm 0.16 in4.1 mm
10:01 AM 69.5°F20.8°C 34.7°F1.5°C 28% 6.4 mph S10.3 kmh S 13.3 mph21.4 kmh 29.48 in998.3 mb 0.00 in0.0 mm 0.00 in0.0 mm 0.16 in4.1 mm
10:00 AM 69.4°F20.8°C 35.5°F1.9°C 29% 7.6 mph S12.2 kmh S 13.3 mph21.4 kmh 29.48 in998.3 mb 0.00 in0.0 mm 0.00 in0.0 mm 0.16 in4.1 mm
09:59 AM 69.4°F20.8°C 34.7°F1.5°C 28% 8.3 mph S13.4 kmh S 13.3 mph21.4 kmh 29.48 in998.3 mb 0.00 in0.0 mm 0.00 in0.0 mm 0.16 in4.1 mm
09:58 AM 69.2°F20.7°C 34.5°F1.4°C 28% 8.2 mph SSE13.2 kmh SSE 13.3 mph21.4 kmh 29.48 in998.3 mb 0.00 in0.0 mm 0.00 in0.0 mm 0.16 in4.1 mm
09:57 AM 69.4°F20.8°C 34.7°F1.5°C 28% 8.3 mph SSE13.4 kmh SSE 15.2 mph24.5 kmh 29.48 in998.3 mb 0.00 in0.0 mm 0.00 in0.0 mm 0.16 in4.1 mm
09:56 AM 69.0°F20.6°C 32.5°F0.3°C 26% 7.3 mph SSE11.7 kmh SSE 15.2 mph24.5 kmh 29.48 in998.3 mb 0.00 in0.0 mm 0.00 in0.0 mm 0.16 in4.1 mm
09:55 AM 69.0°F20.6°C 32.5°F0.3°C 26% 6.0 mph SSE9.7 kmh SSE 15.2 mph24.5 kmh 29.48 in998.3 mb 0.00 in0.0 mm 0.00 in0.0 mm 0.16 in4.1 mm
09:54 AM 69.0°F20.6°C 32.5°F0.3°C 26% 6.1 mph S9.8 kmh S 15.2 mph24.5 kmh 29.48 in998.3 mb 0.00 in0.0 mm 0.00 in0.0 mm 0.16 in4.1 mm
09:53 AM 69.0°F20.6°C 32.5°F0.3°C 26% 6.3 mph S10.1 kmh S 16.8 mph27.0 kmh 29.48 in998.3 mb 0.00 in0.0 mm 0.00 in0.0 mm 0.16 in4.1 mm
09:52 AM 68.8°F20.4°C 32.3°F0.2°C 26% 6.6 mph S10.6 kmh S 16.8 mph27.0 kmh 29.48 in998.3 mb 0.00 in0.0 mm 0.00 in0.0 mm 0.16 in4.1 mm
09:51 AM 68.8°F20.4°C 34.2°F1.2°C 28% 6.9 mph S11.1 kmh S 16.8 mph27.0 kmh 29.48 in998.3 mb 0.00 in0.0 mm 0.00 in0.0 mm 0.16 in4.1 mm
09:50 AM 69.2°F20.7°C 34.5°F1.4°C 28% 7.7 mph SSE12.4 kmh SSE 16.8 mph27.0 kmh 29.48 in998.3 mb 0.00 in0.0 mm 0.00 in0.0 mm 0.16 in4.1 mm
09:49 AM 69.2°F20.7°C 35.4°F1.9°C 29% 8.7 mph SSE14.0 kmh SSE 16.8 mph27.0 kmh 29.48 in998.3 mb 0.00 in0.0 mm 0.00 in0.0 mm 0.16 in4.1 mm
09:48 AM 69.0°F20.6°C 34.3°F1.3°C 28% 10.5 mph SSE16.9 kmh SSE 16.8 mph27.0 kmh 29.48 in998.3 mb 0.00 in0.0 mm 0.00 in0.0 mm 0.16 in4.1 mm
09:47 AM 68.8°F20.4°C 32.3°F0.2°C 26% 10.4 mph SSE16.7 kmh SSE 16.8 mph27.0 kmh 29.48 in998.3 mb 0.00 in0.0 mm 0.00 in0.0 mm 0.16 in4.1 mm
09:46 AM 68.8°F20.4°C 31.4°F-0.3°C 25% 7.8 mph SSE12.6 kmh SSE 16.8 mph27.0 kmh 29.48 in998.3 mb 0.00 in0.0 mm 0.00 in0.0 mm 0.16 in4.1 mm
09:45 AM 68.5°F20.3°C 30.1°F-1.1°C 24% 8.0 mph SSE12.9 kmh SSE 16.8 mph27.0 kmh 29.48 in998.3 mb 0.00 in0.0 mm 0.00 in0.0 mm 0.16 in4.1 mm
09:44 AM 68.5°F20.3°C 30.1°F-1.1°C 24% 9.5 mph S15.3 kmh S 16.8 mph27.0 kmh 29.48 in998.3 mb 0.00 in0.0 mm 0.00 in0.0 mm 0.16 in4.1 mm
09:43 AM 68.3°F20.2°C 29.0°F-1.7°C 23% 9.0 mph S14.5 kmh S 16.8 mph27.0 kmh 29.48 in998.3 mb 0.00 in0.0 mm 0.00 in0.0 mm 0.16 in4.1 mm
09:42 AM 68.3°F20.2°C 30.0°F-1.1°C 24% 8.5 mph S13.7 kmh S 16.8 mph27.0 kmh 29.48 in998.3 mb 0.00 in0.0 mm 0.00 in0.0 mm 0.16 in4.1 mm
09:41 AM 68.3°F20.2°C 30.0°F-1.1°C 24% 9.7 mph SSE15.6 kmh SSE 16.8 mph27.0 kmh 29.48 in998.3 mb 0.00 in0.0 mm 0.00 in0.0 mm 0.16 in4.1 mm
09:40 AM 68.3°F20.2°C 30.0°F-1.1°C 24% 9.0 mph SSE14.5 kmh SSE 16.8 mph27.0 kmh 29.48 in998.3 mb 0.00 in0.0 mm 0.00 in0.0 mm 0.16 in4.1 mm
09:39 AM 68.5°F20.3°C 31.1°F-0.5°C 25% 9.6 mph S15.4 kmh S 16.8 mph27.0 kmh 29.48 in998.3 mb 0.00 in0.0 mm 0.00 in0.0 mm 0.16 in4.1 mm
09:38 AM 68.5°F20.3°C 31.1°F-0.5°C 25% 8.9 mph S14.3 kmh S 16.8 mph27.0 kmh 29.48 in998.3 mb 0.00 in0.0 mm 0.00 in0.0 mm 0.16 in4.1 mm
09:37 AM 68.3°F20.2°C 30.0°F-1.1°C 24% 7.9 mph S12.7 kmh S 14.9 mph24.0 kmh 29.48 in998.3 mb 0.00 in0.0 mm 0.00 in0.0 mm 0.16 in4.1 mm
09:36 AM 68.3°F20.2°C 31.0°F-0.6°C 25% 8.3 mph S13.4 kmh S 14.9 mph24.0 kmh 29.48 in998.3 mb 0.00 in0.0 mm 0.00 in0.0 mm 0.16 in4.1 mm
09:35 AM 68.3°F20.2°C 29.0°F-1.7°C 23% 7.3 mph S11.7 kmh S 14.9 mph24.0 kmh 29.48 in998.3 mb 0.00 in0.0 mm 0.00 in0.0 mm 0.16 in4.1 mm
09:34 AM 68.3°F20.2°C 29.0°F-1.7°C 23% 8.2 mph S13.2 kmh S 14.9 mph24.0 kmh 29.48 in998.3 mb 0.00 in0.0 mm 0.00 in0.0 mm 0.16 in4.1 mm
09:33 AM 68.3°F20.2°C 30.0°F-1.1°C 24% 9.2 mph S14.8 kmh S 14.9 mph24.0 kmh 29.48 in998.3 mb 0.00 in0.0 mm 0.00 in0.0 mm 0.16 in4.1 mm
09:32 AM 68.3°F20.2°C 29.0°F-1.7°C 23% 9.6 mph S15.4 kmh S 18.4 mph29.6 kmh 29.48 in998.3 mb 0.00 in0.0 mm 0.00 in0.0 mm 0.16 in4.1 mm
09:31 AM 68.3°F20.2°C 29.0°F-1.7°C 23% 8.4 mph S13.5 kmh S 18.4 mph29.6 kmh 29.48 in998.3 mb 0.00 in0.0 mm 0.00 in0.0 mm 0.16 in4.1 mm
09:30 AM 68.5°F20.3°C 29.1°F-1.6°C 23% 7.8 mph SSE12.6 kmh SSE 18.4 mph29.6 kmh 29.48 in998.3 mb 0.00 in0.0 mm 0.00 in0.0 mm 0.16 in4.1 mm
09:29 AM 68.1°F20.1°C 27.7°F-2.4°C 22% 7.0 mph SE11.3 kmh SE 18.4 mph29.6 kmh 29.48 in998.3 mb 0.00 in0.0 mm 0.00 in0.0 mm 0.16 in4.1 mm
09:28 AM 68.3°F20.2°C 27.9°F-2.3°C 22% 7.4 mph SE11.9 kmh SE 18.4 mph29.6 kmh 29.48 in998.3 mb 0.00 in0.0 mm 0.00 in0.0 mm 0.16 in4.1 mm
09:27 AM 68.5°F20.3°C 29.1°F-1.6°C 23% 8.1 mph SE13.0 kmh SE 18.4 mph29.6 kmh 29.48 in998.3 mb 0.00 in0.0 mm 0.00 in0.0 mm 0.16 in4.1 mm
09:26 AM 68.5°F20.3°C 29.1°F-1.6°C 23% 7.9 mph SSE12.7 kmh SSE 18.4 mph29.6 kmh 29.48 in998.3 mb 0.00 in0.0 mm 0.00 in0.0 mm 0.16 in4.1 mm
09:25 AM 68.5°F20.3°C 30.1°F-1.1°C 24% 8.0 mph SSE12.9 kmh SSE 18.4 mph29.6 kmh 29.48 in998.3 mb 0.00 in0.0 mm 0.00 in0.0 mm 0.16 in4.1 mm
09:24 AM 68.6°F20.3°C 31.2°F-0.4°C 25% 8.9 mph SSE14.3 kmh SSE 18.4 mph29.6 kmh 29.48 in998.3 mb 0.00 in0.0 mm 0.00 in0.0 mm 0.16 in4.1 mm
09:23 AM 68.6°F20.3°C 31.2°F-0.4°C 25% 10.3 mph SE16.6 kmh SE 18.4 mph29.6 kmh 29.48 in998.3 mb 0.00 in0.0 mm 0.00 in0.0 mm 0.16 in4.1 mm
09:22 AM 68.5°F20.3°C 29.1°F-1.6°C 23% 10.7 mph SSE17.2 kmh SSE 18.4 mph29.6 kmh 29.48 in998.3 mb 0.00 in0.0 mm 0.00 in0.0 mm 0.16 in4.1 mm
09:21 AM 68.5°F20.3°C 28.0°F-2.2°C 22% 10.8 mph S17.4 kmh S 18.4 mph29.6 kmh 29.48 in998.3 mb 0.00 in0.0 mm 0.00 in0.0 mm 0.16 in4.1 mm
09:20 AM 68.6°F20.3°C 30.2°F-1.0°C 24% 11.3 mph S18.2 kmh S 18.4 mph29.6 kmh 29.48 in998.3 mb 0.00 in0.0 mm 0.00 in0.0 mm 0.16 in4.1 mm
09:19 AM 68.3°F20.2°C 26.8°F-2.9°C 21% 10.1 mph S16.3 kmh S 18.4 mph29.6 kmh 29.48 in998.3 mb 0.00 in0.0 mm 0.00 in0.0 mm 0.16 in4.1 mm
09:18 AM 67.6°F19.8°C 21.2°F-6.0°C 17% 8.3 mph SSE13.4 kmh SSE 15.6 mph25.1 kmh 29.48 in998.3 mb 0.00 in0.0 mm 0.00 in0.0 mm 0.16 in4.1 mm
09:17 AM 67.6°F19.8°C 22.5°F-5.3°C 18% 8.6 mph S13.8 kmh S 15.6 mph25.1 kmh 29.48 in998.3 mb 0.00 in0.0 mm 0.00 in0.0 mm 0.16 in4.1 mm
09:16 AM 67.7°F19.8°C 23.9°F-4.5°C 19% 7.5 mph S12.1 kmh S 15.6 mph25.1 kmh 29.48 in998.3 mb 0.00 in0.0 mm 0.00 in0.0 mm 0.16 in4.1 mm
09:15 AM 67.4°F19.7°C 22.4°F-5.3°C 18% 9.4 mph SSE15.1 kmh SSE 15.6 mph25.1 kmh 29.48 in998.3 mb 0.00 in0.0 mm 0.00 in0.0 mm 0.16 in4.1 mm
09:14 AM 67.4°F19.7°C 22.4°F-5.3°C 18% 11.0 mph SSE17.7 kmh SSE 15.6 mph25.1 kmh 29.48 in998.3 mb 0.00 in0.0 mm 0.00 in0.0 mm 0.16 in4.1 mm
09:13 AM 67.0°F19.4°C 19.3°F-7.1°C 16% 9.4 mph S15.1 kmh S 15.6 mph25.1 kmh 29.48 in998.3 mb 0.00 in0.0 mm 0.00 in0.0 mm 0.16 in4.1 mm
09:12 AM 66.8°F19.3°C 17.6°F-8.0°C 15% 8.4 mph SSE13.5 kmh SSE 15.6 mph25.1 kmh 29.48 in998.3 mb 0.00 in0.0 mm 0.00 in0.0 mm 0.16 in4.1 mm
09:11 AM 66.8°F19.3°C 16.0°F-8.9°C 14% 7.5 mph SSE12.1 kmh SSE 17.1 mph27.5 kmh 29.48 in998.3 mb 0.00 in0.0 mm 0.00 in0.0 mm 0.16 in4.1 mm
09:10 AM 66.7°F19.3°C 14.2°F-9.9°C 13% 9.3 mph S15.0 kmh S 17.1 mph27.5 kmh 29.48 in998.3 mb 0.00 in0.0 mm 0.00 in0.0 mm 0.16 in4.1 mm
09:09 AM 66.7°F19.3°C 14.2°F-9.9°C 13% 10.4 mph S16.7 kmh S 17.1 mph27.5 kmh 29.48 in998.3 mb 0.00 in0.0 mm 0.00 in0.0 mm 0.16 in4.1 mm
09:08 AM 66.7°F19.3°C 14.2°F-9.9°C 13% 10.2 mph S16.4 kmh S 17.1 mph27.5 kmh 29.48 in998.3 mb 0.00 in0.0 mm 0.00 in0.0 mm 0.16 in4.1 mm
09:07 AM 66.7°F19.3°C 17.5°F-8.1°C 15% 9.8 mph S15.8 kmh S 17.1 mph27.5 kmh 29.48 in998.3 mb 0.00 in0.0 mm 0.00 in0.0 mm 0.16 in4.1 mm
09:06 AM 66.3°F19.1°C 12.0°F-11.1°C 12% 9.1 mph SSE14.6 kmh SSE 17.1 mph27.5 kmh 29.48 in998.3 mb 0.00 in0.0 mm 0.00 in0.0 mm 0.16 in4.1 mm
09:05 AM 66.3°F19.1°C 12.0°F-11.1°C 12% 8.1 mph SSE13.0 kmh SSE 17.1 mph27.5 kmh 29.48 in998.3 mb 0.00 in0.0 mm 0.00 in0.0 mm 0.16 in4.1 mm
09:04 AM 66.5°F19.2°C 12.1°F-11.1°C 12% 8.2 mph S13.2 kmh S 17.1 mph27.5 kmh 29.48 in998.3 mb 0.00 in0.0 mm 0.00 in0.0 mm 0.16 in4.1 mm
09:03 AM 66.3°F19.1°C 12.0°F-11.1°C 12% 8.7 mph SSE14.0 kmh SSE 17.1 mph27.5 kmh 29.48 in998.3 mb 0.00 in0.0 mm 0.00 in0.0 mm 0.16 in4.1 mm
09:02 AM 66.5°F19.2°C 12.1°F-11.1°C 12% 8.8 mph S14.2 kmh S 18.0 mph29.0 kmh 29.48 in998.3 mb 0.00 in0.0 mm 0.00 in0.0 mm 0.16 in4.1 mm
09:01 AM 66.7°F19.3°C 17.5°F-8.1°C 15% 8.6 mph SSE13.8 kmh SSE 18.0 mph29.0 kmh 29.48 in998.3 mb 0.00 in0.0 mm 0.00 in0.0 mm 0.16 in4.1 mm
09:00 AM 66.0°F18.9°C 7.5°F-13.6°C 10% 8.0 mph SE12.9 kmh SE 18.0 mph29.0 kmh 29.48 in998.3 mb 0.00 in0.0 mm 0.00 in0.0 mm 0.16 in4.1 mm
08:59 AM 66.0°F18.9°C 7.5°F-13.6°C 10% 8.9 mph SE14.3 kmh SE 18.0 mph29.0 kmh 29.48 in998.3 mb 0.00 in0.0 mm 0.00 in0.0 mm 0.16 in4.1 mm
08:58 AM 66.0°F18.9°C 7.5°F-13.6°C 10% 8.5 mph SSE13.7 kmh SSE 18.0 mph29.0 kmh 29.48 in998.3 mb 0.00 in0.0 mm 0.00 in0.0 mm 0.16 in4.1 mm
08:57 AM 65.9°F18.8°C 7.4°F-13.7°C 10% 8.1 mph SSE13.0 kmh SSE 18.0 mph29.0 kmh 29.48 in998.3 mb 0.00 in0.0 mm 0.00 in0.0 mm 0.16 in4.1 mm
08:56 AM 65.9°F18.8°C 7.4°F-13.7°C 10% 8.6 mph SSE13.8 kmh SSE 18.0 mph29.0 kmh 29.48 in998.3 mb 0.00 in0.0 mm 0.00 in0.0 mm 0.16 in4.1 mm
08:55 AM 65.9°F18.8°C 7.4°F-13.7°C 10% 9.0 mph SSE14.5 kmh SSE 18.0 mph29.0 kmh 29.48 in998.3 mb 0.00 in0.0 mm 0.00 in0.0 mm 0.16 in4.1 mm
08:54 AM 65.7°F18.7°C 2.4°F-16.4°C 8% 8.8 mph S14.2 kmh S 18.0 mph29.0 kmh 29.48 in998.3 mb 0.00 in0.0 mm 0.00 in0.0 mm 0.16 in4.1 mm
08:53 AM 65.7°F18.7°C 2.4°F-16.4°C 8% 8.7 mph S14.0 kmh S 18.0 mph29.0 kmh 29.48 in998.3 mb 0.00 in0.0 mm 0.00 in0.0 mm 0.16 in4.1 mm
08:52 AM 65.7°F18.7°C 7.3°F-13.7°C 10% 8.8 mph S14.2 kmh S 18.0 mph29.0 kmh 29.48 in998.3 mb 0.00 in0.0 mm 0.00 in0.0 mm 0.16 in4.1 mm
08:51 AM 65.3°F18.5°C -0.7°F-18.2°C 7% 8.3 mph S13.4 kmh S 14.9 mph24.0 kmh 29.47 in998.0 mb 0.00 in0.0 mm 0.00 in0.0 mm 0.16 in4.1 mm
08:50 AM 65.3°F18.5°C -0.7°F-18.2°C 7% 8.6 mph SSE13.8 kmh SSE 14.9 mph24.0 kmh 29.47 in998.0 mb 0.00 in0.0 mm 0.00 in0.0 mm 0.16 in4.1 mm
08:49 AM 65.3°F18.5°C -3.8°F-19.9°C 6% 8.9 mph SSE14.3 kmh SSE 14.9 mph24.0 kmh 29.47 in998.0 mb 0.00 in0.0 mm 0.00 in0.0 mm 0.16 in4.1 mm
08:48 AM 65.3°F18.5°C -3.8°F-19.9°C 6% 8.6 mph SSE13.8 kmh SSE 14.9 mph24.0 kmh 29.47 in998.0 mb 0.00 in0.0 mm 0.00 in0.0 mm 0.16 in4.1 mm
08:47 AM 65.1°F18.4°C -3.9°F-19.9°C 6% 8.2 mph S13.2 kmh S 14.9 mph24.0 kmh 29.47 in998.0 mb 0.00 in0.0 mm 0.00 in0.0 mm 0.16 in4.1 mm
08:46 AM 65.0°F18.3°C -7.3°F-21.8°C 5% 7.2 mph S11.6 kmh S 14.9 mph24.0 kmh 29.47 in998.0 mb 0.00 in0.0 mm 0.00 in0.0 mm 0.16 in4.1 mm
08:45 AM 65.0°F18.3°C -7.3°F-21.8°C 5% 7.5 mph S12.1 kmh S 14.9 mph24.0 kmh 29.47 in998.0 mb 0.00 in0.0 mm 0.00 in0.0 mm 0.16 in4.1 mm
08:44 AM 65.0°F18.3°C -11.0°F-23.9°C 4% 9.0 mph SSE14.5 kmh SSE 14.9 mph24.0 kmh 29.47 in998.0 mb 0.00 in0.0 mm 0.00 in0.0 mm 0.16 in4.1 mm
08:43 AM 65.0°F18.3°C -7.3°F-21.8°C 5% 9.8 mph SSE15.8 kmh SSE 14.9 mph24.0 kmh 29.47 in998.0 mb 0.00 in0.0 mm 0.00 in0.0 mm 0.16 in4.1 mm
08:42 AM 64.6°F18.1°C -15.4°F-26.3°C 3% 7.5 mph SSE12.1 kmh SSE 14.9 mph24.0 kmh 29.47 in998.0 mb 0.00 in0.0 mm 0.00 in0.0 mm 0.16 in4.1 mm
08:41 AM 64.6°F18.1°C -19.9°F-28.8°C 2% 6.4 mph SSE10.3 kmh SSE 14.9 mph24.0 kmh 29.47 in998.0 mb 0.00 in0.0 mm 0.00 in0.0 mm 0.16 in4.1 mm
08:40 AM 64.4°F18.0°C -20.0°F-28.9°C 2% 8.4 mph SSE13.5 kmh SSE 14.9 mph24.0 kmh 29.47 in998.0 mb 0.00 in0.0 mm 0.00 in0.0 mm 0.16 in4.1 mm
08:39 AM 64.4°F18.0°C -25.0°F-31.7°C 1% 10.3 mph S16.6 kmh S 14.9 mph24.0 kmh 29.47 in998.0 mb 0.00 in0.0 mm 0.00 in0.0 mm 0.16 in4.1 mm
08:38 AM 64.1°F17.8°C -25.2°F-31.8°C 1% 9.0 mph S14.5 kmh S 14.9 mph24.0 kmh 29.47 in998.0 mb 0.00 in0.0 mm 0.00 in0.0 mm 0.16 in4.1 mm
08:37 AM 63.9°F17.7°C -25.3°F-31.8°C 1% 6.4 mph SSE10.3 kmh SSE 14.9 mph24.0 kmh 29.47 in998.0 mb 0.00 in0.0 mm 0.00 in0.0 mm 0.16 in4.1 mm
08:36 AM 63.9°F17.7°C -25.3°F-31.8°C 1% 7.8 mph S12.6 kmh S 14.9 mph24.0 kmh 29.47 in998.0 mb 0.00 in0.0 mm 0.00 in0.0 mm 0.16 in4.1 mm
08:35 AM 63.9°F17.7°C -25.3°F-31.8°C 1% 8.3 mph S13.4 kmh S 14.9 mph24.0 kmh 29.47 in998.0 mb 0.00 in0.0 mm 0.00 in0.0 mm 0.16 in4.1 mm
08:34 AM 63.9°F17.7°C -25.3°F-31.8°C 1% 8.3 mph S13.4 kmh S 14.9 mph24.0 kmh 29.47 in998.0 mb 0.00 in0.0 mm 0.00 in0.0 mm 0.16 in4.1 mm
08:33 AM 63.7°F17.6°C -25.4°F-31.9°C 1% 7.8 mph SSE12.6 kmh SSE 14.9 mph24.0 kmh 29.47 in998.0 mb 0.00 in0.0 mm 0.00 in0.0 mm 0.16 in4.1 mm
08:32 AM 63.5°F17.5°C -25.5°F-31.9°C 1% 6.5 mph SSE10.5 kmh SSE 12.1 mph19.5 kmh 29.47 in998.0 mb 0.00 in0.0 mm 0.00 in0.0 mm 0.16 in4.1 mm
08:31 AM 63.5°F17.5°C -25.5°F-31.9°C 1% 7.6 mph SE12.2 kmh SE 14.5 mph23.3 kmh 29.47 in998.0 mb 0.00 in0.0 mm 0.00 in0.0 mm 0.16 in4.1 mm
08:30 AM 63.3°F17.4°C -25.7°F-32.1°C 1% 7.9 mph SE12.7 kmh SE 14.5 mph23.3 kmh 29.47 in998.0 mb 0.00 in0.0 mm 0.00 in0.0 mm 0.16 in4.1 mm
08:29 AM 63.3°F17.4°C -25.7°F-32.1°C 1% 6.9 mph S11.1 kmh S 14.5 mph23.3 kmh 29.47 in998.0 mb 0.00 in0.0 mm 0.00 in0.0 mm 0.16 in4.1 mm
08:28 AM 63.2°F17.3°C -25.7°F-32.1°C 1% 6.8 mph S10.9 kmh S 14.5 mph23.3 kmh 29.47 in998.0 mb 0.00 in0.0 mm 0.00 in0.0 mm 0.16 in4.1 mm
08:27 AM 63.2°F17.3°C -25.7°F-32.1°C 1% 5.9 mph S9.5 kmh S 14.5 mph23.3 kmh 29.47 in998.0 mb 0.00 in0.0 mm 0.00 in0.0 mm 0.16 in4.1 mm
08:26 AM 63.2°F17.3°C -25.7°F-32.1°C 1% 4.4 mph S7.1 kmh S 16.1 mph25.9 kmh 29.47 in998.0 mb 0.00 in0.0 mm 0.00 in0.0 mm 0.16 in4.1 mm
08:25 AM 63.0°F17.2°C -25.8°F-32.1°C 1% 5.5 mph S8.9 kmh S 16.1 mph25.9 kmh 29.46 in997.6 mb 0.00 in0.0 mm 0.00 in0.0 mm 0.16 in4.1 mm
08:24 AM 63.0°F17.2°C -25.8°F-32.1°C 1% 8.1 mph S13.0 kmh S 16.1 mph25.9 kmh 29.46 in997.6 mb 0.00 in0.0 mm 0.00 in0.0 mm 0.16 in4.1 mm
08:23 AM 63.0°F17.2°C -25.8°F-32.1°C 1% 9.2 mph S14.8 kmh S 16.1 mph25.9 kmh 29.46 in997.6 mb 0.00 in0.0 mm 0.00 in0.0 mm 0.16 in4.1 mm
08:22 AM 62.9°F17.2°C -26.0°F-32.2°C 1% 8.4 mph S13.5 kmh S 16.1 mph25.9 kmh 29.46 in997.6 mb 0.00 in0.0 mm 0.00 in0.0 mm 0.16 in4.1 mm
08:21 AM 62.7°F17.1°C -26.1°F-32.3°C 1% 8.2 mph S13.2 kmh S 16.1 mph25.9 kmh 29.46 in997.6 mb 0.00 in0.0 mm 0.00 in0.0 mm 0.16 in4.1 mm
08:20 AM 62.7°F17.1°C -26.1°F-32.3°C 1% 8.9 mph S14.3 kmh S 16.1 mph25.9 kmh 29.46 in997.6 mb 0.00 in0.0 mm 0.00 in0.0 mm 0.16 in4.1 mm
08:19 AM 62.7°F17.1°C -26.1°F-32.3°C 1% 8.9 mph S14.3 kmh S 16.1 mph25.9 kmh 29.46 in997.6 mb 0.00 in0.0 mm 0.00 in0.0 mm 0.16 in4.1 mm
08:18 AM 62.5°F16.9°C -26.2°F-32.3°C 1% 8.8 mph SE14.2 kmh SE 16.1 mph25.9 kmh 29.46 in997.6 mb 0.00 in0.0 mm 0.00 in0.0 mm 0.16 in4.1 mm
08:17 AM 62.5°F16.9°C -26.2°F-32.3°C 1% 7.9 mph SSE12.7 kmh SSE 17.1 mph27.5 kmh 29.46 in997.6 mb 0.00 in0.0 mm 0.00 in0.0 mm 0.16 in4.1 mm
08:16 AM 62.5°F16.9°C -26.2°F-32.3°C 1% 6.5 mph S10.5 kmh S 17.1 mph27.5 kmh 29.46 in997.6 mb 0.00 in0.0 mm 0.00 in0.0 mm 0.16 in4.1 mm
08:15 AM 62.5°F16.9°C -26.2°F-32.3°C 1% 6.0 mph SSE9.7 kmh SSE 17.1 mph27.5 kmh 29.46 in997.6 mb 0.00 in0.0 mm 0.00 in0.0 mm 0.16 in4.1 mm
08:14 AM 62.4°F16.9°C -26.3°F-32.4°C 1% 6.4 mph S10.3 kmh S 17.1 mph27.5 kmh 29.46 in997.6 mb 0.00 in0.0 mm 0.00 in0.0 mm 0.16 in4.1 mm
08:13 AM 62.5°F16.9°C -26.2°F-32.3°C 1% 7.8 mph S12.6 kmh S 17.7 mph28.5 kmh 29.46 in997.6 mb 0.00 in0.0 mm 0.00 in0.0 mm 0.16 in4.1 mm
08:12 AM 62.4°F16.9°C -26.3°F-32.4°C 1% 9.7 mph SSW15.6 kmh SSW 17.7 mph28.5 kmh 29.46 in997.6 mb 0.00 in0.0 mm 0.00 in0.0 mm 0.16 in4.1 mm
08:11 AM 62.4°F16.9°C -26.3°F-32.4°C 1% 10.5 mph S16.9 kmh S 17.7 mph28.5 kmh 29.46 in997.6 mb 0.00 in0.0 mm 0.00 in0.0 mm 0.16 in4.1 mm
08:10 AM 62.4°F16.9°C -26.3°F-32.4°C 1% 9.2 mph SSE14.8 kmh SSE 17.7 mph28.5 kmh 29.46 in997.6 mb 0.00 in0.0 mm 0.00 in0.0 mm 0.16 in4.1 mm
08:09 AM 62.4°F16.9°C -26.3°F-32.4°C 1% 8.6 mph SSE13.8 kmh SSE 17.7 mph28.5 kmh 29.46 in997.6 mb 0.00 in0.0 mm 0.00 in0.0 mm 0.16 in4.1 mm
08:08 AM 62.4°F16.9°C -26.3°F-32.4°C 1% 8.3 mph SSE13.4 kmh SSE 17.7 mph28.5 kmh 29.46 in997.6 mb 0.00 in0.0 mm 0.00 in0.0 mm 0.16 in4.1 mm
08:07 AM 62.2°F16.8°C -26.4°F-32.4°C 1% 7.1 mph S11.4 kmh S 17.7 mph28.5 kmh 29.46 in997.6 mb 0.00 in0.0 mm 0.00 in0.0 mm 0.16 in4.1 mm
08:06 AM 62.2°F16.8°C -26.4°F-32.4°C 1% 6.8 mph S10.9 kmh S 17.7 mph28.5 kmh 29.46 in997.6 mb 0.00 in0.0 mm 0.00 in0.0 mm 0.16 in4.1 mm
08:05 AM 62.2°F16.8°C -26.4°F-32.4°C 1% 7.0 mph S11.3 kmh S 17.7 mph28.5 kmh 29.46 in997.6 mb 0.00 in0.0 mm 0.00 in0.0 mm 0.16 in4.1 mm
08:04 AM 62.2°F16.8°C -26.4°F-32.4°C 1% 7.7 mph S12.4 kmh S 17.7 mph28.5 kmh 29.46 in997.6 mb 0.00 in0.0 mm 0.00 in0.0 mm 0.16 in4.1 mm
08:03 AM 62.2°F16.8°C -26.4°F-32.4°C 1% 8.4 mph S13.5 kmh S 14.9 mph24.0 kmh 29.46 in997.6 mb 0.00 in0.0 mm 0.00 in0.0 mm 0.16 in4.1 mm
08:02 AM 62.0°F16.7°C -26.5°F-32.5°C 1% 11.1 mph SSE17.9 kmh SSE 14.9 mph24.0 kmh 29.46 in997.6 mb 0.00 in0.0 mm 0.00 in0.0 mm 0.16 in4.1 mm
08:01 AM 62.0°F16.7°C -26.5°F-32.5°C 1% 10.5 mph S16.9 kmh S 14.9 mph24.0 kmh 29.46 in997.6 mb 0.00 in0.0 mm 0.00 in0.0 mm 0.16 in4.1 mm
08:00 AM 62.0°F16.7°C -26.5°F-32.5°C 1% 9.1 mph S14.6 kmh S 14.9 mph24.0 kmh 29.46 in997.6 mb 0.00 in0.0 mm 0.00 in0.0 mm 0.16 in4.1 mm
07:59 AM 62.0°F16.7°C -26.5°F-32.5°C 1% 8.5 mph S13.7 kmh S 14.9 mph24.0 kmh 29.45 in997.3 mb 0.00 in0.0 mm 0.00 in0.0 mm 0.16 in4.1 mm
07:58 AM 62.0°F16.7°C -26.5°F-32.5°C 1% 6.1 mph SSE9.8 kmh SSE 14.9 mph24.0 kmh 29.45 in997.3 mb 0.00 in0.0 mm 0.00 in0.0 mm 0.16 in4.1 mm
07:57 AM 61.8°F16.6°C -26.7°F-32.6°C 1% 4.9 mph S7.9 kmh S 18.0 mph29.0 kmh 29.45 in997.3 mb 0.00 in0.0 mm 0.00 in0.0 mm 0.16 in4.1 mm
07:56 AM 61.8°F16.6°C -26.7°F-32.6°C 1% 6.5 mph S10.5 kmh S 18.0 mph29.0 kmh 29.45 in997.3 mb 0.00 in0.0 mm 0.00 in0.0 mm 0.16 in4.1 mm
07:55 AM 61.8°F16.6°C -26.7°F-32.6°C 1% 7.0 mph S11.3 kmh S 18.0 mph29.0 kmh 29.45 in997.3 mb 0.00 in0.0 mm 0.00 in0.0 mm 0.16 in4.1 mm
07:54 AM 61.8°F16.6°C -26.7°F-32.6°C 1% 7.2 mph SSE11.6 kmh SSE 18.4 mph29.6 kmh 29.45 in997.3 mb 0.00 in0.0 mm 0.00 in0.0 mm 0.16 in4.1 mm
07:53 AM 61.5°F16.4°C -26.8°F-32.7°C 1% 5.2 mph SSE8.4 kmh SSE 18.4 mph29.6 kmh 29.45 in997.3 mb 0.00 in0.0 mm 0.00 in0.0 mm 0.16 in4.1 mm
07:52 AM 61.5°F16.4°C -26.8°F-32.7°C 1% 4.0 mph S6.4 kmh S 18.4 mph29.6 kmh 29.45 in997.3 mb 0.00 in0.0 mm 0.00 in0.0 mm 0.16 in4.1 mm
07:51 AM 61.5°F16.4°C -26.8°F-32.7°C 1% 6.6 mph S10.6 kmh S 18.4 mph29.6 kmh 29.45 in997.3 mb 0.00 in0.0 mm 0.00 in0.0 mm 0.16 in4.1 mm
07:50 AM 61.5°F16.4°C -26.8°F-32.7°C 1% 8.3 mph SSE13.4 kmh SSE 18.4 mph29.6 kmh 29.45 in997.3 mb 0.00 in0.0 mm 0.00 in0.0 mm 0.16 in4.1 mm
07:49 AM 61.5°F16.4°C -26.8°F-32.7°C 1% 10.1 mph SSE16.3 kmh SSE 18.4 mph29.6 kmh 29.45 in997.3 mb 0.00 in0.0 mm 0.00 in0.0 mm 0.16 in4.1 mm
07:48 AM 61.3°F16.3°C -27.0°F-32.8°C 1% 9.9 mph SSE15.9 kmh SSE 18.4 mph29.6 kmh 29.45 in997.3 mb 0.00 in0.0 mm 0.00 in0.0 mm 0.16 in4.1 mm
07:47 AM 61.3°F16.3°C -27.0°F-32.8°C 1% 10.3 mph S16.6 kmh S 18.4 mph29.6 kmh 29.45 in997.3 mb 0.00 in0.0 mm 0.00 in0.0 mm 0.16 in4.1 mm
07:46 AM 61.3°F16.3°C -27.0°F-32.8°C 1% 12.1 mph S19.5 kmh S 18.4 mph29.6 kmh 29.45 in997.3 mb 0.00 in0.0 mm 0.00 in0.0 mm 0.16 in4.1 mm
07:45 AM 61.3°F16.3°C -27.0°F-32.8°C 1% 9.1 mph S14.6 kmh S 18.4 mph29.6 kmh 29.45 in997.3 mb 0.00 in0.0 mm 0.00 in0.0 mm 0.16 in4.1 mm
07:44 AM 61.1°F16.2°C -27.1°F-32.8°C 1% 7.6 mph S12.2 kmh S 16.8 mph27.0 kmh 29.45 in997.3 mb 0.00 in0.0 mm 0.00 in0.0 mm 0.16 in4.1 mm
07:43 AM 61.3°F16.3°C -27.0°F-32.8°C 1% 8.2 mph S13.2 kmh S 16.8 mph27.0 kmh 29.45 in997.3 mb 0.00 in0.0 mm 0.00 in0.0 mm 0.16 in4.1 mm
07:42 AM 61.1°F16.2°C -27.1°F-32.8°C 1% 7.2 mph S11.6 kmh S 16.8 mph27.0 kmh 29.45 in997.3 mb 0.00 in0.0 mm 0.00 in0.0 mm 0.16 in4.1 mm
07:41 AM 61.1°F16.2°C -27.1°F-32.8°C 1% 8.2 mph S13.2 kmh S 16.8 mph27.0 kmh 29.45 in997.3 mb 0.00 in0.0 mm 0.00 in0.0 mm 0.16 in4.1 mm
07:40 AM 61.1°F16.2°C -27.1°F-32.8°C 1% 10.5 mph S16.9 kmh S 16.8 mph27.0 kmh 29.45 in997.3 mb 0.00 in0.0 mm 0.00 in0.0 mm 0.16 in4.1 mm
07:39 AM 61.1°F16.2°C -27.1°F-32.8°C 1% 9.8 mph S15.8 kmh S 16.8 mph27.0 kmh 29.45 in997.3 mb 0.00 in0.0 mm 0.00 in0.0 mm 0.16 in4.1 mm
07:38 AM 61.1°F16.2°C -27.1°F-32.8°C 1% 8.8 mph SSE14.2 kmh SSE 15.6 mph25.1 kmh 29.45 in997.3 mb 0.00 in0.0 mm 0.00 in0.0 mm 0.16 in4.1 mm
07:37 AM 61.1°F16.2°C -27.1°F-32.8°C 1% 8.8 mph SSE14.2 kmh SSE 14.9 mph24.0 kmh 29.45 in997.3 mb 0.00 in0.0 mm 0.00 in0.0 mm 0.16 in4.1 mm
07:36 AM 61.1°F16.2°C -27.1°F-32.8°C 1% 8.0 mph SSE12.9 kmh SSE 14.9 mph24.0 kmh 29.45 in997.3 mb 0.00 in0.0 mm 0.00 in0.0 mm 0.16 in4.1 mm
07:35 AM 61.1°F16.2°C -27.1°F-32.8°C 1% 6.0 mph S9.7 kmh S 14.9 mph24.0 kmh 29.45 in997.3 mb 0.00 in0.0 mm 0.00 in0.0 mm 0.16 in4.1 mm
07:34 AM 61.1°F16.2°C -27.1°F-32.8°C 1% 6.5 mph SSW10.5 kmh SSW 14.9 mph24.0 kmh 29.45 in997.3 mb 0.00 in0.0 mm 0.00 in0.0 mm 0.16 in4.1 mm
07:33 AM 61.1°F16.2°C -27.1°F-32.8°C 1% 7.6 mph S12.2 kmh S 14.9 mph24.0 kmh 29.45 in997.3 mb 0.00 in0.0 mm 0.00 in0.0 mm 0.16 in4.1 mm
07:32 AM 60.9°F16.1°C -27.2°F-32.9°C 1% 7.5 mph S12.1 kmh S 15.2 mph24.5 kmh 29.45 in997.3 mb 0.00 in0.0 mm 0.00 in0.0 mm 0.16 in4.1 mm
07:31 AM 60.9°F16.1°C -27.2°F-32.9°C 1% 7.0 mph S11.3 kmh S 15.2 mph24.5 kmh 29.45 in997.3 mb 0.00 in0.0 mm 0.00 in0.0 mm 0.16 in4.1 mm
07:30 AM 60.9°F16.1°C -27.2°F-32.9°C 1% 7.3 mph S11.7 kmh S 15.2 mph24.5 kmh 29.45 in997.3 mb 0.00 in0.0 mm 0.00 in0.0 mm 0.16 in4.1 mm
07:29 AM 60.9°F16.1°C -27.2°F-32.9°C 1% 8.0 mph S12.9 kmh S 15.2 mph24.5 kmh 29.45 in997.3 mb 0.00 in0.0 mm 0.00 in0.0 mm 0.16 in4.1 mm
07:28 AM 60.9°F16.1°C -27.2°F-32.9°C 1% 8.9 mph SSE14.3 kmh SSE 16.1 mph25.9 kmh 29.45 in997.3 mb 0.00 in0.0 mm 0.00 in0.0 mm 0.16 in4.1 mm
07:27 AM 60.9°F16.1°C -27.2°F-32.9°C 1% 8.2 mph SSE13.2 kmh SSE 16.1 mph25.9 kmh 29.45 in997.3 mb 0.00 in0.0 mm 0.00 in0.0 mm 0.16 in4.1 mm
07:26 AM 60.9°F16.1°C -27.2°F-32.9°C 1% 6.5 mph SSE10.5 kmh SSE 16.1 mph25.9 kmh 29.45 in997.3 mb 0.00 in0.0 mm 0.00 in0.0 mm 0.16 in4.1 mm
07:25 AM 60.9°F16.1°C -27.2°F-32.9°C 1% 6.5 mph S10.5 kmh S 16.1 mph25.9 kmh 29.45 in997.3 mb 0.00 in0.0 mm 0.00 in0.0 mm 0.16 in4.1 mm
07:24 AM 60.9°F16.1°C -27.2°F-32.9°C 1% 6.9 mph S11.1 kmh S 16.1 mph25.9 kmh 29.45 in997.3 mb 0.00 in0.0 mm 0.00 in0.0 mm 0.16 in4.1 mm
07:23 AM 60.9°F16.1°C -27.2°F-32.9°C 1% 7.6 mph SSE12.2 kmh SSE 16.1 mph25.9 kmh 29.45 in997.3 mb 0.00 in0.0 mm 0.00 in0.0 mm 0.16 in4.1 mm
07:22 AM 60.9°F16.1°C -27.2°F-32.9°C 1% 8.8 mph SSE14.2 kmh SSE 16.1 mph25.9 kmh 29.45 in997.3 mb 0.00 in0.0 mm 0.00 in0.0 mm 0.16 in4.1 mm
07:21 AM 60.9°F16.1°C -27.2°F-32.9°C 1% 7.6 mph S12.2 kmh S 16.1 mph25.9 kmh 29.45 in997.3 mb 0.00 in0.0 mm 0.00 in0.0 mm 0.16 in4.1 mm
07:20 AM 60.9°F16.1°C -27.2°F-32.9°C 1% 8.1 mph SSE13.0 kmh SSE 16.1 mph25.9 kmh 29.45 in997.3 mb 0.00 in0.0 mm 0.00 in0.0 mm 0.16 in4.1 mm
07:19 AM 60.9°F16.1°C -27.2°F-32.9°C 1% 9.7 mph SSE15.6 kmh SSE 16.1 mph25.9 kmh 29.45 in997.3 mb 0.00 in0.0 mm 0.00 in0.0 mm 0.16 in4.1 mm
07:18 AM 61.1°F16.2°C -27.1°F-32.8°C 1% 9.0 mph SSE14.5 kmh SSE 16.1 mph25.9 kmh 29.45 in997.3 mb 0.00 in0.0 mm 0.00 in0.0 mm 0.16 in4.1 mm
07:17 AM 61.1°F16.2°C -27.1°F-32.8°C 1% 7.2 mph SSE11.6 kmh SSE 14.9 mph24.0 kmh 29.45 in997.3 mb 0.00 in0.0 mm 0.00 in0.0 mm 0.16 in4.1 mm
07:16 AM 61.1°F16.2°C -27.1°F-32.8°C 1% 5.7 mph SSE9.2 kmh SSE 14.9 mph24.0 kmh 29.45 in997.3 mb 0.00 in0.0 mm 0.00 in0.0 mm 0.16 in4.1 mm
07:15 AM 61.1°F16.2°C -27.1°F-32.8°C 1% 4.8 mph S7.7 kmh S 14.9 mph24.0 kmh 29.45 in997.3 mb 0.00 in0.0 mm 0.00 in0.0 mm 0.16 in4.1 mm
07:14 AM 61.1°F16.2°C -27.1°F-32.8°C 1% 4.9 mph S7.9 kmh S 14.9 mph24.0 kmh 29.45 in997.3 mb 0.00 in0.0 mm 0.00 in0.0 mm 0.16 in4.1 mm
07:13 AM 61.1°F16.2°C -27.1°F-32.8°C 1% 6.9 mph SSE11.1 kmh SSE 14.9 mph24.0 kmh 29.45 in997.3 mb 0.00 in0.0 mm 0.00 in0.0 mm 0.16 in4.1 mm
07:12 AM 61.1°F16.2°C -27.1°F-32.8°C 1% 8.4 mph SSE13.5 kmh SSE 14.9 mph24.0 kmh 29.45 in997.3 mb 0.00 in0.0 mm 0.00 in0.0 mm 0.16 in4.1 mm
07:11 AM 61.1°F16.2°C -27.1°F-32.8°C 1% 8.5 mph SSE13.7 kmh SSE 14.9 mph24.0 kmh 29.45 in997.3 mb 0.00 in0.0 mm 0.00 in0.0 mm 0.16 in4.1 mm
07:10 AM 61.1°F16.2°C -27.1°F-32.8°C 1% 7.1 mph S11.4 kmh S 14.9 mph24.0 kmh 29.45 in997.3 mb 0.00 in0.0 mm 0.00 in0.0 mm 0.16 in4.1 mm
07:09 AM 61.1°F16.2°C -27.1°F-32.8°C 1% 6.3 mph S10.1 kmh S 14.9 mph24.0 kmh 29.45 in997.3 mb 0.00 in0.0 mm 0.00 in0.0 mm 0.16 in4.1 mm
07:08 AM 61.1°F16.2°C -27.1°F-32.8°C 1% 4.8 mph SSE7.7 kmh SSE 14.9 mph24.0 kmh 29.45 in997.3 mb 0.00 in0.0 mm 0.00 in0.0 mm 0.16 in4.1 mm
07:07 AM 61.1°F16.2°C -27.1°F-32.8°C 1% 5.0 mph SSE8.0 kmh SSE 14.9 mph24.0 kmh 29.45 in997.3 mb 0.00 in0.0 mm 0.00 in0.0 mm 0.16 in4.1 mm
07:06 AM 61.1°F16.2°C -27.1°F-32.8°C 1% 6.0 mph SSE9.7 kmh SSE 14.9 mph24.0 kmh 29.44 in997.0 mb 0.00 in0.0 mm 0.00 in0.0 mm 0.16 in4.1 mm
07:05 AM 61.1°F16.2°C -27.1°F-32.8°C 1% 6.7 mph SSE10.8 kmh SSE 14.9 mph24.0 kmh 29.44 in997.0 mb 0.00 in0.0 mm 0.00 in0.0 mm 0.16 in4.1 mm
07:04 AM 60.9°F16.1°C -27.2°F-32.9°C 1% 7.3 mph S11.7 kmh S 14.9 mph24.0 kmh 29.44 in997.0 mb 0.00 in0.0 mm 0.00 in0.0 mm 0.16 in4.1 mm
07:03 AM 60.9°F16.1°C -27.2°F-32.9°C 1% 6.8 mph SSE10.9 kmh SSE 14.9 mph24.0 kmh 29.44 in997.0 mb 0.00 in0.0 mm 0.00 in0.0 mm 0.16 in4.1 mm
07:02 AM 60.9°F16.1°C -27.2°F-32.9°C 1% 7.4 mph SSE11.9 kmh SSE 14.9 mph24.0 kmh 29.44 in997.0 mb 0.00 in0.0 mm 0.00 in0.0 mm 0.16 in4.1 mm
07:01 AM 60.7°F15.9°C -27.3°F-32.9°C 1% 8.3 mph S13.4 kmh S 14.9 mph24.0 kmh 29.44 in997.0 mb 0.00 in0.0 mm 0.00 in0.0 mm 0.16 in4.1 mm
07:00 AM 60.7°F15.9°C -27.3°F-32.9°C 1% 6.5 mph S10.5 kmh S 14.9 mph24.0 kmh 29.44 in997.0 mb 0.00 in0.0 mm 0.00 in0.0 mm 0.16 in4.1 mm
06:59 AM 60.7°F15.9°C -27.3°F-32.9°C 1% 5.5 mph S8.9 kmh S 14.9 mph24.0 kmh 29.44 in997.0 mb 0.00 in0.0 mm 0.00 in0.0 mm 0.16 in4.1 mm
06:58 AM 60.6°F15.9°C -27.4°F-33.0°C 1% 7.4 mph SE11.9 kmh SE 14.9 mph24.0 kmh 29.44 in997.0 mb 0.00 in0.0 mm 0.00 in0.0 mm 0.16 in4.1 mm
06:57 AM 60.6°F15.9°C -27.4°F-33.0°C 1% 8.5 mph SSE13.7 kmh SSE 14.9 mph24.0 kmh 29.44 in997.0 mb 0.00 in0.0 mm 0.00 in0.0 mm 0.16 in4.1 mm
06:56 AM 60.6°F15.9°C -27.4°F-33.0°C 1% 7.0 mph SSE11.3 kmh SSE 13.3 mph21.4 kmh 29.44 in997.0 mb 0.01 in0.3 mm 0.00 in0.0 mm 0.16 in4.1 mm
06:55 AM 60.4°F15.8°C -27.5°F-33.1°C 1% 6.0 mph SE9.7 kmh SE 13.3 mph21.4 kmh 29.44 in997.0 mb 0.01 in0.3 mm 0.00 in0.0 mm 0.16 in4.1 mm
06:54 AM 60.4°F15.8°C -27.5°F-33.1°C 1% 6.6 mph SE10.6 kmh SE 13.3 mph21.4 kmh 29.44 in997.0 mb 0.01 in0.3 mm 0.00 in0.0 mm 0.16 in4.1 mm
06:53 AM 60.4°F15.8°C -27.5°F-33.1°C 1% 7.7 mph SE12.4 kmh SE 13.3 mph21.4 kmh 29.44 in997.0 mb 0.01 in0.3 mm 0.00 in0.0 mm 0.16 in4.1 mm
06:52 AM 60.4°F15.8°C -27.5°F-33.1°C 1% 8.0 mph SE12.9 kmh SE 13.3 mph21.4 kmh 29.44 in997.0 mb 0.01 in0.3 mm 0.00 in0.0 mm 0.16 in4.1 mm
06:51 AM 60.4°F15.8°C -27.5°F-33.1°C 1% 7.9 mph SSE12.7 kmh SSE 13.3 mph21.4 kmh 29.44 in997.0 mb 0.01 in0.3 mm 0.00 in0.0 mm 0.16 in4.1 mm
06:50 AM 60.4°F15.8°C -27.5°F-33.1°C 1% 7.6 mph S12.2 kmh S 13.3 mph21.4 kmh 29.44 in997.0 mb 0.01 in0.3 mm 0.00 in0.0 mm 0.16 in4.1 mm
06:49 AM 60.4°F15.8°C -27.5°F-33.1°C 1% 7.5 mph S12.1 kmh S 13.3 mph21.4 kmh 29.44 in997.0 mb 0.01 in0.3 mm 0.00 in0.0 mm 0.16 in4.1 mm
06:48 AM 60.2°F15.7°C -27.7°F-33.2°C 1% 7.2 mph SSE11.6 kmh SSE 13.3 mph21.4 kmh 29.44 in997.0 mb 0.01 in0.3 mm 0.00 in0.0 mm 0.16 in4.1 mm
06:47 AM 60.2°F15.7°C -27.7°F-33.2°C 1% 6.9 mph SSE11.1 kmh SSE 12.9 mph20.8 kmh 29.44 in997.0 mb 0.01 in0.3 mm 0.00 in0.0 mm 0.16 in4.1 mm
06:46 AM 60.2°F15.7°C -27.7°F-33.2°C 1% 7.1 mph SSE11.4 kmh SSE 12.9 mph20.8 kmh 29.44 in997.0 mb 0.01 in0.3 mm 0.00 in0.0 mm 0.16 in4.1 mm
06:45 AM 60.2°F15.7°C -27.7°F-33.2°C 1% 6.7 mph SSE10.8 kmh SSE 12.9 mph20.8 kmh 29.44 in997.0 mb 0.01 in0.3 mm 0.00 in0.0 mm 0.16 in4.1 mm
06:44 AM 60.4°F15.8°C -27.5°F-33.1°C 1% 7.5 mph S12.1 kmh S 12.9 mph20.8 kmh 29.44 in997.0 mb 0.01 in0.3 mm 0.00 in0.0 mm 0.16 in4.1 mm
06:43 AM 60.2°F15.7°C -27.7°F-33.2°C 1% 8.2 mph S13.2 kmh S 13.3 mph21.4 kmh 29.44 in997.0 mb 0.01 in0.3 mm 0.00 in0.0 mm 0.16 in4.1 mm
06:42 AM 60.0°F15.6°C -27.8°F-33.2°C 1% 7.6 mph S12.2 kmh S 13.3 mph21.4 kmh 29.44 in997.0 mb 0.01 in0.3 mm 0.00 in0.0 mm 0.16 in4.1 mm
06:41 AM 60.0°F15.6°C -27.8°F-33.2°C 1% 7.7 mph S12.4 kmh S 13.3 mph21.4 kmh 29.44 in997.0 mb 0.01 in0.3 mm 0.00 in0.0 mm 0.16 in4.1 mm
06:40 AM 60.0°F15.6°C -27.8°F-33.2°C 1% 7.3 mph SSE11.7 kmh SSE 13.3 mph21.4 kmh 29.44 in997.0 mb 0.01 in0.3 mm 0.00 in0.0 mm 0.16 in4.1 mm
06:39 AM 60.0°F15.6°C -27.8°F-33.2°C 1% 6.3 mph S10.1 kmh S 13.3 mph21.4 kmh 29.44 in997.0 mb 0.01 in0.3 mm 0.00 in0.0 mm 0.16 in4.1 mm
06:38 AM 59.8°F15.4°C -27.9°F-33.3°C 1% 6.2 mph S10.0 kmh S 13.3 mph21.4 kmh 29.44 in997.0 mb 0.01 in0.3 mm 0.00 in0.0 mm 0.16 in4.1 mm
06:37 AM 59.8°F15.4°C -27.9°F-33.3°C 1% 7.1 mph SSE11.4 kmh SSE 13.3 mph21.4 kmh 29.44 in997.0 mb 0.01 in0.3 mm 0.00 in0.0 mm 0.16 in4.1 mm
06:36 AM 59.8°F15.4°C -27.9°F-33.3°C 1% 7.6 mph SE12.2 kmh SE 13.3 mph21.4 kmh 29.44 in997.0 mb 0.01 in0.3 mm 0.00 in0.0 mm 0.16 in4.1 mm
06:35 AM 59.8°F15.4°C -27.9°F-33.3°C 1% 7.3 mph SSE11.7 kmh SSE 13.3 mph21.4 kmh 29.44 in997.0 mb 0.01 in0.3 mm 0.00 in0.0 mm 0.16 in4.1 mm
06:34 AM 59.8°F15.4°C -27.9°F-33.3°C 1% 5.9 mph S9.5 kmh S 13.3 mph21.4 kmh 29.44 in997.0 mb 0.02 in0.5 mm 0.00 in0.0 mm 0.16 in4.1 mm
06:33 AM 59.8°F15.4°C -27.9°F-33.3°C 1% 5.5 mph S8.9 kmh S 13.3 mph21.4 kmh 29.44 in997.0 mb 0.02 in0.5 mm 0.00 in0.0 mm 0.16 in4.1 mm
06:32 AM 59.8°F15.4°C -27.9°F-33.3°C 1% 6.0 mph SSE9.7 kmh SSE 12.6 mph20.3 kmh 29.44 in997.0 mb 0.02 in0.5 mm 0.00 in0.0 mm 0.16 in4.1 mm
06:31 AM 59.8°F15.4°C -28.0°F-33.3°C 1% 6.4 mph SE10.3 kmh SE 12.6 mph20.3 kmh 29.44 in997.0 mb 0.04 in1.0 mm 0.00 in0.0 mm 0.16 in4.1 mm
06:30 AM 59.8°F15.4°C -28.0°F-33.3°C 1% 7.6 mph SSE12.2 kmh SSE 12.6 mph20.3 kmh 29.44 in997.0 mb 0.04 in1.0 mm 0.00 in0.0 mm 0.16 in4.1 mm
06:29 AM 59.8°F15.4°C -28.0°F-33.3°C 1% 7.0 mph SSE11.3 kmh SSE 12.6 mph20.3 kmh 29.44 in997.0 mb 0.06 in1.5 mm 0.00 in0.0 mm 0.16 in4.1 mm
06:28 AM 59.8°F15.4°C -28.0°F-33.3°C 1% 5.2 mph S8.4 kmh S 12.6 mph20.3 kmh 29.44 in997.0 mb 0.06 in1.5 mm 0.00 in0.0 mm 0.16 in4.1 mm
06:27 AM 59.8°F15.4°C -27.9°F-33.3°C 1% 6.8 mph SSE10.9 kmh SSE 12.6 mph20.3 kmh 29.44 in997.0 mb 0.06 in1.5 mm 0.00 in0.0 mm 0.16 in4.1 mm
06:26 AM 59.8°F15.4°C -28.0°F-33.3°C 1% 8.1 mph SE13.0 kmh SE 12.6 mph20.3 kmh 29.44 in997.0 mb 0.07 in1.8 mm 0.00 in0.0 mm 0.16 in4.1 mm
06:25 AM 59.8°F15.4°C -27.9°F-33.3°C 1% 6.1 mph SE9.8 kmh SE 10.2 mph16.4 kmh 29.44 in997.0 mb 0.07 in1.8 mm 0.00 in0.0 mm 0.16 in4.1 mm
06:24 AM 59.8°F15.4°C -27.9°F-33.3°C 1% 5.2 mph SE8.4 kmh SE 8.9 mph14.3 kmh 29.44 in997.0 mb 0.07 in1.8 mm 0.00 in0.0 mm 0.16 in4.1 mm
06:23 AM 59.8°F15.4°C -28.0°F-33.3°C 1% 4.3 mph SE6.9 kmh SE 11.7 mph18.8 kmh 29.44 in997.0 mb 0.07 in1.8 mm 0.00 in0.0 mm 0.16 in4.1 mm
06:22 AM 59.8°F15.4°C -27.9°F-33.3°C 1% 4.4 mph S7.1 kmh S 11.7 mph18.8 kmh 29.44 in997.0 mb 0.07 in1.8 mm 0.00 in0.0 mm 0.16 in4.1 mm
06:21 AM 59.8°F15.4°C -27.9°F-33.3°C 1% 6.0 mph S9.7 kmh S 12.1 mph19.5 kmh 29.44 in997.0 mb 0.07 in1.8 mm 0.00 in0.0 mm 0.16 in4.1 mm
06:20 AM 59.8°F15.4°C -27.9°F-33.3°C 1% 5.9 mph S9.5 kmh S 12.1 mph19.5 kmh 29.44 in997.0 mb 0.08 in2.0 mm 0.00 in0.0 mm 0.16 in4.1 mm
06:19 AM 59.8°F15.4°C -27.9°F-33.3°C 1% 4.8 mph SSE7.7 kmh SSE 15.2 mph24.5 kmh 29.44 in997.0 mb 0.08 in2.0 mm 0.00 in0.0 mm 0.16 in4.1 mm
06:18 AM 59.8°F15.4°C -27.9°F-33.3°C 1% 4.0 mph S6.4 kmh S 15.2 mph24.5 kmh 29.44 in997.0 mb 0.08 in2.0 mm 0.00 in0.0 mm 0.16 in4.1 mm
06:17 AM 59.8°F15.4°C -27.9°F-33.3°C 1% 4.4 mph S7.1 kmh S 15.2 mph24.5 kmh 29.44 in997.0 mb 0.08 in2.0 mm 0.00 in0.0 mm 0.16 in4.1 mm
06:16 AM 59.8°F15.4°C -27.9°F-33.3°C 1% 4.7 mph SSE7.6 kmh SSE 15.2 mph24.5 kmh 29.44 in997.0 mb 0.08 in2.0 mm 0.00 in0.0 mm 0.16 in4.1 mm
06:15 AM 59.8°F15.4°C -27.9°F-33.3°C 1% 5.5 mph SSE8.9 kmh SSE 15.2 mph24.5 kmh 29.43 in996.6 mb 0.08 in2.0 mm 0.00 in0.0 mm 0.16 in4.1 mm
06:14 AM 59.8°F15.4°C -27.9°F-33.3°C 1% 6.6 mph SSE10.6 kmh SSE 15.2 mph24.5 kmh 29.44 in997.0 mb 0.08 in2.0 mm 0.00 in0.0 mm 0.16 in4.1 mm
06:13 AM 59.8°F15.4°C -27.9°F-33.3°C 1% 7.9 mph S12.7 kmh S 15.2 mph24.5 kmh 29.43 in996.6 mb 0.08 in2.0 mm 0.00 in0.0 mm 0.16 in4.1 mm
06:12 AM 59.8°F15.4°C -27.9°F-33.3°C 1% 7.8 mph SSE12.6 kmh SSE 15.2 mph24.5 kmh 29.44 in997.0 mb 0.08 in2.0 mm 0.00 in0.0 mm 0.16 in4.1 mm
06:11 AM 59.8°F15.4°C -28.0°F-33.3°C 1% 8.1 mph SSE13.0 kmh SSE 17.1 mph27.5 kmh 29.43 in996.6 mb 0.08 in2.0 mm 0.00 in0.0 mm 0.16 in4.1 mm
06:10 AM 59.8°F15.4°C -27.9°F-33.3°C 1% 10.4 mph SSE16.7 kmh SSE 17.1 mph27.5 kmh 29.44 in997.0 mb 0.08 in2.0 mm 0.00 in0.0 mm 0.16 in4.1 mm
06:09 AM 59.8°F15.4°C -27.9°F-33.3°C 1% 9.5 mph SSE15.3 kmh SSE 17.1 mph27.5 kmh 29.43 in996.6 mb 0.08 in2.0 mm 0.00 in0.0 mm 0.16 in4.1 mm
06:08 AM 59.8°F15.4°C -28.0°F-33.3°C 1% 7.7 mph SSE12.4 kmh SSE 17.1 mph27.5 kmh 29.43 in996.6 mb 0.08 in2.0 mm 0.00 in0.0 mm 0.16 in4.1 mm
06:07 AM 59.8°F15.4°C -27.9°F-33.3°C 1% 6.4 mph SSE10.3 kmh SSE 17.1 mph27.5 kmh 29.43 in996.6 mb 0.08 in2.0 mm 0.00 in0.0 mm 0.16 in4.1 mm
06:06 AM 59.8°F15.4°C -28.0°F-33.3°C 1% 5.6 mph S9.0 kmh S 17.1 mph27.5 kmh 29.43 in996.6 mb 0.08 in2.0 mm 0.00 in0.0 mm 0.16 in4.1 mm
06:05 AM 59.8°F15.4°C -28.0°F-33.3°C 1% 5.3 mph S8.5 kmh S 17.1 mph27.5 kmh 29.43 in996.6 mb 0.08 in2.0 mm 0.00 in0.0 mm 0.16 in4.1 mm
06:04 AM 59.8°F15.4°C -28.0°F-33.3°C 1% 6.0 mph S9.7 kmh S 17.1 mph27.5 kmh 29.43 in996.6 mb 0.08 in2.0 mm 0.00 in0.0 mm 0.16 in4.1 mm
06:03 AM 59.8°F15.4°C -28.0°F-33.3°C 1% 9.0 mph S14.5 kmh S 17.1 mph27.5 kmh 29.43 in996.6 mb 0.08 in2.0 mm 0.00 in0.0 mm 0.16 in4.1 mm
06:02 AM 59.8°F15.4°C -28.0°F-33.3°C 1% 8.3 mph S13.4 kmh S 17.1 mph27.5 kmh 29.43 in996.6 mb 0.08 in2.0 mm 0.00 in0.0 mm 0.16 in4.1 mm
06:01 AM 59.8°F15.4°C -28.0°F-33.3°C 1% 7.7 mph S12.4 kmh S 16.1 mph25.9 kmh 29.43 in996.6 mb 0.08 in2.0 mm 0.00 in0.0 mm 0.16 in4.1 mm
06:00 AM 59.8°F15.4°C -28.0°F-33.3°C 1% 7.4 mph S11.9 kmh S 16.1 mph25.9 kmh 29.43 in996.6 mb 0.08 in2.0 mm 0.00 in0.0 mm 0.16 in4.1 mm
05:59 AM 59.8°F15.4°C -28.0°F-33.3°C 1% 5.6 mph S9.0 kmh S 16.1 mph25.9 kmh 29.43 in996.6 mb 0.08 in2.0 mm 0.00 in0.0 mm 0.16 in4.1 mm
05:58 AM 59.8°F15.4°C -28.0°F-33.3°C 1% 6.2 mph SSE10.0 kmh SSE 16.1 mph25.9 kmh 29.43 in996.6 mb 0.08 in2.0 mm 0.00 in0.0 mm 0.16 in4.1 mm
05:57 AM 59.8°F15.4°C -28.0°F-33.3°C 1% 5.5 mph SE8.9 kmh SE 16.1 mph25.9 kmh 29.43 in996.6 mb 0.09 in2.3 mm 0.60 in15.2 mm 0.16 in4.1 mm
05:56 AM 59.8°F15.4°C -28.0°F-33.3°C 1% 4.7 mph SE7.6 kmh SE 16.1 mph25.9 kmh 29.43 in996.6 mb 0.08 in2.0 mm 0.00 in0.0 mm 0.15 in3.8 mm
05:55 AM 59.8°F15.4°C -28.0°F-33.3°C 1% 5.5 mph SE8.9 kmh SE 16.1 mph25.9 kmh 29.43 in996.6 mb 0.08 in2.0 mm 0.00 in0.0 mm 0.15 in3.8 mm
05:54 AM 59.8°F15.4°C -28.0°F-33.3°C 1% 6.4 mph SSE10.3 kmh SSE 16.1 mph25.9 kmh 29.43 in996.6 mb 0.08 in2.0 mm 0.00 in0.0 mm 0.15 in3.8 mm
05:53 AM 59.8°F15.4°C -28.0°F-33.3°C 1% 8.3 mph SE13.4 kmh SE 16.1 mph25.9 kmh 29.43 in996.6 mb 0.08 in2.0 mm 0.00 in0.0 mm 0.15 in3.8 mm
05:52 AM 59.8°F15.4°C -28.0°F-33.3°C 1% 9.5 mph SE15.3 kmh SE 16.1 mph25.9 kmh 29.43 in996.6 mb 0.08 in2.0 mm 0.00 in0.0 mm 0.15 in3.8 mm
05:51 AM 59.8°F15.4°C -28.0°F-33.3°C 1% 7.9 mph SE12.7 kmh SE 14.9 mph24.0 kmh 29.43 in996.6 mb 0.08 in2.0 mm 0.00 in0.0 mm 0.15 in3.8 mm
05:50 AM 59.6°F15.3°C -28.1°F-33.4°C 1% 6.9 mph SE11.1 kmh SE 14.9 mph24.0 kmh 29.43 in996.6 mb 0.08 in2.0 mm 0.00 in0.0 mm 0.15 in3.8 mm
05:49 AM 59.6°F15.3°C -28.1°F-33.4°C 1% 6.1 mph SE9.8 kmh SE 17.1 mph27.5 kmh 29.43 in996.6 mb 0.08 in2.0 mm 0.00 in0.0 mm 0.15 in3.8 mm
05:48 AM 59.8°F15.4°C -28.0°F-33.3°C 1% 4.9 mph SSE7.9 kmh SSE 17.1 mph27.5 kmh 29.43 in996.6 mb 0.08 in2.0 mm 0.00 in0.0 mm 0.15 in3.8 mm
05:47 AM 59.6°F15.3°C -28.1°F-33.4°C 1% 4.8 mph SSE7.7 kmh SSE 17.1 mph27.5 kmh 29.43 in996.6 mb 0.09 in2.3 mm 0.00 in0.0 mm 0.15 in3.8 mm
05:46 AM 59.6°F15.3°C -28.1°F-33.4°C 1% 5.3 mph SSE8.5 kmh SSE 17.1 mph27.5 kmh 29.43 in996.6 mb 0.09 in2.3 mm 0.00 in0.0 mm 0.15 in3.8 mm
05:45 AM 59.6°F15.3°C -28.1°F-33.4°C 1% 5.1 mph SSE8.2 kmh SSE 17.1 mph27.5 kmh 29.42 in996.3 mb 0.09 in2.3 mm 0.00 in0.0 mm 0.15 in3.8 mm
05:44 AM 59.6°F15.3°C -28.1°F-33.4°C 1% 5.4 mph SSE8.7 kmh SSE 17.1 mph27.5 kmh 29.42 in996.3 mb 0.09 in2.3 mm 0.00 in0.0 mm 0.15 in3.8 mm
05:43 AM 59.8°F15.4°C -28.0°F-33.3°C 1% 6.7 mph SE10.8 kmh SE 17.1 mph27.5 kmh 29.42 in996.3 mb 0.09 in2.3 mm 0.00 in0.0 mm 0.15 in3.8 mm
05:42 AM 59.8°F15.4°C -28.0°F-33.3°C 1% 8.0 mph SE12.9 kmh SE 17.1 mph27.5 kmh 29.43 in996.6 mb 0.09 in2.3 mm 0.00 in0.0 mm 0.15 in3.8 mm
05:41 AM 59.8°F15.4°C -28.0°F-33.3°C 1% 10.0 mph SSE16.1 kmh SSE 17.1 mph27.5 kmh 29.43 in996.6 mb 0.09 in2.3 mm 0.00 in0.0 mm 0.15 in3.8 mm
05:40 AM 59.8°F15.4°C -28.0°F-33.3°C 1% 10.0 mph SSE16.1 kmh SSE 17.1 mph27.5 kmh 29.42 in996.3 mb 0.09 in2.3 mm 0.00 in0.0 mm 0.15 in3.8 mm
05:39 AM 59.8°F15.4°C -28.0°F-33.3°C 1% 7.2 mph SE11.6 kmh SE 14.9 mph24.0 kmh 29.42 in996.3 mb 0.09 in2.3 mm 0.00 in0.0 mm 0.15 in3.8 mm
05:38 AM 59.8°F15.4°C -28.0°F-33.3°C 1% 5.5 mph SSE8.9 kmh SSE 14.9 mph24.0 kmh 29.42 in996.3 mb 0.09 in2.3 mm 0.00 in0.0 mm 0.15 in3.8 mm
05:37 AM 59.8°F15.4°C -28.0°F-33.3°C 1% 7.0 mph SE11.3 kmh SE 14.9 mph24.0 kmh 29.42 in996.3 mb 0.09 in2.3 mm 0.00 in0.0 mm 0.15 in3.8 mm
05:36 AM 59.8°F15.4°C -28.0°F-33.3°C 1% 7.7 mph SE12.4 kmh SE 14.9 mph24.0 kmh 29.42 in996.3 mb 0.09 in2.3 mm 0.00 in0.0 mm 0.15 in3.8 mm
05:35 AM 59.8°F15.4°C -28.0°F-33.3°C 1% 7.5 mph S12.1 kmh S 15.6 mph25.1 kmh 29.42 in996.3 mb 0.09 in2.3 mm 0.60 in15.2 mm 0.15 in3.8 mm
05:34 AM 59.8°F15.4°C -28.0°F-33.3°C 1% 7.4 mph SSE11.9 kmh SSE 15.6 mph25.1 kmh 29.42 in996.3 mb 0.08 in2.0 mm 0.00 in0.0 mm 0.14 in3.6 mm
05:33 AM 59.8°F15.4°C -28.0°F-33.3°C 1% 7.3 mph SE11.7 kmh SE 15.6 mph25.1 kmh 29.43 in996.6 mb 0.08 in2.0 mm 0.00 in0.0 mm 0.14 in3.6 mm
05:32 AM 59.8°F15.4°C -27.9°F-33.3°C 1% 7.5 mph SE12.1 kmh SE 15.6 mph25.1 kmh 29.42 in996.3 mb 0.08 in2.0 mm 1.20 in30.5 mm 0.14 in3.6 mm
05:31 AM 59.8°F15.4°C -27.9°F-33.3°C 1% 7.3 mph S11.7 kmh S 15.6 mph25.1 kmh 29.43 in996.6 mb 0.06 in1.5 mm 0.00 in0.0 mm 0.12 in3.0 mm
05:30 AM 59.8°F15.4°C -27.9°F-33.3°C 1% 7.4 mph S11.9 kmh S 15.6 mph25.1 kmh 29.43 in996.6 mb 0.06 in1.5 mm 1.20 in30.5 mm 0.12 in3.0 mm
05:29 AM 59.8°F15.4°C -27.9°F-33.3°C 1% 7.4 mph S11.9 kmh S 15.6 mph25.1 kmh 29.43 in996.6 mb 0.04 in1.0 mm 0.00 in0.0 mm 0.11 in2.8 mm
05:28 AM 59.8°F15.4°C -27.9°F-33.3°C 1% 7.2 mph SSE11.6 kmh SSE 15.6 mph25.1 kmh 29.43 in996.6 mb 0.04 in1.0 mm 0.00 in0.0 mm 0.11 in2.8 mm
05:27 AM 59.8°F15.4°C -27.9°F-33.3°C 1% 7.1 mph S11.4 kmh S 15.6 mph25.1 kmh 29.43 in996.6 mb 0.04 in1.0 mm 0.60 in15.2 mm 0.11 in2.8 mm
05:26 AM 59.8°F15.4°C -27.9°F-33.3°C 1% 7.8 mph S12.6 kmh S 15.6 mph25.1 kmh 29.43 in996.6 mb 0.03 in0.8 mm 0.00 in0.0 mm 0.10 in2.5 mm
05:25 AM 59.8°F15.4°C -27.9°F-33.3°C 1% 6.9 mph S11.1 kmh S 14.2 mph22.9 kmh 29.43 in996.6 mb 0.03 in0.8 mm 0.00 in0.0 mm 0.10 in2.5 mm
05:24 AM 59.8°F15.4°C -27.9°F-33.3°C 1% 6.0 mph SSE9.7 kmh SSE 14.2 mph22.9 kmh 29.43 in996.6 mb 0.03 in0.8 mm 0.00 in0.0 mm 0.10 in2.5 mm
05:23 AM 59.8°F15.4°C -27.9°F-33.3°C 1% 5.0 mph S8.0 kmh S 13.7 mph22.0 kmh 29.43 in996.6 mb 0.03 in0.8 mm 0.00 in0.0 mm 0.10 in2.5 mm
05:22 AM 60.0°F15.6°C -27.8°F-33.2°C 1% 6.7 mph SE10.8 kmh SE 13.7 mph22.0 kmh 29.42 in996.3 mb 0.03 in0.8 mm 0.00 in0.0 mm 0.10 in2.5 mm
05:21 AM 60.0°F15.6°C -27.8°F-33.2°C 1% 8.0 mph SE12.9 kmh SE 13.7 mph22.0 kmh 29.43 in996.6 mb 0.03 in0.8 mm 0.60 in15.2 mm 0.10 in2.5 mm
05:20 AM 60.0°F15.6°C -27.8°F-33.2°C 1% 6.8 mph SE10.9 kmh SE 13.7 mph22.0 kmh 29.43 in996.6 mb 0.02 in0.5 mm 0.00 in0.0 mm 0.09 in2.3 mm
05:19 AM 60.0°F15.6°C -27.8°F-33.2°C 1% 8.1 mph SSE13.0 kmh SSE 13.7 mph22.0 kmh 29.42 in996.3 mb 0.02 in0.5 mm 0.00 in0.0 mm 0.09 in2.3 mm
05:18 AM 60.0°F15.6°C -27.8°F-33.2°C 1% 7.4 mph SSE11.9 kmh SSE 13.7 mph22.0 kmh 29.43 in996.6 mb 0.02 in0.5 mm 0.00 in0.0 mm 0.09 in2.3 mm
05:17 AM 60.0°F15.6°C -27.8°F-33.2°C 1% 5.3 mph S8.5 kmh S 12.1 mph19.5 kmh 29.42 in996.3 mb 0.02 in0.5 mm 0.00 in0.0 mm 0.09 in2.3 mm
05:16 AM 60.0°F15.6°C -27.8°F-33.2°C 1% 5.6 mph S9.0 kmh S 12.1 mph19.5 kmh 29.42 in996.3 mb 0.02 in0.5 mm 0.00 in0.0 mm 0.09 in2.3 mm
05:15 AM 60.0°F15.6°C -27.8°F-33.2°C 1% 4.7 mph SSE7.6 kmh SSE 12.1 mph19.5 kmh 29.42 in996.3 mb 0.02 in0.5 mm 0.00 in0.0 mm 0.09 in2.3 mm
05:14 AM 60.0°F15.6°C -27.8°F-33.2°C 1% 3.6 mph SSE5.8 kmh SSE 12.1 mph19.5 kmh 29.42 in996.3 mb 0.02 in0.5 mm 0.00 in0.0 mm 0.09 in2.3 mm
05:13 AM 60.0°F15.6°C -27.8°F-33.2°C 1% 6.0 mph SE9.7 kmh SE 12.1 mph19.5 kmh 29.42 in996.3 mb 0.02 in0.5 mm 0.00 in0.0 mm 0.09 in2.3 mm
05:12 AM 60.0°F15.6°C -27.8°F-33.2°C 1% 6.8 mph SE10.9 kmh SE 12.1 mph19.5 kmh 29.42 in996.3 mb 0.02 in0.5 mm 0.00 in0.0 mm 0.09 in2.3 mm
05:11 AM 60.0°F15.6°C -27.8°F-33.2°C 1% 5.2 mph SSE8.4 kmh SSE 12.6 mph20.3 kmh 29.42 in996.3 mb 0.02 in0.5 mm 0.00 in0.0 mm 0.09 in2.3 mm
05:10 AM 60.0°F15.6°C -27.8°F-33.2°C 1% 4.9 mph SSE7.9 kmh SSE 12.6 mph20.3 kmh 29.42 in996.3 mb 0.02 in0.5 mm 0.00 in0.0 mm 0.09 in2.3 mm
05:09 AM 60.0°F15.6°C -27.8°F-33.2°C 1% 5.5 mph S8.9 kmh S 12.6 mph20.3 kmh 29.42 in996.3 mb 0.02 in0.5 mm 0.00 in0.0 mm 0.09 in2.3 mm
05:08 AM 60.0°F15.6°C -27.8°F-33.2°C 1% 6.4 mph S10.3 kmh S 12.6 mph20.3 kmh 29.42 in996.3 mb 0.02 in0.5 mm 0.00 in0.0 mm 0.09 in2.3 mm
05:07 AM 60.2°F15.7°C -27.7°F-33.2°C 1% 6.0 mph S9.7 kmh S 13.3 mph21.4 kmh 29.42 in996.3 mb 0.02 in0.5 mm 0.00 in0.0 mm 0.09 in2.3 mm
05:06 AM 60.2°F15.7°C -27.7°F-33.2°C 1% 5.9 mph SSE9.5 kmh SSE 13.3 mph21.4 kmh 29.42 in996.3 mb 0.02 in0.5 mm 0.00 in0.0 mm 0.09 in2.3 mm
05:05 AM 60.2°F15.7°C -27.7°F-33.2°C 1% 5.2 mph SSE8.4 kmh SSE 13.3 mph21.4 kmh 29.42 in996.3 mb 0.02 in0.5 mm 0.00 in0.0 mm 0.09 in2.3 mm
05:04 AM 60.2°F15.7°C -27.7°F-33.2°C 1% 4.4 mph SE7.1 kmh SE 13.3 mph21.4 kmh 29.42 in996.3 mb 0.02 in0.5 mm 0.00 in0.0 mm 0.09 in2.3 mm
05:03 AM 60.4°F15.8°C -27.5°F-33.1°C 1% 4.9 mph SSE7.9 kmh SSE 13.3 mph21.4 kmh 29.42 in996.3 mb 0.02 in0.5 mm 0.00 in0.0 mm 0.09 in2.3 mm
05:02 AM 60.2°F15.7°C -27.7°F-33.2°C 1% 6.1 mph SSE9.8 kmh SSE 13.3 mph21.4 kmh 29.42 in996.3 mb 0.02 in0.5 mm 0.00 in0.0 mm 0.09 in2.3 mm
05:01 AM 60.4°F15.8°C -27.5°F-33.1°C 1% 6.8 mph SE10.9 kmh SE 13.3 mph21.4 kmh 29.42 in996.3 mb 0.02 in0.5 mm 0.00 in0.0 mm 0.09 in2.3 mm
05:00 AM 60.4°F15.8°C -27.5°F-33.1°C 1% 6.2 mph SE10.0 kmh SE 13.3 mph21.4 kmh 29.42 in996.3 mb 0.02 in0.5 mm 0.00 in0.0 mm 0.09 in2.3 mm
04:59 AM 60.4°F15.8°C -27.5°F-33.1°C 1% 8.2 mph SE13.2 kmh SE 13.3 mph21.4 kmh 29.42 in996.3 mb 0.02 in0.5 mm 0.00 in0.0 mm 0.09 in2.3 mm
04:58 AM 60.4°F15.8°C -27.5°F-33.1°C 1% 8.0 mph SE12.9 kmh SE 13.3 mph21.4 kmh 29.42 in996.3 mb 0.02 in0.5 mm 0.60 in15.2 mm 0.09 in2.3 mm
04:57 AM 60.4°F15.8°C -27.5°F-33.1°C 1% 6.5 mph SE10.5 kmh SE 12.9 mph20.8 kmh 29.42 in996.3 mb 0.01 in0.3 mm 0.00 in0.0 mm 0.08 in2.0 mm
04:56 AM 60.6°F15.9°C -27.4°F-33.0°C 1% 6.2 mph SE10.0 kmh SE 12.9 mph20.8 kmh 29.43 in996.6 mb 0.01 in0.3 mm 0.00 in0.0 mm 0.08 in2.0 mm
04:55 AM 60.6°F15.9°C -27.4°F-33.0°C 1% 5.2 mph SE8.4 kmh SE 12.9 mph20.8 kmh 29.42 in996.3 mb 0.01 in0.3 mm 0.00 in0.0 mm 0.08 in2.0 mm
04:54 AM 60.6°F15.9°C -27.4°F-33.0°C 1% 6.4 mph SE10.3 kmh SE 12.9 mph20.8 kmh 29.42 in996.3 mb 0.01 in0.3 mm 0.00 in0.0 mm 0.08 in2.0 mm
04:53 AM 60.6°F15.9°C -27.4°F-33.0°C 1% 7.0 mph SE11.3 kmh SE 12.9 mph20.8 kmh 29.43 in996.6 mb 0.01 in0.3 mm 0.00 in0.0 mm 0.08 in2.0 mm
04:52 AM 60.7°F15.9°C -27.3°F-32.9°C 1% 5.4 mph SSE8.7 kmh SSE 13.3 mph21.4 kmh 29.42 in996.3 mb 0.01 in0.3 mm 0.00 in0.0 mm 0.08 in2.0 mm
04:51 AM 60.6°F15.9°C -27.4°F-33.0°C 1% 5.1 mph SSE8.2 kmh SSE 13.3 mph21.4 kmh 29.42 in996.3 mb 0.01 in0.3 mm 0.00 in0.0 mm 0.08 in2.0 mm
04:50 AM 60.7°F15.9°C -22.4°F-30.2°C 2% 6.6 mph SSE10.6 kmh SSE 13.3 mph21.4 kmh 29.42 in996.3 mb 0.01 in0.3 mm 0.00 in0.0 mm 0.08 in2.0 mm
04:49 AM 60.7°F15.9°C -22.4°F-30.2°C 2% 8.1 mph SSE13.0 kmh SSE 13.3 mph21.4 kmh 29.43 in996.6 mb 0.01 in0.3 mm 0.00 in0.0 mm 0.08 in2.0 mm
04:48 AM 60.7°F15.9°C -22.4°F-30.2°C 2% 7.8 mph SSE12.6 kmh SSE 13.3 mph21.4 kmh 29.42 in996.3 mb 0.01 in0.3 mm 0.60 in15.2 mm 0.08 in2.0 mm
04:47 AM 60.7°F15.9°C -27.3°F-32.9°C 1% 5.2 mph SE8.4 kmh SE 13.3 mph21.4 kmh 29.43 in996.6 mb 0.00 in0.0 mm 0.00 in0.0 mm 0.07 in1.8 mm
04:46 AM 60.7°F15.9°C -22.4°F-30.2°C 2% 5.6 mph SE9.0 kmh SE 13.3 mph21.4 kmh 29.42 in996.3 mb 0.00 in0.0 mm 0.00 in0.0 mm 0.07 in1.8 mm
04:45 AM 60.7°F15.9°C -22.4°F-30.2°C 2% 5.9 mph SE9.5 kmh SE 16.8 mph27.0 kmh 29.43 in996.6 mb 0.00 in0.0 mm 0.00 in0.0 mm 0.07 in1.8 mm
04:44 AM 60.7°F15.9°C -22.4°F-30.2°C 2% 6.0 mph SSE9.7 kmh SSE 16.8 mph27.0 kmh 29.42 in996.3 mb 0.00 in0.0 mm 0.00 in0.0 mm 0.07 in1.8 mm
04:43 AM 60.7°F15.9°C -27.3°F-32.9°C 1% 8.2 mph SE13.2 kmh SE 16.8 mph27.0 kmh 29.43 in996.6 mb 0.00 in0.0 mm 0.00 in0.0 mm 0.07 in1.8 mm
04:42 AM 60.7°F15.9°C -22.4°F-30.2°C 2% 7.6 mph SE12.2 kmh SE 16.8 mph27.0 kmh 29.43 in996.6 mb 0.00 in0.0 mm 0.00 in0.0 mm 0.07 in1.8 mm
04:41 AM 60.7°F15.9°C -22.4°F-30.2°C 2% 6.5 mph SE10.5 kmh SE 16.8 mph27.0 kmh 29.42 in996.3 mb 0.00 in0.0 mm 0.00 in0.0 mm 0.07 in1.8 mm
04:40 AM 60.7°F15.9°C -22.4°F-30.2°C 2% 5.3 mph SSE8.5 kmh SSE 16.8 mph27.0 kmh 29.42 in996.3 mb 0.00 in0.0 mm 0.00 in0.0 mm 0.07 in1.8 mm
04:39 AM 60.7°F15.9°C -27.3°F-32.9°C 1% 4.5 mph SE7.2 kmh SE 16.8 mph27.0 kmh 29.43 in996.6 mb 0.00 in0.0 mm 0.00 in0.0 mm 0.07 in1.8 mm
04:38 AM 60.7°F15.9°C -27.3°F-32.9°C 1% 4.6 mph SSE7.4 kmh SSE 16.8 mph27.0 kmh 29.43 in996.6 mb 0.00 in0.0 mm 0.00 in0.0 mm 0.07 in1.8 mm
04:37 AM 60.6°F15.9°C -27.4°F-33.0°C 1% 5.5 mph S8.9 kmh S 16.8 mph27.0 kmh 29.43 in996.6 mb 0.00 in0.0 mm 0.00 in0.0 mm 0.07 in1.8 mm
04:36 AM 60.6°F15.9°C -27.4°F-33.0°C 1% 9.8 mph SSE15.8 kmh SSE 16.8 mph27.0 kmh 29.43 in996.6 mb 0.00 in0.0 mm 0.00 in0.0 mm 0.07 in1.8 mm
04:35 AM 60.7°F15.9°C -27.3°F-32.9°C 1% 9.0 mph SSE14.5 kmh SSE 16.8 mph27.0 kmh 29.42 in996.3 mb 0.00 in0.0 mm 0.00 in0.0 mm 0.07 in1.8 mm
04:34 AM 60.6°F15.9°C -27.4°F-33.0°C 1% 8.3 mph SSE13.4 kmh SSE 16.1 mph25.9 kmh 29.42 in996.3 mb 0.00 in0.0 mm 0.00 in0.0 mm 0.07 in1.8 mm
04:33 AM 60.6°F15.9°C -27.4°F-33.0°C 1% 9.0 mph SSE14.5 kmh SSE 16.1 mph25.9 kmh 29.42 in996.3 mb 0.00 in0.0 mm 0.00 in0.0 mm 0.07 in1.8 mm
04:32 AM 60.6°F15.9°C -27.4°F-33.0°C 1% 7.2 mph SE11.6 kmh SE 12.1 mph19.5 kmh 29.42 in996.3 mb 0.00 in0.0 mm 0.00 in0.0 mm 0.07 in1.8 mm
04:31 AM 60.6°F15.9°C -27.4°F-33.0°C 1% 6.8 mph SE10.9 kmh SE 12.1 mph19.5 kmh 29.42 in996.3 mb 0.00 in0.0 mm 0.00 in0.0 mm 0.07 in1.8 mm
04:30 AM 60.6°F15.9°C -27.4°F-33.0°C 1% 5.4 mph SSE8.7 kmh SSE 12.1 mph19.5 kmh 29.42 in996.3 mb 0.00 in0.0 mm 0.00 in0.0 mm 0.07 in1.8 mm
04:29 AM 60.6°F15.9°C -27.4°F-33.0°C 1% 5.2 mph SSE8.4 kmh SSE 12.1 mph19.5 kmh 29.42 in996.3 mb 0.00 in0.0 mm 0.00 in0.0 mm 0.07 in1.8 mm
04:28 AM 60.6°F15.9°C -27.4°F-33.0°C 1% 6.0 mph SE9.7 kmh SE 12.1 mph19.5 kmh 29.42 in996.3 mb 0.00 in0.0 mm 0.00 in0.0 mm 0.07 in1.8 mm
04:27 AM 60.6°F15.9°C -27.4°F-33.0°C 1% 7.1 mph SE11.4 kmh SE 12.1 mph19.5 kmh 29.42 in996.3 mb 0.00 in0.0 mm 0.00 in0.0 mm 0.07 in1.8 mm
04:26 AM 60.6°F15.9°C -27.4°F-33.0°C 1% 7.1 mph SE11.4 kmh SE 12.1 mph19.5 kmh 29.42 in996.3 mb 0.00 in0.0 mm 0.00 in0.0 mm 0.07 in1.8 mm
04:25 AM 60.6°F15.9°C -27.4°F-33.0°C 1% 8.1 mph SE13.0 kmh SE 12.1 mph19.5 kmh 29.42 in996.3 mb 0.00 in0.0 mm 0.00 in0.0 mm 0.07 in1.8 mm
04:24 AM 60.4°F15.8°C -27.5°F-33.1°C 1% 7.8 mph SSE12.6 kmh SSE 18.4 mph29.6 kmh 29.42 in996.3 mb 0.00 in0.0 mm 0.00 in0.0 mm 0.07 in1.8 mm
04:23 AM 60.4°F15.8°C -27.5°F-33.1°C 1% 6.1 mph S9.8 kmh S 18.4 mph29.6 kmh 29.42 in996.3 mb 0.00 in0.0 mm 0.00 in0.0 mm 0.07 in1.8 mm
04:22 AM 60.6°F15.9°C -27.4°F-33.0°C 1% 5.8 mph SSE9.3 kmh SSE 18.4 mph29.6 kmh 29.42 in996.3 mb 0.00 in0.0 mm 0.00 in0.0 mm 0.07 in1.8 mm
04:21 AM 60.4°F15.8°C -27.5°F-33.1°C 1% 6.0 mph SE9.7 kmh SE 18.4 mph29.6 kmh 29.42 in996.3 mb 0.00 in0.0 mm 0.00 in0.0 mm 0.07 in1.8 mm
04:20 AM 60.4°F15.8°C -27.5°F-33.1°C 1% 6.2 mph SE10.0 kmh SE 18.4 mph29.6 kmh 29.42 in996.3 mb 0.00 in0.0 mm 0.00 in0.0 mm 0.07 in1.8 mm
04:19 AM 60.4°F15.8°C -27.5°F-33.1°C 1% 5.7 mph SE9.2 kmh SE 18.4 mph29.6 kmh 29.42 in996.3 mb 0.00 in0.0 mm 0.00 in0.0 mm 0.07 in1.8 mm
04:18 AM 60.4°F15.8°C -27.5°F-33.1°C 1% 4.7 mph SSE7.6 kmh SSE 18.4 mph29.6 kmh 29.42 in996.3 mb 0.00 in0.0 mm 0.00 in0.0 mm 0.07 in1.8 mm
04:17 AM 60.4°F15.8°C -27.5°F-33.1°C 1% 4.8 mph SSE7.7 kmh SSE 18.4 mph29.6 kmh 29.42 in996.3 mb 0.00 in0.0 mm 0.00 in0.0 mm 0.07 in1.8 mm
04:16 AM 60.4°F15.8°C -27.5°F-33.1°C 1% 7.6 mph SSE12.2 kmh SSE 18.4 mph29.6 kmh 29.42 in996.3 mb 0.00 in0.0 mm 0.00 in0.0 mm 0.07 in1.8 mm
04:15 AM 60.4°F15.8°C -27.5°F-33.1°C 1% 7.7 mph SSE12.4 kmh SSE 18.4 mph29.6 kmh 29.42 in996.3 mb 0.00 in0.0 mm 0.00 in0.0 mm 0.07 in1.8 mm
04:14 AM 60.4°F15.8°C -27.5°F-33.1°C 1% 4.7 mph SE7.6 kmh SE 12.1 mph19.5 kmh 29.42 in996.3 mb 0.00 in0.0 mm 0.00 in0.0 mm 0.07 in1.8 mm
04:13 AM 60.6°F15.9°C -27.4°F-33.0°C 1% 4.5 mph SE7.2 kmh SE 12.1 mph19.5 kmh 29.42 in996.3 mb 0.00 in0.0 mm 0.00 in0.0 mm 0.07 in1.8 mm
04:12 AM 60.6°F15.9°C -27.4°F-33.0°C 1% 4.1 mph SE6.6 kmh SE 12.1 mph19.5 kmh 29.42 in996.3 mb 0.00 in0.0 mm 0.00 in0.0 mm 0.07 in1.8 mm
04:11 AM 60.4°F15.8°C -27.5°F-33.1°C 1% 5.0 mph SE8.0 kmh SE 12.1 mph19.5 kmh 29.42 in996.3 mb 0.00 in0.0 mm 0.00 in0.0 mm 0.07 in1.8 mm
04:10 AM 60.6°F15.9°C -27.4°F-33.0°C 1% 7.0 mph SSE11.3 kmh SSE 12.1 mph19.5 kmh 29.42 in996.3 mb 0.00 in0.0 mm 0.00 in0.0 mm 0.07 in1.8 mm
04:09 AM 60.4°F15.8°C -27.5°F-33.1°C 1% 6.6 mph SSE10.6 kmh SSE 12.1 mph19.5 kmh 29.42 in996.3 mb 0.00 in0.0 mm 0.00 in0.0 mm 0.07 in1.8 mm
04:08 AM 60.4°F15.8°C -27.5°F-33.1°C 1% 6.1 mph SE9.8 kmh SE 12.1 mph19.5 kmh 29.42 in996.3 mb 0.00 in0.0 mm 0.00 in0.0 mm 0.07 in1.8 mm
04:07 AM 60.4°F15.8°C -27.5°F-33.1°C 1% 7.5 mph SE12.1 kmh SE 12.1 mph19.5 kmh 29.42 in996.3 mb 0.00 in0.0 mm 0.00 in0.0 mm 0.07 in1.8 mm
04:06 AM 60.4°F15.8°C -27.5°F-33.1°C 1% 7.2 mph SE11.6 kmh SE 12.1 mph19.5 kmh 29.42 in996.3 mb 0.00 in0.0 mm 0.00 in0.0 mm 0.07 in1.8 mm
04:05 AM 60.4°F15.8°C -27.5°F-33.1°C 1% 7.4 mph SE11.9 kmh SE 12.1 mph19.5 kmh 29.42 in996.3 mb 0.00 in0.0 mm 0.00 in0.0 mm 0.07 in1.8 mm
04:04 AM 60.4°F15.8°C -27.5°F-33.1°C 1% 8.5 mph SE13.7 kmh SE 12.6 mph20.3 kmh 29.42 in996.3 mb 0.00 in0.0 mm 0.00 in0.0 mm 0.07 in1.8 mm
04:03 AM 60.4°F15.8°C -27.5°F-33.1°C 1% 6.4 mph SE10.3 kmh SE 12.6 mph20.3 kmh 29.42 in996.3 mb 0.00 in0.0 mm 0.00 in0.0 mm 0.07 in1.8 mm
04:02 AM 60.4°F15.8°C -27.5°F-33.1°C 1% 4.4 mph SE7.1 kmh SE 12.6 mph20.3 kmh 29.42 in996.3 mb 0.00 in0.0 mm 0.00 in0.0 mm 0.07 in1.8 mm
04:01 AM 60.4°F15.8°C -27.5°F-33.1°C 1% 5.4 mph SE8.7 kmh SE 12.6 mph20.3 kmh 29.42 in996.3 mb 0.00 in0.0 mm 0.00 in0.0 mm 0.07 in1.8 mm
04:00 AM 60.4°F15.8°C -27.5°F-33.1°C 1% 6.7 mph SE10.8 kmh SE 12.6 mph20.3 kmh 29.42 in996.3 mb 0.00 in0.0 mm 0.00 in0.0 mm 0.07 in1.8 mm
03:59 AM 60.4°F15.8°C -27.5°F-33.1°C 1% 6.7 mph SE10.8 kmh SE 13.3 mph21.4 kmh 29.42 in996.3 mb 0.00 in0.0 mm 0.00 in0.0 mm 0.07 in1.8 mm
03:58 AM 60.4°F15.8°C -27.5°F-33.1°C 1% 6.3 mph SE10.1 kmh SE 13.3 mph21.4 kmh 29.42 in996.3 mb 0.00 in0.0 mm 0.00 in0.0 mm 0.07 in1.8 mm
03:57 AM 60.4°F15.8°C -27.5°F-33.1°C 1% 7.0 mph SE11.3 kmh SE 13.3 mph21.4 kmh 29.42 in996.3 mb 0.00 in0.0 mm 0.00 in0.0 mm 0.07 in1.8 mm
03:56 AM 60.4°F15.8°C -27.5°F-33.1°C 1% 8.0 mph SSE12.9 kmh SSE 13.3 mph21.4 kmh 29.42 in996.3 mb 0.00 in0.0 mm 0.00 in0.0 mm 0.07 in1.8 mm
03:55 AM 60.4°F15.8°C -27.5°F-33.1°C 1% 6.7 mph SSE10.8 kmh SSE 15.6 mph25.1 kmh 29.42 in996.3 mb 0.00 in0.0 mm 0.00 in0.0 mm 0.07 in1.8 mm
03:54 AM 60.4°F15.8°C -27.5°F-33.1°C 1% 5.4 mph SE8.7 kmh SE 15.6 mph25.1 kmh 29.42 in996.3 mb 0.00 in0.0 mm 0.00 in0.0 mm 0.07 in1.8 mm
03:53 AM 60.4°F15.8°C -27.5°F-33.1°C 1% 4.7 mph SE7.6 kmh SE 15.6 mph25.1 kmh 29.42 in996.3 mb 0.00 in0.0 mm 0.00 in0.0 mm 0.07 in1.8 mm
03:52 AM 60.4°F15.8°C -27.5°F-33.1°C 1% 4.8 mph SE7.7 kmh SE 15.6 mph25.1 kmh 29.42 in996.3 mb 0.00 in0.0 mm 0.00 in0.0 mm 0.07 in1.8 mm
03:51 AM 60.4°F15.8°C -27.5°F-33.1°C 1% 5.4 mph SE8.7 kmh SE 15.6 mph25.1 kmh 29.42 in996.3 mb 0.00 in0.0 mm 0.00 in0.0 mm 0.07 in1.8 mm
03:50 AM 60.4°F15.8°C -27.5°F-33.1°C 1% 5.9 mph SE9.5 kmh SE 15.6 mph25.1 kmh 29.42 in996.3 mb 0.00 in0.0 mm 0.00 in0.0 mm 0.07 in1.8 mm
03:49 AM 60.4°F15.8°C -27.5°F-33.1°C 1% 7.4 mph S11.9 kmh S 15.6 mph25.1 kmh 29.42 in996.3 mb 0.00 in0.0 mm 0.00 in0.0 mm 0.07 in1.8 mm
03:48 AM 60.4°F15.8°C -27.5°F-33.1°C 1% 7.9 mph S12.7 kmh S 15.6 mph25.1 kmh 29.42 in996.3 mb 0.00 in0.0 mm 0.00 in0.0 mm 0.07 in1.8 mm
03:47 AM 60.4°F15.8°C -27.5°F-33.1°C 1% 8.5 mph SE13.7 kmh SE 15.6 mph25.1 kmh 29.42 in996.3 mb 0.00 in0.0 mm 0.00 in0.0 mm 0.07 in1.8 mm
03:46 AM 60.4°F15.8°C -27.5°F-33.1°C 1% 8.1 mph SE13.0 kmh SE 15.6 mph25.1 kmh 29.42 in996.3 mb 0.00 in0.0 mm 0.00 in0.0 mm 0.07 in1.8 mm
03:45 AM 60.4°F15.8°C -27.5°F-33.1°C 1% 6.5 mph SSE10.5 kmh SSE 12.1 mph19.5 kmh 29.42 in996.3 mb 0.00 in0.0 mm 0.00 in0.0 mm 0.07 in1.8 mm
03:44 AM 60.4°F15.8°C -27.5°F-33.1°C 1% 6.3 mph SSE10.1 kmh SSE 15.2 mph24.5 kmh 29.42 in996.3 mb 0.00 in0.0 mm 0.00 in0.0 mm 0.07 in1.8 mm
03:43 AM 60.4°F15.8°C -27.5°F-33.1°C 1% 7.3 mph SE11.7 kmh SE 15.2 mph24.5 kmh 29.42 in996.3 mb 0.00 in0.0 mm 0.00 in0.0 mm 0.07 in1.8 mm
03:42 AM 60.4°F15.8°C -27.5°F-33.1°C 1% 6.9 mph SSE11.1 kmh SSE 15.2 mph24.5 kmh 29.42 in996.3 mb 0.00 in0.0 mm 0.00 in0.0 mm 0.07 in1.8 mm
03:41 AM 60.4°F15.8°C -27.5°F-33.1°C 1% 7.1 mph SSE11.4 kmh SSE 15.2 mph24.5 kmh 29.42 in996.3 mb 0.00 in0.0 mm 0.00 in0.0 mm 0.07 in1.8 mm
03:40 AM 60.4°F15.8°C -27.5°F-33.1°C 1% 7.5 mph SE12.1 kmh SE 15.2 mph24.5 kmh 29.41 in995.9 mb 0.00 in0.0 mm 0.00 in0.0 mm 0.07 in1.8 mm
03:39 AM 60.2°F15.7°C -27.7°F-33.2°C 1% 6.1 mph SE9.8 kmh SE 15.2 mph24.5 kmh 29.42 in996.3 mb 0.00 in0.0 mm 0.00 in0.0 mm 0.07 in1.8 mm
03:38 AM 60.2°F15.7°C -27.7°F-33.2°C 1% 5.8 mph S9.3 kmh S 15.2 mph24.5 kmh 29.42 in996.3 mb 0.00 in0.0 mm 0.00 in0.0 mm 0.07 in1.8 mm
03:37 AM 60.2°F15.7°C -27.7°F-33.2°C 1% 5.3 mph SSE8.5 kmh SSE 15.2 mph24.5 kmh 29.42 in996.3 mb 0.00 in0.0 mm 0.00 in0.0 mm 0.07 in1.8 mm
03:36 AM 60.2°F15.7°C -27.7°F-33.2°C 1% 6.2 mph SE10.0 kmh SE 15.2 mph24.5 kmh 29.42 in996.3 mb 0.00 in0.0 mm 0.00 in0.0 mm 0.07 in1.8 mm
03:35 AM 60.2°F15.7°C -27.7°F-33.2°C 1% 6.5 mph SE10.5 kmh SE 15.2 mph24.5 kmh 29.41 in995.9 mb 0.00 in0.0 mm 0.00 in0.0 mm 0.07 in1.8 mm
03:34 AM 60.2°F15.7°C -27.7°F-33.2°C 1% 6.2 mph SE10.0 kmh SE 14.5 mph23.3 kmh 29.42 in996.3 mb 0.00 in0.0 mm 0.00 in0.0 mm 0.07 in1.8 mm
03:33 AM 60.2°F15.7°C -27.7°F-33.2°C 1% 7.8 mph SE12.6 kmh SE 14.5 mph23.3 kmh 29.42 in996.3 mb 0.00 in0.0 mm 0.00 in0.0 mm 0.07 in1.8 mm
03:32 AM 60.2°F15.7°C -27.7°F-33.2°C 1% 8.5 mph SE13.7 kmh SE 14.5 mph23.3 kmh 29.42 in996.3 mb 0.00 in0.0 mm 0.00 in0.0 mm 0.07 in1.8 mm
03:31 AM 60.2°F15.7°C -27.7°F-33.2°C 1% 8.2 mph SE13.2 kmh SE 14.5 mph23.3 kmh 29.41 in995.9 mb 0.00 in0.0 mm 0.00 in0.0 mm 0.07 in1.8 mm
03:30 AM 60.2°F15.7°C -27.7°F-33.2°C 1% 6.2 mph SE10.0 kmh SE 14.5 mph23.3 kmh 29.42 in996.3 mb 0.00 in0.0 mm 0.00 in0.0 mm 0.07 in1.8 mm
03:29 AM 60.0°F15.6°C -27.8°F-33.2°C 1% 3.5 mph SSE5.6 kmh SSE 11.0 mph17.7 kmh 29.42 in996.3 mb 0.00 in0.0 mm 0.00 in0.0 mm 0.07 in1.8 mm
03:28 AM 60.0°F15.6°C -27.8°F-33.2°C 1% 4.4 mph S7.1 kmh S 11.4 mph18.3 kmh 29.42 in996.3 mb 0.00 in0.0 mm 0.00 in0.0 mm 0.07 in1.8 mm
03:27 AM 60.0°F15.6°C -27.8°F-33.2°C 1% 5.5 mph SSE8.9 kmh SSE 11.4 mph18.3 kmh 29.42 in996.3 mb 0.00 in0.0 mm 0.00 in0.0 mm 0.07 in1.8 mm
03:26 AM 60.0°F15.6°C -27.8°F-33.2°C 1% 5.6 mph SE9.0 kmh SE 11.4 mph18.3 kmh 29.42 in996.3 mb 0.00 in0.0 mm 0.00 in0.0 mm 0.07 in1.8 mm
03:25 AM 60.0°F15.6°C -27.8°F-33.2°C 1% 5.6 mph SE9.0 kmh SE 11.4 mph18.3 kmh 29.42 in996.3 mb 0.00 in0.0 mm 0.00 in0.0 mm 0.07 in1.8 mm
03:24 AM 60.0°F15.6°C -27.8°F-33.2°C 1% 4.1 mph SSE6.6 kmh SSE 11.4 mph18.3 kmh 29.42 in996.3 mb 0.00 in0.0 mm 0.00 in0.0 mm 0.07 in1.8 mm
03:23 AM 60.0°F15.6°C -27.8°F-33.2°C 1% 4.7 mph ESE7.6 kmh ESE 12.9 mph20.8 kmh 29.41 in995.9 mb 0.00 in0.0 mm 0.00 in0.0 mm 0.07 in1.8 mm
03:22 AM 60.0°F15.6°C -27.8°F-33.2°C 1% 6.6 mph SE10.6 kmh SE 12.9 mph20.8 kmh 29.42 in996.3 mb 0.00 in0.0 mm 0.00 in0.0 mm 0.07 in1.8 mm
03:21 AM 60.0°F15.6°C -27.8°F-33.2°C 1% 6.4 mph SSE10.3 kmh SSE 12.9 mph20.8 kmh 29.42 in996.3 mb 0.00 in0.0 mm 0.00 in0.0 mm 0.07 in1.8 mm
03:20 AM 60.0°F15.6°C -27.8°F-33.2°C 1% 5.9 mph SSE9.5 kmh SSE 12.9 mph20.8 kmh 29.42 in996.3 mb 0.00 in0.0 mm 0.00 in0.0 mm 0.07 in1.8 mm
03:19 AM 60.0°F15.6°C -27.8°F-33.2°C 1% 6.0 mph SSE9.7 kmh SSE 12.9 mph20.8 kmh 29.42 in996.3 mb 0.00 in0.0 mm 0.00 in0.0 mm 0.07 in1.8 mm
03:18 AM 60.0°F15.6°C -27.8°F-33.2°C 1% 6.0 mph SSE9.7 kmh SSE 12.9 mph20.8 kmh 29.42 in996.3 mb 0.00 in0.0 mm 0.00 in0.0 mm 0.07 in1.8 mm
03:17 AM 60.0°F15.6°C -27.8°F-33.2°C 1% 5.6 mph SE9.0 kmh SE 12.9 mph20.8 kmh 29.42 in996.3 mb 0.00 in0.0 mm 0.00 in0.0 mm 0.07 in1.8 mm
03:16 AM 60.0°F15.6°C -27.8°F-33.2°C 1% 5.9 mph SE9.5 kmh SE 12.9 mph20.8 kmh 29.42 in996.3 mb 0.00 in0.0 mm 0.00 in0.0 mm 0.07 in1.8 mm
03:15 AM 60.0°F15.6°C -27.8°F-33.2°C 1% 7.4 mph SE11.9 kmh SE 16.1 mph25.9 kmh 29.42 in996.3 mb 0.00 in0.0 mm 0.00 in0.0 mm 0.07 in1.8 mm
03:14 AM 60.0°F15.6°C -27.8°F-33.2°C 1% 6.4 mph SE10.3 kmh SE 16.1 mph25.9 kmh 29.42 in996.3 mb 0.00 in0.0 mm 0.00 in0.0 mm 0.07 in1.8 mm
03:13 AM 60.0°F15.6°C -27.8°F-33.2°C 1% 4.5 mph SE7.2 kmh SE 16.1 mph25.9 kmh 29.42 in996.3 mb 0.00 in0.0 mm 0.00 in0.0 mm 0.07 in1.8 mm
03:12 AM 60.0°F15.6°C -27.8°F-33.2°C 1% 4.9 mph SE7.9 kmh SE 16.1 mph25.9 kmh 29.42 in996.3 mb 0.00 in0.0 mm 0.00 in0.0 mm 0.07 in1.8 mm
03:11 AM 60.0°F15.6°C -27.8°F-33.2°C 1% 5.2 mph SSE8.4 kmh SSE 16.1 mph25.9 kmh 29.42 in996.3 mb 0.00 in0.0 mm 0.00 in0.0 mm 0.07 in1.8 mm
03:10 AM 60.0°F15.6°C -27.8°F-33.2°C 1% 6.2 mph SE10.0 kmh SE 16.1 mph25.9 kmh 29.42 in996.3 mb 0.00 in0.0 mm 0.00 in0.0 mm 0.07 in1.8 mm
03:09 AM 60.0°F15.6°C -27.8°F-33.2°C 1% 5.5 mph SE8.9 kmh SE 16.1 mph25.9 kmh 29.42 in996.3 mb 0.00 in0.0 mm 0.00 in0.0 mm 0.07 in1.8 mm
03:08 AM 60.0°F15.6°C -27.8°F-33.2°C 1% 3.3 mph SE5.3 kmh SE 16.1 mph25.9 kmh 29.42 in996.3 mb 0.00 in0.0 mm 0.00 in0.0 mm 0.07 in1.8 mm
03:07 AM 60.0°F15.6°C -27.8°F-33.2°C 1% 4.9 mph SE7.9 kmh SE 16.1 mph25.9 kmh 29.42 in996.3 mb 0.00 in0.0 mm 0.00 in0.0 mm 0.07 in1.8 mm
03:06 AM 60.0°F15.6°C -27.8°F-33.2°C 1% 7.2 mph SE11.6 kmh SE 16.1 mph25.9 kmh 29.42 in996.3 mb 0.00 in0.0 mm 0.00 in0.0 mm 0.07 in1.8 mm
03:05 AM 60.2°F15.7°C -27.7°F-33.2°C 1% 7.6 mph SE12.2 kmh SE 16.1 mph25.9 kmh 29.42 in996.3 mb 0.00 in0.0 mm 0.00 in0.0 mm 0.07 in1.8 mm
03:04 AM 60.0°F15.6°C -27.8°F-33.2°C 1% 6.3 mph SE10.1 kmh SE 14.2 mph22.9 kmh 29.42 in996.3 mb 0.00 in0.0 mm 0.00 in0.0 mm 0.07 in1.8 mm
03:03 AM 60.0°F15.6°C -27.8°F-33.2°C 1% 6.7 mph SE10.8 kmh SE 14.2 mph22.9 kmh 29.42 in996.3 mb 0.00 in0.0 mm 0.00 in0.0 mm 0.07 in1.8 mm
03:02 AM 60.0°F15.6°C -27.8°F-33.2°C 1% 7.6 mph SE12.2 kmh SE 14.2 mph22.9 kmh 29.42 in996.3 mb 0.00 in0.0 mm 0.00 in0.0 mm 0.07 in1.8 mm
03:01 AM 60.0°F15.6°C -27.8°F-33.2°C 1% 6.9 mph SE11.1 kmh SE 14.2 mph22.9 kmh 29.42 in996.3 mb 0.00 in0.0 mm 0.00 in0.0 mm 0.07 in1.8 mm
03:00 AM 60.0°F15.6°C -27.8°F-33.2°C 1% 5.0 mph SSE8.0 kmh SSE 11.0 mph17.7 kmh 29.42 in996.3 mb 0.00 in0.0 mm 0.00 in0.0 mm 0.07 in1.8 mm
02:59 AM 60.0°F15.6°C -27.8°F-33.2°C 1% 5.1 mph S8.2 kmh S 11.0 mph17.7 kmh 29.42 in996.3 mb 0.00 in0.0 mm 0.00 in0.0 mm 0.07 in1.8 mm
02:58 AM 60.0°F15.6°C -27.8°F-33.2°C 1% 7.0 mph S11.3 kmh S 11.0 mph17.7 kmh 29.42 in996.3 mb 0.00 in0.0 mm 0.00 in0.0 mm 0.07 in1.8 mm
02:57 AM 60.0°F15.6°C -27.8°F-33.2°C 1% 6.0 mph S9.7 kmh S 12.6 mph20.3 kmh 29.42 in996.3 mb 0.00 in0.0 mm 0.00 in0.0 mm 0.07 in1.8 mm
02:56 AM 60.0°F15.6°C -27.8°F-33.2°C 1% 4.0 mph SSE6.4 kmh SSE 12.6 mph20.3 kmh 29.42 in996.3 mb 0.00 in0.0 mm 0.00 in0.0 mm 0.07 in1.8 mm
02:55 AM 60.0°F15.6°C -27.8°F-33.2°C 1% 5.1 mph SE8.2 kmh SE 12.6 mph20.3 kmh 29.42 in996.3 mb 0.00 in0.0 mm 0.00 in0.0 mm 0.07 in1.8 mm
02:54 AM 60.0°F15.6°C -27.8°F-33.2°C 1% 5.4 mph SE8.7 kmh SE 12.6 mph20.3 kmh 29.42 in996.3 mb 0.00 in0.0 mm 0.00 in0.0 mm 0.07 in1.8 mm
02:53 AM 60.0°F15.6°C -27.8°F-33.2°C 1% 5.4 mph SSE8.7 kmh SSE 12.6 mph20.3 kmh 29.42 in996.3 mb 0.00 in0.0 mm 0.00 in0.0 mm 0.07 in1.8 mm
02:52 AM 60.0°F15.6°C -27.8°F-33.2°C 1% 6.0 mph SE9.7 kmh SE 12.6 mph20.3 kmh 29.42 in996.3 mb 0.00 in0.0 mm 0.00 in0.0 mm 0.07 in1.8 mm
02:51 AM 60.0°F15.6°C -27.8°F-33.2°C 1% 5.8 mph SE9.3 kmh SE 12.6 mph20.3 kmh 29.42 in996.3 mb 0.00 in0.0 mm 0.00 in0.0 mm 0.07 in1.8 mm
02:50 AM 60.0°F15.6°C -27.8°F-33.2°C 1% 6.6 mph S10.6 kmh S 12.6 mph20.3 kmh 29.42 in996.3 mb 0.00 in0.0 mm 0.00 in0.0 mm 0.07 in1.8 mm
02:49 AM 60.0°F15.6°C -27.8°F-33.2°C 1% 6.5 mph S10.5 kmh S 12.6 mph20.3 kmh 29.42 in996.3 mb 0.00 in0.0 mm 0.00 in0.0 mm 0.07 in1.8 mm
02:48 AM 60.0°F15.6°C -27.8°F-33.2°C 1% 4.5 mph S7.2 kmh S 12.6 mph20.3 kmh 29.42 in996.3 mb 0.00 in0.0 mm 0.00 in0.0 mm 0.07 in1.8 mm
02:47 AM 60.0°F15.6°C -27.8°F-33.2°C 1% 4.3 mph SE6.9 kmh SE 12.1 mph19.5 kmh 29.42 in996.3 mb 0.00 in0.0 mm 0.00 in0.0 mm 0.07 in1.8 mm
02:46 AM 60.0°F15.6°C -27.8°F-33.2°C 1% 4.7 mph SE7.6 kmh SE 12.1 mph19.5 kmh 29.42 in996.3 mb 0.00 in0.0 mm 0.00 in0.0 mm 0.07 in1.8 mm
02:45 AM 60.0°F15.6°C -27.8°F-33.2°C 1% 4.8 mph SE7.7 kmh SE 12.1 mph19.5 kmh 29.42 in996.3 mb 0.00 in0.0 mm 0.00 in0.0 mm 0.07 in1.8 mm
02:44 AM 60.0°F15.6°C -27.8°F-33.2°C 1% 6.4 mph SE10.3 kmh SE 12.1 mph19.5 kmh 29.42 in996.3 mb 0.00 in0.0 mm 0.00 in0.0 mm 0.07 in1.8 mm
02:43 AM 60.0°F15.6°C -27.8°F-33.2°C 1% 6.3 mph SSE10.1 kmh SSE 12.1 mph19.5 kmh 29.42 in996.3 mb 0.00 in0.0 mm 0.00 in0.0 mm 0.07 in1.8 mm
02:42 AM 60.0°F15.6°C -27.8°F-33.2°C 1% 4.5 mph SSE7.2 kmh SSE 12.1 mph19.5 kmh 29.42 in996.3 mb 0.00 in0.0 mm 0.00 in0.0 mm 0.07 in1.8 mm
02:41 AM 60.0°F15.6°C -27.8°F-33.2°C 1% 4.5 mph SSE7.2 kmh SSE 12.1 mph19.5 kmh 29.42 in996.3 mb 0.00 in0.0 mm 0.00 in0.0 mm 0.07 in1.8 mm
02:40 AM 60.0°F15.6°C -27.8°F-33.2°C 1% 6.2 mph SE10.0 kmh SE 12.1 mph19.5 kmh 29.42 in996.3 mb 0.00 in0.0 mm 0.00 in0.0 mm 0.07 in1.8 mm
02:39 AM 60.0°F15.6°C -27.8°F-33.2°C 1% 7.4 mph SE11.9 kmh SE 12.1 mph19.5 kmh 29.42 in996.3 mb 0.00 in0.0 mm 0.00 in0.0 mm 0.07 in1.8 mm
02:38 AM 60.0°F15.6°C -27.8°F-33.2°C 1% 6.2 mph SE10.0 kmh SE 12.1 mph19.5 kmh 29.42 in996.3 mb 0.00 in0.0 mm 0.00 in0.0 mm 0.07 in1.8 mm
02:37 AM 60.0°F15.6°C -27.8°F-33.2°C 1% 4.5 mph SSE7.2 kmh SSE 11.0 mph17.7 kmh 29.42 in996.3 mb 0.00 in0.0 mm 0.00 in0.0 mm 0.07 in1.8 mm
02:36 AM 60.0°F15.6°C -27.8°F-33.2°C 1% 6.1 mph S9.8 kmh S 11.0 mph17.7 kmh 29.42 in996.3 mb 0.00 in0.0 mm 0.00 in0.0 mm 0.07 in1.8 mm
02:35 AM 60.0°F15.6°C -27.8°F-33.2°C 1% 7.6 mph SSE12.2 kmh SSE 11.0 mph17.7 kmh 29.42 in996.3 mb 0.00 in0.0 mm 0.00 in0.0 mm 0.07 in1.8 mm
02:34 AM 60.0°F15.6°C -27.8°F-33.2°C 1% 5.6 mph SE9.0 kmh SE 11.0 mph17.7 kmh 29.42 in996.3 mb 0.00 in0.0 mm 0.00 in0.0 mm 0.07 in1.8 mm
02:33 AM 60.0°F15.6°C -27.8°F-33.2°C 1% 5.0 mph SE8.0 kmh SE 10.5 mph16.9 kmh 29.42 in996.3 mb 0.00 in0.0 mm 0.00 in0.0 mm 0.07 in1.8 mm
02:32 AM 60.0°F15.6°C -27.8°F-33.2°C 1% 6.0 mph SE9.7 kmh SE 10.5 mph16.9 kmh 29.42 in996.3 mb 0.00 in0.0 mm 0.00 in0.0 mm 0.07 in1.8 mm
02:31 AM 59.8°F15.4°C -27.9°F-33.3°C 1% 6.6 mph SE10.6 kmh SE 10.5 mph16.9 kmh 29.42 in996.3 mb 0.00 in0.0 mm 0.00 in0.0 mm 0.07 in1.8 mm
02:30 AM 59.8°F15.4°C -27.9°F-33.3°C 1% 7.0 mph SE11.3 kmh SE 10.5 mph16.9 kmh 29.42 in996.3 mb 0.00 in0.0 mm 0.00 in0.0 mm 0.07 in1.8 mm
02:29 AM 59.8°F15.4°C -27.9°F-33.3°C 1% 5.8 mph SE9.3 kmh SE 10.5 mph16.9 kmh 29.42 in996.3 mb 0.00 in0.0 mm 0.00 in0.0 mm 0.07 in1.8 mm
02:28 AM 59.8°F15.4°C -27.9°F-33.3°C 1% 4.5 mph SSE7.2 kmh SSE 10.5 mph16.9 kmh 29.42 in996.3 mb 0.00 in0.0 mm 0.00 in0.0 mm 0.07 in1.8 mm
02:27 AM 60.0°F15.6°C -27.8°F-33.2°C 1% 4.6 mph S7.4 kmh S 10.5 mph16.9 kmh 29.43 in996.6 mb 0.00 in0.0 mm 0.00 in0.0 mm 0.07 in1.8 mm
02:26 AM 60.0°F15.6°C -27.8°F-33.2°C 1% 5.1 mph SSE8.2 kmh SSE 10.5 mph16.9 kmh 29.42 in996.3 mb 0.00 in0.0 mm 0.00 in0.0 mm 0.07 in1.8 mm
02:25 AM 60.0°F15.6°C -27.8°F-33.2°C 1% 5.3 mph SE8.5 kmh SE 10.5 mph16.9 kmh 29.42 in996.3 mb 0.00 in0.0 mm 0.00 in0.0 mm 0.07 in1.8 mm
02:24 AM 59.8°F15.4°C -27.9°F-33.3°C 1% 5.7 mph SE9.2 kmh SE 11.4 mph18.3 kmh 29.42 in996.3 mb 0.00 in0.0 mm 0.00 in0.0 mm 0.07 in1.8 mm
02:23 AM 59.8°F15.4°C -27.9°F-33.3°C 1% 5.9 mph SE9.5 kmh SE 11.4 mph18.3 kmh 29.43 in996.6 mb 0.00 in0.0 mm 0.00 in0.0 mm 0.07 in1.8 mm
02:22 AM 60.0°F15.6°C -27.8°F-33.2°C 1% 5.4 mph SSE8.7 kmh SSE 11.4 mph18.3 kmh 29.43 in996.6 mb 0.00 in0.0 mm 0.00 in0.0 mm 0.07 in1.8 mm
02:21 AM 60.0°F15.6°C -27.8°F-33.2°C 1% 4.0 mph S6.4 kmh S 11.4 mph18.3 kmh 29.43 in996.6 mb 0.00 in0.0 mm 0.00 in0.0 mm 0.07 in1.8 mm
02:20 AM 59.8°F15.4°C -27.9°F-33.3°C 1% 4.5 mph SSE7.2 kmh SSE 11.4 mph18.3 kmh 29.43 in996.6 mb 0.00 in0.0 mm 0.00 in0.0 mm 0.07 in1.8 mm
02:19 AM 60.0°F15.6°C -27.8°F-33.2°C 1% 6.6 mph SSE10.6 kmh SSE 11.4 mph18.3 kmh 29.43 in996.6 mb 0.00 in0.0 mm 0.00 in0.0 mm 0.07 in1.8 mm
02:18 AM 60.0°F15.6°C -27.8°F-33.2°C 1% 6.1 mph SSE9.8 kmh SSE 11.4 mph18.3 kmh 29.43 in996.6 mb 0.00 in0.0 mm 0.00 in0.0 mm 0.07 in1.8 mm
02:17 AM 60.0°F15.6°C -27.8°F-33.2°C 1% 6.2 mph SE10.0 kmh SE 11.4 mph18.3 kmh 29.43 in996.6 mb 0.00 in0.0 mm 0.00 in0.0 mm 0.07 in1.8 mm
02:16 AM 60.0°F15.6°C -27.8°F-33.2°C 1% 7.3 mph SE11.7 kmh SE 11.4 mph18.3 kmh 29.43 in996.6 mb 0.00 in0.0 mm 0.00 in0.0 mm 0.07 in1.8 mm
02:15 AM 60.0°F15.6°C -27.8°F-33.2°C 1% 5.7 mph SSE9.2 kmh SSE 11.4 mph18.3 kmh 29.43 in996.6 mb 0.00 in0.0 mm 0.00 in0.0 mm 0.07 in1.8 mm
02:14 AM 60.0°F15.6°C -27.8°F-33.2°C 1% 4.0 mph SSE6.4 kmh SSE 8.9 mph14.3 kmh 29.43 in996.6 mb 0.00 in0.0 mm 0.00 in0.0 mm 0.07 in1.8 mm
02:13 AM 60.0°F15.6°C -27.8°F-33.2°C 1% 4.7 mph SE7.6 kmh SE 9.4 mph15.1 kmh 29.43 in996.6 mb 0.00 in0.0 mm 0.00 in0.0 mm 0.07 in1.8 mm
02:12 AM 60.0°F15.6°C -27.8°F-33.2°C 1% 6.0 mph SSE9.7 kmh SSE 11.7 mph18.8 kmh 29.43 in996.6 mb 0.00 in0.0 mm 0.00 in0.0 mm 0.07 in1.8 mm
02:11 AM 60.0°F15.6°C -27.8°F-33.2°C 1% 5.1 mph SSE8.2 kmh SSE 11.7 mph18.8 kmh 29.43 in996.6 mb 0.00 in0.0 mm 0.00 in0.0 mm 0.07 in1.8 mm
02:10 AM 60.0°F15.6°C -27.8°F-33.2°C 1% 3.6 mph SSE5.8 kmh SSE 11.7 mph18.8 kmh 29.43 in996.6 mb 0.00 in0.0 mm 0.00 in0.0 mm 0.07 in1.8 mm
02:09 AM 60.0°F15.6°C -27.8°F-33.2°C 1% 4.0 mph S6.4 kmh S 11.7 mph18.8 kmh 29.43 in996.6 mb 0.00 in0.0 mm 0.00 in0.0 mm 0.07 in1.8 mm
02:08 AM 60.0°F15.6°C -27.8°F-33.2°C 1% 5.5 mph SSE8.9 kmh SSE 11.7 mph18.8 kmh 29.43 in996.6 mb 0.00 in0.0 mm 0.00 in0.0 mm 0.07 in1.8 mm
02:07 AM 60.0°F15.6°C -27.8°F-33.2°C 1% 5.5 mph SE8.9 kmh SE 11.7 mph18.8 kmh 29.43 in996.6 mb 0.00 in0.0 mm 0.00 in0.0 mm 0.07 in1.8 mm
02:06 AM 60.0°F15.6°C -27.8°F-33.2°C 1% 5.1 mph SSE8.2 kmh SSE 11.7 mph18.8 kmh 29.43 in996.6 mb 0.00 in0.0 mm 0.00 in0.0 mm 0.07 in1.8 mm
02:05 AM 60.0°F15.6°C -27.8°F-33.2°C 1% 4.8 mph S7.7 kmh S 11.7 mph18.8 kmh 29.43 in996.6 mb 0.00 in0.0 mm 0.00 in0.0 mm 0.07 in1.8 mm
02:04 AM 60.0°F15.6°C -27.8°F-33.2°C 1% 6.2 mph SSE10.0 kmh SSE 11.7 mph18.8 kmh 29.43 in996.6 mb 0.00 in0.0 mm 0.00 in0.0 mm 0.07 in1.8 mm
02:03 AM 60.0°F15.6°C -27.8°F-33.2°C 1% 6.3 mph SE10.1 kmh SE 11.7 mph18.8 kmh 29.43 in996.6 mb 0.00 in0.0 mm 0.00 in0.0 mm 0.07 in1.8 mm
02:02 AM 60.0°F15.6°C -27.8°F-33.2°C 1% 5.0 mph SE8.0 kmh SE 11.7 mph18.8 kmh 29.43 in996.6 mb 0.00 in0.0 mm 0.00 in0.0 mm 0.07 in1.8 mm
02:01 AM 60.2°F15.7°C -27.7°F-33.2°C 1% 5.4 mph SSE8.7 kmh SSE 11.4 mph18.3 kmh 29.43 in996.6 mb 0.00 in0.0 mm 0.00 in0.0 mm 0.07 in1.8 mm
02:00 AM 60.2°F15.7°C -27.7°F-33.2°C 1% 6.5 mph SE10.5 kmh SE 12.1 mph19.5 kmh 29.43 in996.6 mb 0.00 in0.0 mm 0.00 in0.0 mm 0.07 in1.8 mm
01:59 AM 60.2°F15.7°C -27.7°F-33.2°C 1% 6.7 mph SE10.8 kmh SE 12.1 mph19.5 kmh 29.43 in996.6 mb 0.00 in0.0 mm 0.00 in0.0 mm 0.07 in1.8 mm
01:58 AM 60.2°F15.7°C -27.7°F-33.2°C 1% 5.3 mph SSE8.5 kmh SSE 12.1 mph19.5 kmh 29.43 in996.6 mb 0.00 in0.0 mm 0.00 in0.0 mm 0.07 in1.8 mm
01:57 AM 60.2°F15.7°C -27.7°F-33.2°C 1% 5.7 mph SSE9.2 kmh SSE 13.3 mph21.4 kmh 29.43 in996.6 mb 0.00 in0.0 mm 0.00 in0.0 mm 0.07 in1.8 mm
01:56 AM 60.2°F15.7°C -27.7°F-33.2°C 1% 6.3 mph SSE10.1 kmh SSE 13.3 mph21.4 kmh 29.43 in996.6 mb 0.00 in0.0 mm 0.00 in0.0 mm 0.07 in1.8 mm
01:55 AM 60.2°F15.7°C -27.7°F-33.2°C 1% 6.6 mph SSE10.6 kmh SSE 13.3 mph21.4 kmh 29.43 in996.6 mb 0.00 in0.0 mm 0.00 in0.0 mm 0.07 in1.8 mm
01:54 AM 60.2°F15.7°C -27.7°F-33.2°C 1% 5.8 mph S9.3 kmh S 13.3 mph21.4 kmh 29.43 in996.6 mb 0.00 in0.0 mm 0.00 in0.0 mm 0.07 in1.8 mm
01:53 AM 60.2°F15.7°C -27.7°F-33.2°C 1% 5.8 mph S9.3 kmh S 13.3 mph21.4 kmh 29.43 in996.6 mb 0.00 in0.0 mm 0.00 in0.0 mm 0.07 in1.8 mm
01:52 AM 60.2°F15.7°C -27.7°F-33.2°C 1% 7.4 mph SE11.9 kmh SE 13.3 mph21.4 kmh 29.43 in996.6 mb 0.00 in0.0 mm 0.00 in0.0 mm 0.07 in1.8 mm
01:51 AM 60.2°F15.7°C -27.7°F-33.2°C 1% 7.5 mph SSE12.1 kmh SSE 13.3 mph21.4 kmh 29.43 in996.6 mb 0.00 in0.0 mm 0.00 in0.0 mm 0.07 in1.8 mm
01:50 AM 60.2°F15.7°C -27.7°F-33.2°C 1% 6.5 mph S10.5 kmh S 13.3 mph21.4 kmh 29.43 in996.6 mb 0.00 in0.0 mm 0.00 in0.0 mm 0.07 in1.8 mm
01:49 AM 60.4°F15.8°C -27.5°F-33.1°C 1% 6.6 mph S10.6 kmh S 13.3 mph21.4 kmh 29.43 in996.6 mb 0.00 in0.0 mm 0.00 in0.0 mm 0.07 in1.8 mm
01:48 AM 60.4°F15.8°C -27.5°F-33.1°C 1% 7.3 mph SSE11.7 kmh SSE 13.3 mph21.4 kmh 29.43 in996.6 mb 0.00 in0.0 mm 0.00 in0.0 mm 0.07 in1.8 mm
01:47 AM 60.4°F15.8°C -27.5°F-33.1°C 1% 7.0 mph SSE11.3 kmh SSE 12.1 mph19.5 kmh 29.43 in996.6 mb 0.00 in0.0 mm 0.00 in0.0 mm 0.07 in1.8 mm
01:46 AM 60.2°F15.7°C -27.7°F-33.2°C 1% 6.5 mph SE10.5 kmh SE 12.6 mph20.3 kmh 29.43 in996.6 mb 0.00 in0.0 mm 0.00 in0.0 mm 0.07 in1.8 mm
01:45 AM 60.2°F15.7°C -27.7°F-33.2°C 1% 7.1 mph SSE11.4 kmh SSE 12.6 mph20.3 kmh 29.43 in996.6 mb 0.00 in0.0 mm 0.00 in0.0 mm 0.07 in1.8 mm
01:44 AM 60.4°F15.8°C -27.5°F-33.1°C 1% 7.4 mph SSE11.9 kmh SSE 12.6 mph20.3 kmh 29.43 in996.6 mb 0.00 in0.0 mm 0.00 in0.0 mm 0.07 in1.8 mm
01:43 AM 60.4°F15.8°C -27.5°F-33.1°C 1% 6.3 mph SSE10.1 kmh SSE 12.6 mph20.3 kmh 29.43 in996.6 mb 0.00 in0.0 mm 0.00 in0.0 mm 0.07 in1.8 mm
01:42 AM 60.4°F15.8°C -27.5°F-33.1°C 1% 6.5 mph S10.5 kmh S 13.7 mph22.0 kmh 29.43 in996.6 mb 0.00 in0.0 mm 0.00 in0.0 mm 0.07 in1.8 mm
01:41 AM 60.4°F15.8°C -27.5°F-33.1°C 1% 6.3 mph S10.1 kmh S 13.7 mph22.0 kmh 29.43 in996.6 mb 0.00 in0.0 mm 0.00 in0.0 mm 0.07 in1.8 mm
01:40 AM 60.4°F15.8°C -27.5°F-33.1°C 1% 5.1 mph SSE8.2 kmh SSE 13.7 mph22.0 kmh 29.43 in996.6 mb 0.00 in0.0 mm 0.00 in0.0 mm 0.07 in1.8 mm
01:39 AM 60.4°F15.8°C -27.5°F-33.1°C 1% 5.6 mph SSE9.0 kmh SSE 13.7 mph22.0 kmh 29.43 in996.6 mb 0.01 in0.3 mm 0.00 in0.0 mm 0.07 in1.8 mm
01:38 AM 60.4°F15.8°C -27.5°F-33.1°C 1% 6.7 mph SE10.8 kmh SE 13.7 mph22.0 kmh 29.43 in996.6 mb 0.01 in0.3 mm 0.00 in0.0 mm 0.07 in1.8 mm
01:37 AM 60.4°F15.8°C -27.5°F-33.1°C 1% 8.1 mph SE13.0 kmh SE 13.7 mph22.0 kmh 29.43 in996.6 mb 0.01 in0.3 mm 0.00 in0.0 mm 0.07 in1.8 mm
01:36 AM 60.4°F15.8°C -27.5°F-33.1°C 1% 8.4 mph SE13.5 kmh SE 13.7 mph22.0 kmh 29.43 in996.6 mb 0.01 in0.3 mm 0.00 in0.0 mm 0.07 in1.8 mm
01:35 AM 60.4°F15.8°C -27.5°F-33.1°C 1% 6.3 mph SE10.1 kmh SE 13.7 mph22.0 kmh 29.43 in996.6 mb 0.01 in0.3 mm 0.00 in0.0 mm 0.07 in1.8 mm
01:34 AM 60.2°F15.7°C -27.7°F-33.2°C 1% 7.2 mph SE11.6 kmh SE 13.7 mph22.0 kmh 29.43 in996.6 mb 0.02 in0.5 mm 0.00 in0.0 mm 0.07 in1.8 mm
01:33 AM 60.4°F15.8°C -27.5°F-33.1°C 1% 7.0 mph SE11.3 kmh SE 13.7 mph22.0 kmh 29.43 in996.6 mb 0.02 in0.5 mm 0.00 in0.0 mm 0.07 in1.8 mm
01:32 AM 60.4°F15.8°C -27.5°F-33.1°C 1% 6.7 mph SE10.8 kmh SE 13.7 mph22.0 kmh 29.43 in996.6 mb 0.03 in0.8 mm 0.00 in0.0 mm 0.07 in1.8 mm
01:31 AM 60.4°F15.8°C -27.5°F-33.1°C 1% 6.7 mph SE10.8 kmh SE 11.4 mph18.3 kmh 29.43 in996.6 mb 0.03 in0.8 mm 0.00 in0.0 mm 0.07 in1.8 mm
01:30 AM 60.4°F15.8°C -27.5°F-33.1°C 1% 5.1 mph SSE8.2 kmh SSE 11.4 mph18.3 kmh 29.43 in996.6 mb 0.06 in1.5 mm 0.00 in0.0 mm 0.07 in1.8 mm
01:29 AM 60.4°F15.8°C -27.5°F-33.1°C 1% 5.3 mph SSE8.5 kmh SSE 11.4 mph18.3 kmh 29.43 in996.6 mb 0.06 in1.5 mm 0.00 in0.0 mm 0.07 in1.8 mm
01:28 AM 60.4°F15.8°C -27.5°F-33.1°C 1% 6.2 mph SSE10.0 kmh SSE 13.3 mph21.4 kmh 29.43 in996.6 mb 0.06 in1.5 mm 0.00 in0.0 mm 0.07 in1.8 mm
01:27 AM 60.4°F15.8°C -27.5°F-33.1°C 1% 6.1 mph SSE9.8 kmh SSE 13.3 mph21.4 kmh 29.43 in996.6 mb 0.07 in1.8 mm 0.00 in0.0 mm 0.07 in1.8 mm
01:26 AM 60.4°F15.8°C -27.5°F-33.1°C 1% 4.8 mph SSE7.7 kmh SSE 13.3 mph21.4 kmh 29.43 in996.6 mb 0.07 in1.8 mm 0.00 in0.0 mm 0.07 in1.8 mm
01:25 AM 60.2°F15.7°C -27.7°F-33.2°C 1% 3.7 mph SSE6.0 kmh SSE 13.3 mph21.4 kmh 29.43 in996.6 mb 0.07 in1.8 mm 0.00 in0.0 mm 0.07 in1.8 mm
01:24 AM 60.4°F15.8°C -22.6°F-30.3°C 2% 3.4 mph SSE5.5 kmh SSE 13.3 mph21.4 kmh 29.43 in996.6 mb 0.07 in1.8 mm 0.00 in0.0 mm 0.07 in1.8 mm
01:23 AM 60.4°F15.8°C -27.5°F-33.1°C 1% 4.7 mph SSE7.6 kmh SSE 13.3 mph21.4 kmh 29.43 in996.6 mb 0.07 in1.8 mm 0.00 in0.0 mm 0.07 in1.8 mm
01:22 AM 60.4°F15.8°C -22.6°F-30.3°C 2% 5.9 mph SSE9.5 kmh SSE 13.3 mph21.4 kmh 29.43 in996.6 mb 0.07 in1.8 mm 0.00 in0.0 mm 0.07 in1.8 mm
01:21 AM 60.4°F15.8°C -22.6°F-30.3°C 2% 5.7 mph SE9.2 kmh SE 13.3 mph21.4 kmh 29.43 in996.6 mb 0.07 in1.8 mm 0.00 in0.0 mm 0.07 in1.8 mm
01:20 AM 60.4°F15.8°C -27.5°F-33.1°C 1% 6.9 mph SE11.1 kmh SE 13.3 mph21.4 kmh 29.43 in996.6 mb 0.07 in1.8 mm 0.00 in0.0 mm 0.07 in1.8 mm
01:19 AM 60.4°F15.8°C -18.2°F-27.9°C 3% 7.9 mph SE12.7 kmh SE 13.3 mph21.4 kmh 29.43 in996.6 mb 0.07 in1.8 mm 0.00 in0.0 mm 0.07 in1.8 mm
01:18 AM 60.6°F15.9°C -10.4°F-23.6°C 5% 7.6 mph SE12.2 kmh SE 12.6 mph20.3 kmh 29.43 in996.6 mb 0.07 in1.8 mm 0.00 in0.0 mm 0.07 in1.8 mm
01:17 AM 60.6°F15.9°C -10.4°F-23.6°C 5% 6.5 mph SE10.5 kmh SE 12.6 mph20.3 kmh 29.43 in996.6 mb 0.07 in1.8 mm 0.00 in0.0 mm 0.07 in1.8 mm
01:16 AM 60.4°F15.8°C -18.2°F-27.9°C 3% 6.5 mph SE10.5 kmh SE 12.6 mph20.3 kmh 29.43 in996.6 mb 0.07 in1.8 mm 0.00 in0.0 mm 0.07 in1.8 mm
01:15 AM 60.6°F15.9°C -10.4°F-23.6°C 5% 6.7 mph SSE10.8 kmh SSE 12.6 mph20.3 kmh 29.43 in996.6 mb 0.07 in1.8 mm 0.00 in0.0 mm 0.07 in1.8 mm
01:14 AM 60.4°F15.8°C -18.2°F-27.9°C 3% 6.5 mph SSE10.5 kmh SSE 12.6 mph20.3 kmh 29.43 in996.6 mb 0.07 in1.8 mm 0.00 in0.0 mm 0.07 in1.8 mm
01:13 AM 60.4°F15.8°C -18.2°F-27.9°C 3% 6.0 mph SSE9.7 kmh SSE 12.6 mph20.3 kmh 29.43 in996.6 mb 0.07 in1.8 mm 0.00 in0.0 mm 0.07 in1.8 mm
01:12 AM 60.6°F15.9°C -4.1°F-20.1°C 7% 6.2 mph SE10.0 kmh SE 12.6 mph20.3 kmh 29.43 in996.6 mb 0.07 in1.8 mm 0.00 in0.0 mm 0.07 in1.8 mm
01:11 AM 60.7°F15.9°C -4.1°F-20.1°C 7% 5.7 mph SE9.2 kmh SE 12.6 mph20.3 kmh 29.43 in996.6 mb 0.07 in1.8 mm 0.00 in0.0 mm 0.07 in1.8 mm
01:10 AM 60.7°F15.9°C -4.1°F-20.1°C 7% 5.9 mph SE9.5 kmh SE 11.4 mph18.3 kmh 29.43 in996.6 mb 0.07 in1.8 mm 0.00 in0.0 mm 0.07 in1.8 mm
01:09 AM 60.9°F16.1°C 3.7°F-15.7°C 10% 6.1 mph SSE9.8 kmh SSE 11.4 mph18.3 kmh 29.43 in996.6 mb 0.07 in1.8 mm 0.00 in0.0 mm 0.07 in1.8 mm
01:08 AM 60.7°F15.9°C -4.1°F-20.1°C 7% 3.7 mph SSE6.0 kmh SSE 11.4 mph18.3 kmh 29.43 in996.6 mb 0.07 in1.8 mm 0.00 in0.0 mm 0.07 in1.8 mm
01:07 AM 60.7°F15.9°C -4.1°F-20.1°C 7% 4.6 mph SSE7.4 kmh SSE 9.8 mph15.8 kmh 29.43 in996.6 mb 0.07 in1.8 mm 0.00 in0.0 mm